<?xml version='1.0' encoding='UTF-8'?><gpx version="1.1" creator="JPX - https://github.com/jenetics/jpx" xmlns="http://www.topografix.com/GPX/1/1"><trk><trkseg><trkpt lat="42.084515" lon="12.1796533"><ele>269.0</ele><time>2026-04-26T09:47:58.043Z</time></trkpt><trkpt lat="42.0844483" lon="12.1796433"><ele>269.0</ele><time>2026-04-26T09:48:01.045Z</time></trkpt><trkpt lat="42.0844917" lon="12.1796467"><ele>269.0</ele><time>2026-04-26T09:49:03.041Z</time></trkpt><trkpt lat="42.08456" lon="12.1796367"><ele>269.0</ele><time>2026-04-26T09:49:05.042Z</time></trkpt><trkpt lat="42.0846433" lon="12.1796367"><ele>269.0</ele><time>2026-04-26T09:49:07.041Z</time></trkpt><trkpt lat="42.0847417" lon="12.17964"><ele>269.0</ele><time>2026-04-26T09:49:09.042Z</time></trkpt><trkpt lat="42.0848533" lon="12.17962"><ele>268.2</ele><time>2026-04-26T09:49:11.04Z</time></trkpt><trkpt lat="42.0849617" lon="12.17954"><ele>267.4</ele><time>2026-04-26T09:49:13.042Z</time></trkpt><trkpt lat="42.08501" lon="12.1794817"><ele>266.6</ele><time>2026-04-26T09:49:14.041Z</time></trkpt><trkpt lat="42.0850917" lon="12.1793817"><ele>265.8</ele><time>2026-04-26T09:49:16.045Z</time></trkpt><trkpt lat="42.085165" lon="12.1792817"><ele>265.0</ele><time>2026-04-26T09:49:18.043Z</time></trkpt><trkpt lat="42.0852317" lon="12.1791833"><ele>265.0</ele><time>2026-04-26T09:49:20.038Z</time></trkpt><trkpt lat="42.0853017" lon="12.1790883"><ele>265.0</ele><time>2026-04-26T09:49:22.04Z</time></trkpt><trkpt lat="42.085355" lon="12.1789767"><ele>265.0</ele><time>2026-04-26T09:49:24.039Z</time></trkpt><trkpt lat="42.0853717" lon="12.1788517"><ele>265.0</ele><time>2026-04-26T09:49:26.04Z</time></trkpt><trkpt lat="42.0853483" lon="12.1787317"><ele>265.0</ele><time>2026-04-26T09:49:28.04Z</time></trkpt><trkpt lat="42.08528" lon="12.1786533"><ele>266.0</ele><time>2026-04-26T09:49:30.047Z</time></trkpt><trkpt lat="42.0852" lon="12.178615"><ele>267.0</ele><time>2026-04-26T09:49:32.042Z</time></trkpt><trkpt lat="42.0851083" lon="12.178595"><ele>268.0</ele><time>2026-04-26T09:49:34.04Z</time></trkpt><trkpt lat="42.085035" lon="12.17856"><ele>269.0</ele><time>2026-04-26T09:49:36.042Z</time></trkpt><trkpt lat="42.084985" lon="12.1785033"><ele>270.0</ele><time>2026-04-26T09:49:38.043Z</time></trkpt><trkpt lat="42.0849167" lon="12.1784133"><ele>271.0</ele><time>2026-04-26T09:49:41.041Z</time></trkpt><trkpt lat="42.0848467" lon="12.1783283"><ele>271.8333333333333</ele><time>2026-04-26T09:49:44.041Z</time></trkpt><trkpt lat="42.0847967" lon="12.1782767"><ele>272.66666666666663</ele><time>2026-04-26T09:49:46.04Z</time></trkpt><trkpt lat="42.084735" lon="12.178195"><ele>273.5</ele><time>2026-04-26T09:49:49.043Z</time></trkpt><trkpt lat="42.08466" lon="12.1781267"><ele>274.3333333333333</ele><time>2026-04-26T09:49:52.041Z</time></trkpt><trkpt lat="42.0845917" lon="12.1780533"><ele>275.1666666666667</ele><time>2026-04-26T09:49:55.041Z</time></trkpt><trkpt lat="42.0845283" lon="12.177975"><ele>276.0</ele><time>2026-04-26T09:49:58.042Z</time></trkpt><trkpt lat="42.0844733" lon="12.1779067"><ele>276.3333333333333</ele><time>2026-04-26T09:50:01.04Z</time></trkpt><trkpt lat="42.0844217" lon="12.177825"><ele>276.6666666666667</ele><time>2026-04-26T09:50:05.041Z</time></trkpt><trkpt lat="42.0843767" lon="12.1777583"><ele>277.0</ele><time>2026-04-26T09:50:08.04Z</time></trkpt><trkpt lat="42.0843117" lon="12.1776833"><ele>277.33333333333337</ele><time>2026-04-26T09:50:12.045Z</time></trkpt><trkpt lat="42.0842767" lon="12.1775983"><ele>277.6666666666667</ele><time>2026-04-26T09:50:15.042Z</time></trkpt><trkpt lat="42.0842583" lon="12.1774967"><ele>278.0</ele><time>2026-04-26T09:50:18.041Z</time></trkpt><trkpt lat="42.0842533" lon="12.1773833"><ele>278.42857142857144</ele><time>2026-04-26T09:50:21.041Z</time></trkpt><trkpt lat="42.084255" lon="12.1772983"><ele>278.8571428571429</ele><time>2026-04-26T09:50:23.042Z</time></trkpt><trkpt lat="42.0842533" lon="12.1771767"><ele>279.28571428571433</ele><time>2026-04-26T09:50:26.046Z</time></trkpt><trkpt lat="42.0842533" lon="12.17709"><ele>279.7142857142857</ele><time>2026-04-26T09:50:28.048Z</time></trkpt><trkpt lat="42.0842567" lon="12.1769967"><ele>280.14285714285717</ele><time>2026-04-26T09:50:30.047Z</time></trkpt><trkpt lat="42.084255" lon="12.1768967"><ele>280.5714285714286</ele><time>2026-04-26T09:50:32.038Z</time></trkpt><trkpt lat="42.08425" lon="12.1767967"><ele>281.0</ele><time>2026-04-26T09:50:34.041Z</time></trkpt><trkpt lat="42.0842483" lon="12.1767"><ele>281.0</ele><time>2026-04-26T09:50:36.043Z</time></trkpt><trkpt lat="42.08425" lon="12.17661"><ele>281.0</ele><time>2026-04-26T09:50:38.042Z</time></trkpt><trkpt lat="42.0842517" lon="12.176515"><ele>281.0</ele><time>2026-04-26T09:50:40.043Z</time></trkpt><trkpt lat="42.0842483" lon="12.1764083"><ele>281.0</ele><time>2026-04-26T09:50:42.043Z</time></trkpt><trkpt lat="42.084245" lon="12.1763"><ele>281.0</ele><time>2026-04-26T09:50:44.045Z</time></trkpt><trkpt lat="42.0842333" lon="12.1761933"><ele>281.0</ele><time>2026-04-26T09:50:46.042Z</time></trkpt><trkpt lat="42.0842283" lon="12.176085"><ele>281.1666666666667</ele><time>2026-04-26T09:50:48.042Z</time></trkpt><trkpt lat="42.084225" lon="12.17598"><ele>281.33333333333337</ele><time>2026-04-26T09:50:50.042Z</time></trkpt><trkpt lat="42.0842183" lon="12.175875"><ele>281.5</ele><time>2026-04-26T09:50:52.047Z</time></trkpt><trkpt lat="42.084215" lon="12.1757667"><ele>281.6666666666667</ele><time>2026-04-26T09:50:54.041Z</time></trkpt><trkpt lat="42.0842233" lon="12.1756667"><ele>281.8333333333333</ele><time>2026-04-26T09:50:56.041Z</time></trkpt><trkpt lat="42.084235" lon="12.1755783"><ele>282.0</ele><time>2026-04-26T09:50:58.042Z</time></trkpt><trkpt lat="42.084255" lon="12.1754717"><ele>282.2857142857143</ele><time>2026-04-26T09:51:01.042Z</time></trkpt><trkpt lat="42.084255" lon="12.1753467"><ele>282.57142857142856</ele><time>2026-04-26T09:51:04.043Z</time></trkpt><trkpt lat="42.08425" lon="12.1752583"><ele>282.85714285714283</ele><time>2026-04-26T09:51:06.043Z</time></trkpt><trkpt lat="42.0842417" lon="12.1751667"><ele>283.1428571428571</ele><time>2026-04-26T09:51:08.043Z</time></trkpt><trkpt lat="42.084235" lon="12.175075"><ele>283.4285714285714</ele><time>2026-04-26T09:51:10.04Z</time></trkpt><trkpt lat="42.0842283" lon="12.174985"><ele>283.7142857142857</ele><time>2026-04-26T09:51:12.043Z</time></trkpt><trkpt lat="42.084215" lon="12.1748883"><ele>284.0</ele><time>2026-04-26T09:51:14.041Z</time></trkpt><trkpt lat="42.084205" lon="12.1747917"><ele>284.42857142857144</ele><time>2026-04-26T09:51:16.042Z</time></trkpt><trkpt lat="42.0841983" lon="12.1747"><ele>284.85714285714283</ele><time>2026-04-26T09:51:18.042Z</time></trkpt><trkpt lat="42.0841933" lon="12.1746067"><ele>285.2857142857143</ele><time>2026-04-26T09:51:20.041Z</time></trkpt><trkpt lat="42.08419" lon="12.174515"><ele>285.7142857142857</ele><time>2026-04-26T09:51:22.047Z</time></trkpt><trkpt lat="42.0841833" lon="12.1744283"><ele>286.1428571428571</ele><time>2026-04-26T09:51:24.042Z</time></trkpt><trkpt lat="42.0841717" lon="12.1743083"><ele>286.57142857142856</ele><time>2026-04-26T09:51:27.043Z</time></trkpt><trkpt lat="42.0841717" lon="12.1742017"><ele>287.0</ele><time>2026-04-26T09:51:30.041Z</time></trkpt><trkpt lat="42.0841633" lon="12.1740933"><ele>287.5</ele><time>2026-04-26T09:51:33.042Z</time></trkpt><trkpt lat="42.0841583" lon="12.173975"><ele>288.0</ele><time>2026-04-26T09:51:36.043Z</time></trkpt><trkpt lat="42.0841567" lon="12.1738717"><ele>288.5</ele><time>2026-04-26T09:51:39.044Z</time></trkpt><trkpt lat="42.0841567" lon="12.1737617"><ele>289.0</ele><time>2026-04-26T09:51:42.042Z</time></trkpt><trkpt lat="42.08416" lon="12.17366"><ele>289.5</ele><time>2026-04-26T09:51:45.046Z</time></trkpt><trkpt lat="42.08416" lon="12.17355"><ele>290.0</ele><time>2026-04-26T09:51:48.045Z</time></trkpt><trkpt lat="42.0841533" lon="12.1734417"><ele>290.0</ele><time>2026-04-26T09:51:51.039Z</time></trkpt><trkpt lat="42.08415" lon="12.17333"><ele>290.0</ele><time>2026-04-26T09:51:54.046Z</time></trkpt><trkpt lat="42.0841467" lon="12.1732167"><ele>290.0</ele><time>2026-04-26T09:51:57.041Z</time></trkpt><trkpt lat="42.0841433" lon="12.173115"><ele>290.0</ele><time>2026-04-26T09:52:00.041Z</time></trkpt><trkpt lat="42.084145" lon="12.1730233"><ele>290.0</ele><time>2026-04-26T09:52:03.044Z</time></trkpt><trkpt lat="42.084135" lon="12.172915"><ele>290.0</ele><time>2026-04-26T09:52:07.044Z</time></trkpt><trkpt lat="42.0841233" lon="12.1728133"><ele>290.57142857142856</ele><time>2026-04-26T09:52:12.041Z</time></trkpt><trkpt lat="42.084105" lon="12.1727167"><ele>291.14285714285717</ele><time>2026-04-26T09:52:16.043Z</time></trkpt><trkpt lat="42.0841017" lon="12.1726267"><ele>291.7142857142857</ele><time>2026-04-26T09:52:20.042Z</time></trkpt><trkpt lat="42.0841117" lon="12.1725317"><ele>292.2857142857143</ele><time>2026-04-26T09:52:24.043Z</time></trkpt><trkpt lat="42.0841283" lon="12.1724333"><ele>292.8571428571429</ele><time>2026-04-26T09:52:28.043Z</time></trkpt><trkpt lat="42.0841467" lon="12.1723333"><ele>293.42857142857144</ele><time>2026-04-26T09:52:32.049Z</time></trkpt><trkpt lat="42.0841583" lon="12.172245"><ele>294.0</ele><time>2026-04-26T09:52:35.039Z</time></trkpt><trkpt lat="42.0841717" lon="12.1721567"><ele>294.2857142857143</ele><time>2026-04-26T09:52:38.043Z</time></trkpt><trkpt lat="42.0841767" lon="12.1720583"><ele>294.57142857142856</ele><time>2026-04-26T09:52:41.046Z</time></trkpt><trkpt lat="42.0841717" lon="12.17196"><ele>294.8571428571429</ele><time>2026-04-26T09:52:44.043Z</time></trkpt><trkpt lat="42.0841717" lon="12.1718733"><ele>295.1428571428571</ele><time>2026-04-26T09:52:47.042Z</time></trkpt><trkpt lat="42.0841617" lon="12.1717817"><ele>295.42857142857144</ele><time>2026-04-26T09:52:50.043Z</time></trkpt><trkpt lat="42.0841367" lon="12.17167"><ele>295.7142857142857</ele><time>2026-04-26T09:52:53.04Z</time></trkpt><trkpt lat="42.0841217" lon="12.1715867"><ele>296.0</ele><time>2026-04-26T09:52:55.042Z</time></trkpt><trkpt lat="42.0841233" lon="12.1714967"><ele>296.1666666666667</ele><time>2026-04-26T09:52:57.043Z</time></trkpt><trkpt lat="42.0841517" lon="12.17142"><ele>296.33333333333337</ele><time>2026-04-26T09:52:59.042Z</time></trkpt><trkpt lat="42.08423" lon="12.1713883"><ele>296.5</ele><time>2026-04-26T09:53:02.04Z</time></trkpt><trkpt lat="42.0843117" lon="12.171365"><ele>296.6666666666667</ele><time>2026-04-26T09:53:05.041Z</time></trkpt><trkpt lat="42.0843883" lon="12.1713183"><ele>296.8333333333333</ele><time>2026-04-26T09:53:08.046Z</time></trkpt><trkpt lat="42.08446" lon="12.1712633"><ele>297.0</ele><time>2026-04-26T09:53:11.041Z</time></trkpt><trkpt lat="42.0845383" lon="12.171225"><ele>297.0</ele><time>2026-04-26T09:53:14.044Z</time></trkpt><trkpt lat="42.0846" lon="12.1711983"><ele>297.0</ele><time>2026-04-26T09:53:16.046Z</time></trkpt><trkpt lat="42.0846633" lon="12.17119"><ele>297.0</ele><time>2026-04-26T09:53:18.044Z</time></trkpt><trkpt lat="42.0847283" lon="12.1711933"><ele>297.0</ele><time>2026-04-26T09:53:20.042Z</time></trkpt><trkpt lat="42.0847983" lon="12.171195"><ele>297.0</ele><time>2026-04-26T09:53:22.041Z</time></trkpt><trkpt lat="42.0848617" lon="12.1711933"><ele>297.0</ele><time>2026-04-26T09:53:25.042Z</time></trkpt><trkpt lat="42.084925" lon="12.1711883"><ele>297.0</ele><time>2026-04-26T09:53:32.04Z</time></trkpt><trkpt lat="42.084995" lon="12.1711733"><ele>297.5</ele><time>2026-04-26T09:53:41.041Z</time></trkpt><trkpt lat="42.0850617" lon="12.1711717"><ele>298.0</ele><time>2026-04-26T09:53:43.042Z</time></trkpt><trkpt lat="42.0851367" lon="12.1711583"><ele>298.5</ele><time>2026-04-26T09:53:45.044Z</time></trkpt><trkpt lat="42.0852067" lon="12.1711483"><ele>299.0</ele><time>2026-04-26T09:53:47.043Z</time></trkpt><trkpt lat="42.0852833" lon="12.1711517"><ele>299.5</ele><time>2026-04-26T09:53:49.046Z</time></trkpt><trkpt lat="42.085365" lon="12.1711533"><ele>300.0</ele><time>2026-04-26T09:53:51.043Z</time></trkpt><trkpt lat="42.0854483" lon="12.1711467"><ele>300.0</ele><time>2026-04-26T09:53:53.042Z</time></trkpt><trkpt lat="42.085535" lon="12.17116"><ele>300.0</ele><time>2026-04-26T09:53:55.042Z</time></trkpt><trkpt lat="42.0856167" lon="12.1711683"><ele>300.0</ele><time>2026-04-26T09:53:57.047Z</time></trkpt><trkpt lat="42.0857" lon="12.1711633"><ele>300.0</ele><time>2026-04-26T09:53:59.039Z</time></trkpt><trkpt lat="42.0857833" lon="12.171165"><ele>300.0</ele><time>2026-04-26T09:54:01.04Z</time></trkpt><trkpt lat="42.0858667" lon="12.1711667"><ele>300.0</ele><time>2026-04-26T09:54:03.041Z</time></trkpt><trkpt lat="42.0859533" lon="12.1711767"><ele>299.8333333333333</ele><time>2026-04-26T09:54:05.04Z</time></trkpt><trkpt lat="42.0860483" lon="12.1711917"><ele>299.6666666666667</ele><time>2026-04-26T09:54:07.042Z</time></trkpt><trkpt lat="42.08614" lon="12.1711917"><ele>299.5</ele><time>2026-04-26T09:54:09.041Z</time></trkpt><trkpt lat="42.08623" lon="12.1712067"><ele>299.33333333333337</ele><time>2026-04-26T09:54:11.042Z</time></trkpt><trkpt lat="42.0862967" lon="12.1712167"><ele>299.1666666666667</ele><time>2026-04-26T09:54:13.042Z</time></trkpt><trkpt lat="42.08636" lon="12.171145"><ele>299.0</ele><time>2026-04-26T09:54:17.043Z</time></trkpt><trkpt lat="42.0863683" lon="12.1710467"><ele>299.0</ele><time>2026-04-26T09:54:19.044Z</time></trkpt><trkpt lat="42.08637" lon="12.1709167"><ele>299.0</ele><time>2026-04-26T09:54:21.043Z</time></trkpt><trkpt lat="42.0863733" lon="12.1707683"><ele>299.0</ele><time>2026-04-26T09:54:23.041Z</time></trkpt><trkpt lat="42.0864117" lon="12.1706283"><ele>299.0</ele><time>2026-04-26T09:54:25.041Z</time></trkpt><trkpt lat="42.08647" lon="12.1704783"><ele>299.0</ele><time>2026-04-26T09:54:27.042Z</time></trkpt><trkpt lat="42.0865033" lon="12.1703983"><ele>298.83333333333337</ele><time>2026-04-26T09:54:28.041Z</time></trkpt><trkpt lat="42.0865383" lon="12.1703183"><ele>298.6666666666667</ele><time>2026-04-26T09:54:29.043Z</time></trkpt><trkpt lat="42.0865767" lon="12.17023"><ele>298.5</ele><time>2026-04-26T09:54:30.041Z</time></trkpt><trkpt lat="42.086615" lon="12.1701367"><ele>298.3333333333333</ele><time>2026-04-26T09:54:31.042Z</time></trkpt><trkpt lat="42.086655" lon="12.1700417"><ele>298.16666666666663</ele><time>2026-04-26T09:54:32.04Z</time></trkpt><trkpt lat="42.0866967" lon="12.1699433"><ele>298.0</ele><time>2026-04-26T09:54:33.044Z</time></trkpt><trkpt lat="42.0867333" lon="12.1698433"><ele>297.8333333333333</ele><time>2026-04-26T09:54:34.041Z</time></trkpt><trkpt lat="42.0867717" lon="12.1697467"><ele>297.66666666666663</ele><time>2026-04-26T09:54:35.043Z</time></trkpt><trkpt lat="42.08681" lon="12.1696533"><ele>297.5</ele><time>2026-04-26T09:54:36.043Z</time></trkpt><trkpt lat="42.0868467" lon="12.1695633"><ele>297.3333333333333</ele><time>2026-04-26T09:54:37.04Z</time></trkpt><trkpt lat="42.0868833" lon="12.169475"><ele>297.1666666666667</ele><time>2026-04-26T09:54:38.041Z</time></trkpt><trkpt lat="42.0869183" lon="12.1693917"><ele>297.0</ele><time>2026-04-26T09:54:39.043Z</time></trkpt><trkpt lat="42.0869533" lon="12.1693117"><ele>297.0</ele><time>2026-04-26T09:54:40.041Z</time></trkpt><trkpt lat="42.0869867" lon="12.1692367"><ele>297.0</ele><time>2026-04-26T09:54:41.045Z</time></trkpt><trkpt lat="42.0870167" lon="12.1691617"><ele>297.0</ele><time>2026-04-26T09:54:42.038Z</time></trkpt><trkpt lat="42.08707" lon="12.1690233"><ele>297.0</ele><time>2026-04-26T09:54:44.041Z</time></trkpt><trkpt lat="42.08712" lon="12.1689033"><ele>297.0</ele><time>2026-04-26T09:54:46.043Z</time></trkpt><trkpt lat="42.0871567" lon="12.1688033"><ele>297.0</ele><time>2026-04-26T09:54:48.041Z</time></trkpt><trkpt lat="42.0871917" lon="12.1687267"><ele>297.2857142857143</ele><time>2026-04-26T09:54:50.041Z</time></trkpt><trkpt lat="42.0872283" lon="12.1686517"><ele>297.5714285714286</ele><time>2026-04-26T09:54:52.042Z</time></trkpt><trkpt lat="42.0872883" lon="12.168595"><ele>297.8571428571429</ele><time>2026-04-26T09:54:54.041Z</time></trkpt><trkpt lat="42.0873533" lon="12.1685317"><ele>298.14285714285717</ele><time>2026-04-26T09:54:56.042Z</time></trkpt><trkpt lat="42.087415" lon="12.1684733"><ele>298.42857142857144</ele><time>2026-04-26T09:54:58.043Z</time></trkpt><trkpt lat="42.087465" lon="12.1684183"><ele>298.7142857142857</ele><time>2026-04-26T09:55:00.042Z</time></trkpt><trkpt lat="42.087515" lon="12.16836"><ele>299.0</ele><time>2026-04-26T09:55:02.042Z</time></trkpt><trkpt lat="42.0875783" lon="12.1682683"><ele>299.33333333333337</ele><time>2026-04-26T09:55:05.044Z</time></trkpt><trkpt lat="42.08763" lon="12.1682017"><ele>299.6666666666667</ele><time>2026-04-26T09:55:07.043Z</time></trkpt><trkpt lat="42.08768" lon="12.16812"><ele>300.0</ele><time>2026-04-26T09:55:09.043Z</time></trkpt><trkpt lat="42.0877417" lon="12.1680367"><ele>300.3333333333333</ele><time>2026-04-26T09:55:11.041Z</time></trkpt><trkpt lat="42.0878117" lon="12.16795"><ele>300.66666666666663</ele><time>2026-04-26T09:55:13.041Z</time></trkpt><trkpt lat="42.08789" lon="12.16786"><ele>301.0</ele><time>2026-04-26T09:55:15.042Z</time></trkpt><trkpt lat="42.0879667" lon="12.1677617"><ele>301.0</ele><time>2026-04-26T09:55:17.041Z</time></trkpt><trkpt lat="42.0880517" lon="12.1676467"><ele>301.0</ele><time>2026-04-26T09:55:19.042Z</time></trkpt><trkpt lat="42.0880983" lon="12.1675833"><ele>301.0</ele><time>2026-04-26T09:55:20.041Z</time></trkpt><trkpt lat="42.0881883" lon="12.1674667"><ele>301.0</ele><time>2026-04-26T09:55:22.041Z</time></trkpt><trkpt lat="42.088235" lon="12.1674083"><ele>301.0</ele><time>2026-04-26T09:55:23.048Z</time></trkpt><trkpt lat="42.0882817" lon="12.16735"><ele>301.0</ele><time>2026-04-26T09:55:24.041Z</time></trkpt><trkpt lat="42.0883567" lon="12.167235"><ele>301.0</ele><time>2026-04-26T09:55:26.041Z</time></trkpt><trkpt lat="42.08837" lon="12.1671167"><ele>301.0</ele><time>2026-04-26T09:55:28.041Z</time></trkpt><trkpt lat="42.08829" lon="12.1670217"><ele>301.0</ele><time>2026-04-26T09:55:30.043Z</time></trkpt><trkpt lat="42.0882383" lon="12.16697"><ele>301.0</ele><time>2026-04-26T09:55:31.042Z</time></trkpt><trkpt lat="42.0881817" lon="12.1669117"><ele>301.0</ele><time>2026-04-26T09:55:32.038Z</time></trkpt><trkpt lat="42.0881317" lon="12.1668517"><ele>301.0</ele><time>2026-04-26T09:55:33.044Z</time></trkpt><trkpt lat="42.08808" lon="12.1667967"><ele>301.0</ele><time>2026-04-26T09:55:34.041Z</time></trkpt><trkpt lat="42.0880283" lon="12.166745"><ele>301.0</ele><time>2026-04-26T09:55:35.043Z</time></trkpt><trkpt lat="42.0879283" lon="12.166645"><ele>301.0</ele><time>2026-04-26T09:55:37.044Z</time></trkpt><trkpt lat="42.0878783" lon="12.1665833"><ele>301.0</ele><time>2026-04-26T09:55:38.04Z</time></trkpt><trkpt lat="42.0878317" lon="12.1665233"><ele>301.0</ele><time>2026-04-26T09:55:39.041Z</time></trkpt><trkpt lat="42.0877883" lon="12.16646"><ele>301.0</ele><time>2026-04-26T09:55:40.042Z</time></trkpt><trkpt lat="42.0877383" lon="12.1664033"><ele>300.8</ele><time>2026-04-26T09:55:41.04Z</time></trkpt><trkpt lat="42.0876467" lon="12.16631"><ele>300.6</ele><time>2026-04-26T09:55:43.043Z</time></trkpt><trkpt lat="42.087555" lon="12.166215"><ele>300.4</ele><time>2026-04-26T09:55:45.041Z</time></trkpt><trkpt lat="42.08748" lon="12.1661167"><ele>300.2</ele><time>2026-04-26T09:55:47.041Z</time></trkpt><trkpt lat="42.087415" lon="12.1660383"><ele>300.0</ele><time>2026-04-26T09:55:49.045Z</time></trkpt><trkpt lat="42.0873367" lon="12.16595"><ele>299.8</ele><time>2026-04-26T09:55:51.042Z</time></trkpt><trkpt lat="42.0872583" lon="12.16586"><ele>299.6</ele><time>2026-04-26T09:55:53.042Z</time></trkpt><trkpt lat="42.0872083" lon="12.1658067"><ele>299.4</ele><time>2026-04-26T09:55:54.045Z</time></trkpt><trkpt lat="42.0871167" lon="12.1656933"><ele>299.2</ele><time>2026-04-26T09:55:56.042Z</time></trkpt><trkpt lat="42.0870317" lon="12.1655767"><ele>299.0</ele><time>2026-04-26T09:55:58.041Z</time></trkpt><trkpt lat="42.0869433" lon="12.1654733"><ele>299.0</ele><time>2026-04-26T09:56:00.043Z</time></trkpt><trkpt lat="42.0868617" lon="12.1653783"><ele>299.0</ele><time>2026-04-26T09:56:02.04Z</time></trkpt><trkpt lat="42.08678" lon="12.1652733"><ele>299.0</ele><time>2026-04-26T09:56:04.042Z</time></trkpt><trkpt lat="42.0866967" lon="12.1651783"><ele>299.0</ele><time>2026-04-26T09:56:06.041Z</time></trkpt><trkpt lat="42.0866117" lon="12.1650833"><ele>299.0</ele><time>2026-04-26T09:56:08.042Z</time></trkpt><trkpt lat="42.0865333" lon="12.1649817"><ele>299.0</ele><time>2026-04-26T09:56:10.044Z</time></trkpt><trkpt lat="42.0864483" lon="12.1648817"><ele>299.0</ele><time>2026-04-26T09:56:12.043Z</time></trkpt><trkpt lat="42.0863617" lon="12.1647883"><ele>299.0</ele><time>2026-04-26T09:56:14.042Z</time></trkpt><trkpt lat="42.0862817" lon="12.1646767"><ele>299.0</ele><time>2026-04-26T09:56:16.043Z</time></trkpt><trkpt lat="42.0861933" lon="12.1645733"><ele>298.8</ele><time>2026-04-26T09:56:18.042Z</time></trkpt><trkpt lat="42.0861133" lon="12.1644633"><ele>298.59999999999997</ele><time>2026-04-26T09:56:20.041Z</time></trkpt><trkpt lat="42.0860183" lon="12.164355"><ele>298.4</ele><time>2026-04-26T09:56:22.042Z</time></trkpt><trkpt lat="42.0859683" lon="12.1643033"><ele>298.2</ele><time>2026-04-26T09:56:23.043Z</time></trkpt><trkpt lat="42.08587" lon="12.1642017"><ele>298.0</ele><time>2026-04-26T09:56:25.043Z</time></trkpt><trkpt lat="42.085815" lon="12.1641583"><ele>298.4</ele><time>2026-04-26T09:56:26.042Z</time></trkpt><trkpt lat="42.08576" lon="12.1641167"><ele>298.8</ele><time>2026-04-26T09:56:27.044Z</time></trkpt><trkpt lat="42.0856533" lon="12.164035"><ele>299.2</ele><time>2026-04-26T09:56:29.043Z</time></trkpt><trkpt lat="42.085595" lon="12.164"><ele>299.6</ele><time>2026-04-26T09:56:30.041Z</time></trkpt><trkpt lat="42.0854867" lon="12.16392"><ele>300.0</ele><time>2026-04-26T09:56:32.044Z</time></trkpt><trkpt lat="42.085375" lon="12.1638533"><ele>298.8333333333333</ele><time>2026-04-26T09:56:34.043Z</time></trkpt><trkpt lat="42.0853133" lon="12.1638267"><ele>297.6666666666667</ele><time>2026-04-26T09:56:35.04Z</time></trkpt><trkpt lat="42.08525" lon="12.1637983"><ele>296.5</ele><time>2026-04-26T09:56:36.041Z</time></trkpt><trkpt lat="42.0851917" lon="12.1637633"><ele>295.33333333333337</ele><time>2026-04-26T09:56:37.043Z</time></trkpt><trkpt lat="42.0850783" lon="12.163705"><ele>294.1666666666667</ele><time>2026-04-26T09:56:39.042Z</time></trkpt><trkpt lat="42.0849633" lon="12.1636567"><ele>293.0</ele><time>2026-04-26T09:56:41.04Z</time></trkpt><trkpt lat="42.0849" lon="12.1636267"><ele>292.1666666666667</ele><time>2026-04-26T09:56:42.04Z</time></trkpt><trkpt lat="42.0848367" lon="12.1635933"><ele>291.33333333333337</ele><time>2026-04-26T09:56:43.045Z</time></trkpt><trkpt lat="42.0847633" lon="12.1635567"><ele>290.5</ele><time>2026-04-26T09:56:44.044Z</time></trkpt><trkpt lat="42.0846883" lon="12.16352"><ele>289.6666666666667</ele><time>2026-04-26T09:56:45.041Z</time></trkpt><trkpt lat="42.084615" lon="12.1634767"><ele>288.8333333333333</ele><time>2026-04-26T09:56:46.04Z</time></trkpt><trkpt lat="42.0845317" lon="12.163435"><ele>288.0</ele><time>2026-04-26T09:56:47.042Z</time></trkpt><trkpt lat="42.0844517" lon="12.1633883"><ele>288.0</ele><time>2026-04-26T09:56:48.04Z</time></trkpt><trkpt lat="42.0843583" lon="12.1633433"><ele>288.0</ele><time>2026-04-26T09:56:49.039Z</time></trkpt><trkpt lat="42.08427" lon="12.163295"><ele>288.0</ele><time>2026-04-26T09:56:50.042Z</time></trkpt><trkpt lat="42.084185" lon="12.16325"><ele>288.0</ele><time>2026-04-26T09:56:51.042Z</time></trkpt><trkpt lat="42.0841083" lon="12.1632083"><ele>288.0</ele><time>2026-04-26T09:56:52.039Z</time></trkpt><trkpt lat="42.0840283" lon="12.16317"><ele>286.5</ele><time>2026-04-26T09:56:53.042Z</time></trkpt><trkpt lat="42.0839533" lon="12.1631367"><ele>285.0</ele><time>2026-04-26T09:56:54.04Z</time></trkpt><trkpt lat="42.0838767" lon="12.1631"><ele>283.5</ele><time>2026-04-26T09:56:55.041Z</time></trkpt><trkpt lat="42.0838017" lon="12.1630583"><ele>282.0</ele><time>2026-04-26T09:56:56.043Z</time></trkpt><trkpt lat="42.083735" lon="12.1630167"><ele>280.5</ele><time>2026-04-26T09:56:57.043Z</time></trkpt><trkpt lat="42.0836717" lon="12.162975"><ele>279.0</ele><time>2026-04-26T09:56:58.042Z</time></trkpt><trkpt lat="42.0836033" lon="12.1629333"><ele>278.99999999999994</ele><time>2026-04-26T09:56:59.04Z</time></trkpt><trkpt lat="42.0835383" lon="12.162895"><ele>279.0</ele><time>2026-04-26T09:57:00.039Z</time></trkpt><trkpt lat="42.0834717" lon="12.1628617"><ele>279.0</ele><time>2026-04-26T09:57:01.041Z</time></trkpt><trkpt lat="42.083405" lon="12.1628317"><ele>279.0</ele><time>2026-04-26T09:57:02.04Z</time></trkpt><trkpt lat="42.0833433" lon="12.1628017"><ele>279.0</ele><time>2026-04-26T09:57:03.042Z</time></trkpt><trkpt lat="42.0832817" lon="12.1627633"><ele>278.99999999999994</ele><time>2026-04-26T09:57:04.039Z</time></trkpt><trkpt lat="42.08322" lon="12.16273"><ele>279.0</ele><time>2026-04-26T09:57:05.04Z</time></trkpt><trkpt lat="42.08316" lon="12.1626983"><ele>279.0</ele><time>2026-04-26T09:57:06.041Z</time></trkpt><trkpt lat="42.0830433" lon="12.162635"><ele>279.0</ele><time>2026-04-26T09:57:08.043Z</time></trkpt><trkpt lat="42.082985" lon="12.1626017"><ele>279.0</ele><time>2026-04-26T09:57:09.042Z</time></trkpt><trkpt lat="42.0828733" lon="12.1625383"><ele>279.0</ele><time>2026-04-26T09:57:11.046Z</time></trkpt><trkpt lat="42.08276" lon="12.1624833"><ele>279.0</ele><time>2026-04-26T09:57:13.04Z</time></trkpt><trkpt lat="42.0826517" lon="12.162425"><ele>279.0</ele><time>2026-04-26T09:57:15.047Z</time></trkpt><trkpt lat="42.0825483" lon="12.1623733"><ele>279.0</ele><time>2026-04-26T09:57:17.041Z</time></trkpt><trkpt lat="42.0824533" lon="12.16232"><ele>279.0</ele><time>2026-04-26T09:57:19.04Z</time></trkpt><trkpt lat="42.0823617" lon="12.16226"><ele>279.0</ele><time>2026-04-26T09:57:21.04Z</time></trkpt><trkpt lat="42.0822633" lon="12.162205"><ele>279.0</ele><time>2026-04-26T09:57:23.04Z</time></trkpt><trkpt lat="42.08215" lon="12.162145"><ele>278.0</ele><time>2026-04-26T09:57:25.044Z</time></trkpt><trkpt lat="42.08209" lon="12.1621117"><ele>277.0</ele><time>2026-04-26T09:57:26.041Z</time></trkpt><trkpt lat="42.0820317" lon="12.1620783"><ele>276.0</ele><time>2026-04-26T09:57:27.039Z</time></trkpt><trkpt lat="42.0819267" lon="12.16201"><ele>275.0</ele><time>2026-04-26T09:57:29.042Z</time></trkpt><trkpt lat="42.0818233" lon="12.161955"><ele>274.0</ele><time>2026-04-26T09:57:31.046Z</time></trkpt><trkpt lat="42.0817233" lon="12.1618917"><ele>274.0</ele><time>2026-04-26T09:57:33.045Z</time></trkpt><trkpt lat="42.0816317" lon="12.1618467"><ele>274.0</ele><time>2026-04-26T09:57:35.04Z</time></trkpt><trkpt lat="42.0815733" lon="12.1617917"><ele>274.0</ele><time>2026-04-26T09:57:38.042Z</time></trkpt><trkpt lat="42.0815833" lon="12.161655"><ele>274.0</ele><time>2026-04-26T09:57:41.049Z</time></trkpt><trkpt lat="42.0816133" lon="12.1615183"><ele>274.0</ele><time>2026-04-26T09:57:43.04Z</time></trkpt><trkpt lat="42.0816367" lon="12.1613733"><ele>273.66666666666663</ele><time>2026-04-26T09:57:45.041Z</time></trkpt><trkpt lat="42.08166" lon="12.161285"><ele>273.3333333333333</ele><time>2026-04-26T09:57:46.039Z</time></trkpt><trkpt lat="42.0816883" lon="12.1611967"><ele>273.0</ele><time>2026-04-26T09:57:47.04Z</time></trkpt><trkpt lat="42.08171" lon="12.1611083"><ele>272.6666666666667</ele><time>2026-04-26T09:57:48.04Z</time></trkpt><trkpt lat="42.0817383" lon="12.16101"><ele>272.33333333333337</ele><time>2026-04-26T09:57:49.041Z</time></trkpt><trkpt lat="42.0817667" lon="12.16091"><ele>272.0</ele><time>2026-04-26T09:57:50.042Z</time></trkpt><trkpt lat="42.08179" lon="12.1608"><ele>271.8</ele><time>2026-04-26T09:57:51.04Z</time></trkpt><trkpt lat="42.08181" lon="12.1606833"><ele>271.6</ele><time>2026-04-26T09:57:52.041Z</time></trkpt><trkpt lat="42.0818333" lon="12.1605617"><ele>271.40000000000003</ele><time>2026-04-26T09:57:53.039Z</time></trkpt><trkpt lat="42.0818617" lon="12.1604367"><ele>271.2</ele><time>2026-04-26T09:57:54.04Z</time></trkpt><trkpt lat="42.0818917" lon="12.1603117"><ele>271.0</ele><time>2026-04-26T09:57:55.041Z</time></trkpt><trkpt lat="42.0819233" lon="12.16019"><ele>271.0</ele><time>2026-04-26T09:57:56.039Z</time></trkpt><trkpt lat="42.0819533" lon="12.16007"><ele>271.0</ele><time>2026-04-26T09:57:57.039Z</time></trkpt><trkpt lat="42.0819817" lon="12.15995"><ele>271.0</ele><time>2026-04-26T09:57:58.044Z</time></trkpt><trkpt lat="42.0820117" lon="12.1598283"><ele>271.0</ele><time>2026-04-26T09:57:59.042Z</time></trkpt><trkpt lat="42.0820417" lon="12.1597067"><ele>271.0</ele><time>2026-04-26T09:58:00.044Z</time></trkpt><trkpt lat="42.0820667" lon="12.1595867"><ele>270.0</ele><time>2026-04-26T09:58:01.04Z</time></trkpt><trkpt lat="42.0820933" lon="12.15947"><ele>269.0</ele><time>2026-04-26T09:58:02.041Z</time></trkpt><trkpt lat="42.0821217" lon="12.159355"><ele>268.0</ele><time>2026-04-26T09:58:03.042Z</time></trkpt><trkpt lat="42.08215" lon="12.15924"><ele>267.0</ele><time>2026-04-26T09:58:04.043Z</time></trkpt><trkpt lat="42.0821783" lon="12.159125"><ele>266.0</ele><time>2026-04-26T09:58:05.04Z</time></trkpt><trkpt lat="42.0822067" lon="12.1590133"><ele>265.0</ele><time>2026-04-26T09:58:06.04Z</time></trkpt><trkpt lat="42.0822367" lon="12.158905"><ele>264.4</ele><time>2026-04-26T09:58:07.044Z</time></trkpt><trkpt lat="42.0822633" lon="12.158805"><ele>263.8</ele><time>2026-04-26T09:58:08.041Z</time></trkpt><trkpt lat="42.0822917" lon="12.1587183"><ele>263.2</ele><time>2026-04-26T09:58:09.041Z</time></trkpt><trkpt lat="42.0823283" lon="12.1585733"><ele>262.6</ele><time>2026-04-26T09:58:11.042Z</time></trkpt><trkpt lat="42.0823667" lon="12.158435"><ele>262.0</ele><time>2026-04-26T09:58:13.041Z</time></trkpt><trkpt lat="42.0824133" lon="12.1582867"><ele>262.0</ele><time>2026-04-26T09:58:15.051Z</time></trkpt><trkpt lat="42.0824283" lon="12.1582033"><ele>262.0</ele><time>2026-04-26T09:58:16.041Z</time></trkpt><trkpt lat="42.0824533" lon="12.15812"><ele>262.0</ele><time>2026-04-26T09:58:17.041Z</time></trkpt><trkpt lat="42.0824767" lon="12.1580317"><ele>262.0</ele><time>2026-04-26T09:58:18.041Z</time></trkpt><trkpt lat="42.0824967" lon="12.1579467"><ele>262.0</ele><time>2026-04-26T09:58:19.042Z</time></trkpt><trkpt lat="42.08252" lon="12.1578583"><ele>262.0</ele><time>2026-04-26T09:58:20.042Z</time></trkpt><trkpt lat="42.08254" lon="12.1577733"><ele>262.0</ele><time>2026-04-26T09:58:21.042Z</time></trkpt><trkpt lat="42.08258" lon="12.1576183"><ele>262.16666666666663</ele><time>2026-04-26T09:58:23.042Z</time></trkpt><trkpt lat="42.0826033" lon="12.1575383"><ele>262.3333333333333</ele><time>2026-04-26T09:58:24.04Z</time></trkpt><trkpt lat="42.0826517" lon="12.1573817"><ele>262.5</ele><time>2026-04-26T09:58:26.042Z</time></trkpt><trkpt lat="42.0826733" lon="12.157295"><ele>262.6666666666667</ele><time>2026-04-26T09:58:27.059Z</time></trkpt><trkpt lat="42.0826933" lon="12.157205"><ele>262.83333333333337</ele><time>2026-04-26T09:58:28.042Z</time></trkpt><trkpt lat="42.082715" lon="12.1571117"><ele>263.0</ele><time>2026-04-26T09:58:29.045Z</time></trkpt><trkpt lat="42.0827383" lon="12.1570267"><ele>263.0</ele><time>2026-04-26T09:58:30.039Z</time></trkpt><trkpt lat="42.08276" lon="12.15694"><ele>263.0</ele><time>2026-04-26T09:58:31.039Z</time></trkpt><trkpt lat="42.0827733" lon="12.1568483"><ele>263.0</ele><time>2026-04-26T09:58:32.041Z</time></trkpt><trkpt lat="42.0827867" lon="12.1567617"><ele>263.0</ele><time>2026-04-26T09:58:33.041Z</time></trkpt><trkpt lat="42.082805" lon="12.15668"><ele>263.0</ele><time>2026-04-26T09:58:34.044Z</time></trkpt><trkpt lat="42.08284" lon="12.1565267"><ele>263.0</ele><time>2026-04-26T09:58:36.04Z</time></trkpt><trkpt lat="42.0828667" lon="12.1563833"><ele>263.0</ele><time>2026-04-26T09:58:38.04Z</time></trkpt><trkpt lat="42.0828967" lon="12.1562417"><ele>263.0</ele><time>2026-04-26T09:58:40.041Z</time></trkpt><trkpt lat="42.0829283" lon="12.1561117"><ele>263.0</ele><time>2026-04-26T09:58:42.041Z</time></trkpt><trkpt lat="42.0829567" lon="12.1559833"><ele>263.0</ele><time>2026-04-26T09:58:44.045Z</time></trkpt><trkpt lat="42.0829933" lon="12.155845"><ele>263.0</ele><time>2026-04-26T09:58:46.041Z</time></trkpt><trkpt lat="42.0830367" lon="12.155685"><ele>263.0</ele><time>2026-04-26T09:58:48.039Z</time></trkpt><trkpt lat="42.0830633" lon="12.1556033"><ele>263.0</ele><time>2026-04-26T09:58:49.045Z</time></trkpt><trkpt lat="42.08309" lon="12.1555167"><ele>263.0</ele><time>2026-04-26T09:58:50.039Z</time></trkpt><trkpt lat="42.0831133" lon="12.15543"><ele>263.0</ele><time>2026-04-26T09:58:51.042Z</time></trkpt><trkpt lat="42.0831333" lon="12.15534"><ele>263.0</ele><time>2026-04-26T09:58:52.048Z</time></trkpt><trkpt lat="42.0831583" lon="12.1552567"><ele>263.0</ele><time>2026-04-26T09:58:53.04Z</time></trkpt><trkpt lat="42.08318" lon="12.1551733"><ele>263.0</ele><time>2026-04-26T09:58:54.047Z</time></trkpt><trkpt lat="42.0831983" lon="12.15509"><ele>263.0</ele><time>2026-04-26T09:58:55.039Z</time></trkpt><trkpt lat="42.0832167" lon="12.155005"><ele>263.0</ele><time>2026-04-26T09:58:56.04Z</time></trkpt><trkpt lat="42.0832533" lon="12.1548433"><ele>263.0</ele><time>2026-04-26T09:58:58.041Z</time></trkpt><trkpt lat="42.0832717" lon="12.1547617"><ele>263.0</ele><time>2026-04-26T09:58:59.041Z</time></trkpt><trkpt lat="42.0832933" lon="12.15468"><ele>263.0</ele><time>2026-04-26T09:59:00.041Z</time></trkpt><trkpt lat="42.08333" lon="12.1545233"><ele>263.0</ele><time>2026-04-26T09:59:02.043Z</time></trkpt><trkpt lat="42.0833667" lon="12.1543717"><ele>263.6</ele><time>2026-04-26T09:59:04.041Z</time></trkpt><trkpt lat="42.0834067" lon="12.154225"><ele>264.20000000000005</ele><time>2026-04-26T09:59:06.043Z</time></trkpt><trkpt lat="42.0834383" lon="12.1540783"><ele>264.8</ele><time>2026-04-26T09:59:08.043Z</time></trkpt><trkpt lat="42.0834683" lon="12.1539417"><ele>265.40000000000003</ele><time>2026-04-26T09:59:10.038Z</time></trkpt><trkpt lat="42.083495" lon="12.1538133"><ele>266.0</ele><time>2026-04-26T09:59:12.042Z</time></trkpt><trkpt lat="42.083525" lon="12.1536917"><ele>266.6666666666667</ele><time>2026-04-26T09:59:14.042Z</time></trkpt><trkpt lat="42.0835567" lon="12.153585"><ele>267.33333333333337</ele><time>2026-04-26T09:59:16.041Z</time></trkpt><trkpt lat="42.0835833" lon="12.1534867"><ele>268.0</ele><time>2026-04-26T09:59:18.042Z</time></trkpt><trkpt lat="42.0836083" lon="12.1533967"><ele>268.6666666666667</ele><time>2026-04-26T09:59:20.045Z</time></trkpt><trkpt lat="42.08363" lon="12.1533"><ele>269.3333333333333</ele><time>2026-04-26T09:59:22.04Z</time></trkpt><trkpt lat="42.0836483" lon="12.1532117"><ele>270.0</ele><time>2026-04-26T09:59:24.042Z</time></trkpt><trkpt lat="42.0836767" lon="12.1531"><ele>271.0</ele><time>2026-04-26T09:59:27.045Z</time></trkpt><trkpt lat="42.0837133" lon="12.153"><ele>272.0</ele><time>2026-04-26T09:59:30.04Z</time></trkpt><trkpt lat="42.0837367" lon="12.1528967"><ele>273.0</ele><time>2026-04-26T09:59:33.043Z</time></trkpt><trkpt lat="42.0837683" lon="12.152785"><ele>274.0</ele><time>2026-04-26T09:59:36.043Z</time></trkpt><trkpt lat="42.083785" lon="12.152665"><ele>275.0</ele><time>2026-04-26T09:59:39.041Z</time></trkpt><trkpt lat="42.0838083" lon="12.15254"><ele>276.0</ele><time>2026-04-26T09:59:42.044Z</time></trkpt><trkpt lat="42.0838367" lon="12.1524517"><ele>276.3333333333333</ele><time>2026-04-26T09:59:44.041Z</time></trkpt><trkpt lat="42.0838617" lon="12.15236"><ele>276.6666666666667</ele><time>2026-04-26T09:59:46.04Z</time></trkpt><trkpt lat="42.0838883" lon="12.1522733"><ele>277.0</ele><time>2026-04-26T09:59:48.044Z</time></trkpt><trkpt lat="42.08392" lon="12.1521567"><ele>277.33333333333337</ele><time>2026-04-26T09:59:51.051Z</time></trkpt><trkpt lat="42.0839517" lon="12.152045"><ele>277.6666666666667</ele><time>2026-04-26T09:59:54.041Z</time></trkpt><trkpt lat="42.0839733" lon="12.1519283"><ele>278.0</ele><time>2026-04-26T09:59:57.044Z</time></trkpt><trkpt lat="42.0840083" lon="12.1518217"><ele>278.0</ele><time>2026-04-26T10:00:00.042Z</time></trkpt><trkpt lat="42.0840367" lon="12.1517117"><ele>278.0</ele><time>2026-04-26T10:00:03.042Z</time></trkpt><trkpt lat="42.0840667" lon="12.1515967"><ele>278.0</ele><time>2026-04-26T10:00:06.045Z</time></trkpt><trkpt lat="42.0841" lon="12.1514817"><ele>278.0</ele><time>2026-04-26T10:00:09.044Z</time></trkpt><trkpt lat="42.08413" lon="12.15137"><ele>278.0</ele><time>2026-04-26T10:00:12.041Z</time></trkpt><trkpt lat="42.0841517" lon="12.1512583"><ele>278.0</ele><time>2026-04-26T10:00:15.041Z</time></trkpt><trkpt lat="42.0841783" lon="12.1511467"><ele>278.0</ele><time>2026-04-26T10:00:18.039Z</time></trkpt><trkpt lat="42.0842033" lon="12.1510517"><ele>278.0</ele><time>2026-04-26T10:00:21.044Z</time></trkpt><trkpt lat="42.0841933" lon="12.1509517"><ele>278.0</ele><time>2026-04-26T10:00:25.046Z</time></trkpt><trkpt lat="42.084145" lon="12.1508633"><ele>278.0</ele><time>2026-04-26T10:00:29.04Z</time></trkpt><trkpt lat="42.084185" lon="12.1507633"><ele>278.0</ele><time>2026-04-26T10:00:34.046Z</time></trkpt><trkpt lat="42.08421" lon="12.150655"><ele>278.0</ele><time>2026-04-26T10:00:37.043Z</time></trkpt><trkpt lat="42.0842417" lon="12.1505367"><ele>278.33333333333337</ele><time>2026-04-26T10:00:40.039Z</time></trkpt><trkpt lat="42.084265" lon="12.150425"><ele>278.6666666666667</ele><time>2026-04-26T10:00:43.041Z</time></trkpt><trkpt lat="42.084295" lon="12.1503133"><ele>279.0</ele><time>2026-04-26T10:00:46.042Z</time></trkpt><trkpt lat="42.0843183" lon="12.1502067"><ele>279.3333333333333</ele><time>2026-04-26T10:00:49.043Z</time></trkpt><trkpt lat="42.08436" lon="12.15008"><ele>279.66666666666663</ele><time>2026-04-26T10:02:17.042Z</time></trkpt><trkpt lat="42.084385" lon="12.14999"><ele>280.0</ele><time>2026-04-26T10:02:19.042Z</time></trkpt><trkpt lat="42.0844117" lon="12.149885"><ele>279.6</ele><time>2026-04-26T10:02:21.043Z</time></trkpt><trkpt lat="42.0844283" lon="12.1497717"><ele>279.2</ele><time>2026-04-26T10:02:23.043Z</time></trkpt><trkpt lat="42.0844483" lon="12.14965"><ele>278.8</ele><time>2026-04-26T10:02:25.04Z</time></trkpt><trkpt lat="42.0844817" lon="12.1495167"><ele>278.4</ele><time>2026-04-26T10:02:27.04Z</time></trkpt><trkpt lat="42.08452" lon="12.1493733"><ele>278.0</ele><time>2026-04-26T10:02:29.041Z</time></trkpt><trkpt lat="42.0845583" lon="12.1492183"><ele>278.0</ele><time>2026-04-26T10:02:31.04Z</time></trkpt><trkpt lat="42.08458" lon="12.1491317"><ele>278.0</ele><time>2026-04-26T10:02:32.041Z</time></trkpt><trkpt lat="42.0846017" lon="12.1490417"><ele>278.0</ele><time>2026-04-26T10:02:33.04Z</time></trkpt><trkpt lat="42.0846233" lon="12.148945"><ele>278.0</ele><time>2026-04-26T10:02:34.045Z</time></trkpt><trkpt lat="42.0846417" lon="12.148845"><ele>278.0</ele><time>2026-04-26T10:02:35.044Z</time></trkpt><trkpt lat="42.08466" lon="12.148745"><ele>278.0</ele><time>2026-04-26T10:02:36.042Z</time></trkpt><trkpt lat="42.0846833" lon="12.14865"><ele>278.0</ele><time>2026-04-26T10:02:37.048Z</time></trkpt><trkpt lat="42.0847067" lon="12.1485617"><ele>277.25</ele><time>2026-04-26T10:02:38.041Z</time></trkpt><trkpt lat="42.0847467" lon="12.14841"><ele>276.5</ele><time>2026-04-26T10:02:40.04Z</time></trkpt><trkpt lat="42.0847783" lon="12.148265"><ele>275.75</ele><time>2026-04-26T10:02:42.043Z</time></trkpt><trkpt lat="42.0848117" lon="12.1481167"><ele>275.0</ele><time>2026-04-26T10:02:44.041Z</time></trkpt><trkpt lat="42.084835" lon="12.147965"><ele>274.2</ele><time>2026-04-26T10:02:46.04Z</time></trkpt><trkpt lat="42.084855" lon="12.147815"><ele>273.4</ele><time>2026-04-26T10:02:48.044Z</time></trkpt><trkpt lat="42.0848683" lon="12.1476667"><ele>272.6</ele><time>2026-04-26T10:02:50.045Z</time></trkpt><trkpt lat="42.0848967" lon="12.1475267"><ele>271.8</ele><time>2026-04-26T10:02:52.045Z</time></trkpt><trkpt lat="42.0849167" lon="12.1473883"><ele>271.0</ele><time>2026-04-26T10:02:54.041Z</time></trkpt><trkpt lat="42.08493" lon="12.14726"><ele>271.0</ele><time>2026-04-26T10:02:56.042Z</time></trkpt><trkpt lat="42.0849517" lon="12.1471067"><ele>271.0</ele><time>2026-04-26T10:02:58.041Z</time></trkpt><trkpt lat="42.0849867" lon="12.1469517"><ele>271.0</ele><time>2026-04-26T10:03:00.043Z</time></trkpt><trkpt lat="42.0850417" lon="12.1468133"><ele>271.0</ele><time>2026-04-26T10:03:02.041Z</time></trkpt><trkpt lat="42.0851017" lon="12.1466817"><ele>270.40000000000003</ele><time>2026-04-26T10:03:04.043Z</time></trkpt><trkpt lat="42.085155" lon="12.146535"><ele>269.8</ele><time>2026-04-26T10:03:06.042Z</time></trkpt><trkpt lat="42.0851833" lon="12.1464583"><ele>269.20000000000005</ele><time>2026-04-26T10:03:07.045Z</time></trkpt><trkpt lat="42.085205" lon="12.1463783"><ele>268.6</ele><time>2026-04-26T10:03:08.045Z</time></trkpt><trkpt lat="42.0852483" lon="12.1462317"><ele>268.0</ele><time>2026-04-26T10:03:10.041Z</time></trkpt><trkpt lat="42.0852733" lon="12.1460767"><ele>268.0</ele><time>2026-04-26T10:03:12.041Z</time></trkpt><trkpt lat="42.0852867" lon="12.14592"><ele>268.0</ele><time>2026-04-26T10:03:14.045Z</time></trkpt><trkpt lat="42.0852983" lon="12.145755"><ele>268.0</ele><time>2026-04-26T10:03:16.04Z</time></trkpt><trkpt lat="42.085315" lon="12.1456117"><ele>268.0</ele><time>2026-04-26T10:03:18.039Z</time></trkpt><trkpt lat="42.085325" lon="12.145465"><ele>268.0</ele><time>2026-04-26T10:03:20.042Z</time></trkpt><trkpt lat="42.0853133" lon="12.14533"><ele>268.0</ele><time>2026-04-26T10:03:22.042Z</time></trkpt><trkpt lat="42.0852767" lon="12.1451983"><ele>268.0</ele><time>2026-04-26T10:03:24.04Z</time></trkpt><trkpt lat="42.08523" lon="12.1450867"><ele>268.0</ele><time>2026-04-26T10:03:26.044Z</time></trkpt><trkpt lat="42.0851883" lon="12.144985"><ele>268.0</ele><time>2026-04-26T10:03:28.043Z</time></trkpt><trkpt lat="42.0851167" lon="12.1448667"><ele>268.2</ele><time>2026-04-26T10:03:30.042Z</time></trkpt><trkpt lat="42.0850667" lon="12.1448033"><ele>268.4</ele><time>2026-04-26T10:03:31.04Z</time></trkpt><trkpt lat="42.0850067" lon="12.1446833"><ele>268.59999999999997</ele><time>2026-04-26T10:03:33.041Z</time></trkpt><trkpt lat="42.08493" lon="12.1445533"><ele>268.8</ele><time>2026-04-26T10:03:35.04Z</time></trkpt><trkpt lat="42.0848867" lon="12.1444867"><ele>269.0</ele><time>2026-04-26T10:03:36.04Z</time></trkpt><trkpt lat="42.084835" lon="12.1443667"><ele>269.5</ele><time>2026-04-26T10:03:38.039Z</time></trkpt><trkpt lat="42.0847567" lon="12.1442533"><ele>270.0</ele><time>2026-04-26T10:03:40.04Z</time></trkpt><trkpt lat="42.0846617" lon="12.14415"><ele>270.5</ele><time>2026-04-26T10:03:42.038Z</time></trkpt><trkpt lat="42.08458" lon="12.1440417"><ele>271.0</ele><time>2026-04-26T10:03:44.042Z</time></trkpt><trkpt lat="42.0844967" lon="12.1439183"><ele>271.0</ele><time>2026-04-26T10:03:46.041Z</time></trkpt><trkpt lat="42.08445" lon="12.1438567"><ele>271.0</ele><time>2026-04-26T10:03:47.04Z</time></trkpt><trkpt lat="42.0843683" lon="12.14375"><ele>271.0</ele><time>2026-04-26T10:03:49.043Z</time></trkpt><trkpt lat="42.0843" lon="12.1436617"><ele>271.0</ele><time>2026-04-26T10:03:51.042Z</time></trkpt><trkpt lat="42.0842533" lon="12.1435867"><ele>271.0</ele><time>2026-04-26T10:03:53.043Z</time></trkpt><trkpt lat="42.08418" lon="12.1435117"><ele>271.0</ele><time>2026-04-26T10:03:55.045Z</time></trkpt><trkpt lat="42.0841217" lon="12.1434517"><ele>272.1428571428571</ele><time>2026-04-26T10:03:57.044Z</time></trkpt><trkpt lat="42.0840483" lon="12.14339"><ele>273.2857142857143</ele><time>2026-04-26T10:04:00.041Z</time></trkpt><trkpt lat="42.0839783" lon="12.1433483"><ele>274.42857142857144</ele><time>2026-04-26T10:04:02.04Z</time></trkpt><trkpt lat="42.08392" lon="12.14331"><ele>275.57142857142856</ele><time>2026-04-26T10:04:04.041Z</time></trkpt><trkpt lat="42.083855" lon="12.1432817"><ele>276.7142857142857</ele><time>2026-04-26T10:04:06.04Z</time></trkpt><trkpt lat="42.083795" lon="12.1432467"><ele>277.85714285714283</ele><time>2026-04-26T10:04:08.051Z</time></trkpt><trkpt lat="42.0837333" lon="12.14321"><ele>279.0</ele><time>2026-04-26T10:04:10.042Z</time></trkpt><trkpt lat="42.083675" lon="12.14315"><ele>279.1666666666667</ele><time>2026-04-26T10:04:13.042Z</time></trkpt><trkpt lat="42.0836133" lon="12.143095"><ele>279.3333333333333</ele><time>2026-04-26T10:04:17.041Z</time></trkpt><trkpt lat="42.0835517" lon="12.1430167"><ele>279.5</ele><time>2026-04-26T10:04:21.046Z</time></trkpt><trkpt lat="42.0834867" lon="12.1429433"><ele>279.66666666666663</ele><time>2026-04-26T10:04:25.046Z</time></trkpt><trkpt lat="42.0834233" lon="12.1428767"><ele>279.8333333333333</ele><time>2026-04-26T10:04:29.043Z</time></trkpt><trkpt lat="42.08336" lon="12.1428333"><ele>280.0</ele><time>2026-04-26T10:04:32.039Z</time></trkpt><trkpt lat="42.0833017" lon="12.1427717"><ele>279.5</ele><time>2026-04-26T10:04:35.044Z</time></trkpt><trkpt lat="42.0832483" lon="12.14272"><ele>279.0</ele><time>2026-04-26T10:04:38.041Z</time></trkpt><trkpt lat="42.0832017" lon="12.14266"><ele>278.5</ele><time>2026-04-26T10:04:41.044Z</time></trkpt><trkpt lat="42.08314" lon="12.1425817"><ele>278.0</ele><time>2026-04-26T10:04:45.044Z</time></trkpt><trkpt lat="42.083075" lon="12.1425383"><ele>277.5</ele><time>2026-04-26T10:04:49.044Z</time></trkpt><trkpt lat="42.0830283" lon="12.1424583"><ele>277.0</ele><time>2026-04-26T10:04:56.043Z</time></trkpt><trkpt lat="42.082955" lon="12.1423583"><ele>277.0</ele><time>2026-04-26T10:04:59.043Z</time></trkpt><trkpt lat="42.0828933" lon="12.1422633"><ele>277.0</ele><time>2026-04-26T10:05:01.044Z</time></trkpt><trkpt lat="42.0828133" lon="12.14216"><ele>277.0</ele><time>2026-04-26T10:05:03.043Z</time></trkpt><trkpt lat="42.0827417" lon="12.14204"><ele>277.0</ele><time>2026-04-26T10:05:05.046Z</time></trkpt><trkpt lat="42.0826767" lon="12.1419317"><ele>277.0</ele><time>2026-04-26T10:05:07.047Z</time></trkpt><trkpt lat="42.082645" lon="12.1418167"><ele>277.0</ele><time>2026-04-26T10:05:09.043Z</time></trkpt><trkpt lat="42.08264" lon="12.1417017"><ele>277.0</ele><time>2026-04-26T10:05:11.041Z</time></trkpt><trkpt lat="42.0826283" lon="12.141585"><ele>277.0</ele><time>2026-04-26T10:05:13.04Z</time></trkpt><trkpt lat="42.0826117" lon="12.1414717"><ele>277.0</ele><time>2026-04-26T10:05:15.041Z</time></trkpt><trkpt lat="42.08259" lon="12.141365"><ele>277.0</ele><time>2026-04-26T10:05:17.04Z</time></trkpt><trkpt lat="42.082575" lon="12.1412667"><ele>277.0</ele><time>2026-04-26T10:05:19.044Z</time></trkpt><trkpt lat="42.0825467" lon="12.14118"><ele>277.16666666666663</ele><time>2026-04-26T10:05:21.046Z</time></trkpt><trkpt lat="42.082515" lon="12.1410967"><ele>277.3333333333333</ele><time>2026-04-26T10:05:23.045Z</time></trkpt><trkpt lat="42.082475" lon="12.1410117"><ele>277.5</ele><time>2026-04-26T10:05:25.04Z</time></trkpt><trkpt lat="42.082435" lon="12.1409267"><ele>277.6666666666667</ele><time>2026-04-26T10:05:27.041Z</time></trkpt><trkpt lat="42.0823917" lon="12.14084"><ele>277.83333333333337</ele><time>2026-04-26T10:05:29.041Z</time></trkpt><trkpt lat="42.082345" lon="12.1407517"><ele>278.0</ele><time>2026-04-26T10:05:31.044Z</time></trkpt><trkpt lat="42.082285" lon="12.1406633"><ele>278.5</ele><time>2026-04-26T10:05:33.041Z</time></trkpt><trkpt lat="42.0822117" lon="12.14058"><ele>279.0</ele><time>2026-04-26T10:05:35.042Z</time></trkpt><trkpt lat="42.082135" lon="12.1405133"><ele>279.5</ele><time>2026-04-26T10:05:37.04Z</time></trkpt><trkpt lat="42.0820667" lon="12.140475"><ele>280.0</ele><time>2026-04-26T10:05:39.042Z</time></trkpt><trkpt lat="42.0819967" lon="12.1404567"><ele>280.5</ele><time>2026-04-26T10:05:41.043Z</time></trkpt><trkpt lat="42.081925" lon="12.1404417"><ele>281.0</ele><time>2026-04-26T10:05:43.042Z</time></trkpt><trkpt lat="42.0818517" lon="12.1404167"><ele>281.0</ele><time>2026-04-26T10:05:45.043Z</time></trkpt><trkpt lat="42.0817767" lon="12.1404033"><ele>281.0</ele><time>2026-04-26T10:05:47.038Z</time></trkpt><trkpt lat="42.0817" lon="12.1403833"><ele>281.0</ele><time>2026-04-26T10:05:49.049Z</time></trkpt><trkpt lat="42.0816233" lon="12.1403617"><ele>281.0</ele><time>2026-04-26T10:05:51.041Z</time></trkpt><trkpt lat="42.081545" lon="12.14034"><ele>281.0</ele><time>2026-04-26T10:05:53.04Z</time></trkpt><trkpt lat="42.08147" lon="12.14033"><ele>281.0</ele><time>2026-04-26T10:05:55.039Z</time></trkpt><trkpt lat="42.0813967" lon="12.14033"><ele>281.42857142857144</ele><time>2026-04-26T10:05:57.047Z</time></trkpt><trkpt lat="42.0813233" lon="12.14032"><ele>281.8571428571429</ele><time>2026-04-26T10:05:59.043Z</time></trkpt><trkpt lat="42.081245" lon="12.1403067"><ele>282.2857142857143</ele><time>2026-04-26T10:06:01.041Z</time></trkpt><trkpt lat="42.0811683" lon="12.1402983"><ele>282.7142857142857</ele><time>2026-04-26T10:06:03.047Z</time></trkpt><trkpt lat="42.081095" lon="12.1402883"><ele>283.1428571428571</ele><time>2026-04-26T10:06:05.043Z</time></trkpt><trkpt lat="42.0810267" lon="12.1402683"><ele>283.57142857142856</ele><time>2026-04-26T10:06:07.041Z</time></trkpt><trkpt lat="42.08096" lon="12.14026"><ele>284.0</ele><time>2026-04-26T10:06:09.044Z</time></trkpt><trkpt lat="42.08089" lon="12.1402517"><ele>284.0</ele><time>2026-04-26T10:06:11.043Z</time></trkpt><trkpt lat="42.08082" lon="12.1402483"><ele>284.0</ele><time>2026-04-26T10:06:13.045Z</time></trkpt><trkpt lat="42.08075" lon="12.1402433"><ele>284.0</ele><time>2026-04-26T10:06:15.042Z</time></trkpt><trkpt lat="42.0806817" lon="12.1402333"><ele>284.0</ele><time>2026-04-26T10:06:17.041Z</time></trkpt><trkpt lat="42.08061" lon="12.1402167"><ele>284.0</ele><time>2026-04-26T10:06:19.041Z</time></trkpt><trkpt lat="42.0805467" lon="12.1401883"><ele>284.0</ele><time>2026-04-26T10:06:21.042Z</time></trkpt><trkpt lat="42.0804867" lon="12.140155"><ele>284.0</ele><time>2026-04-26T10:06:23.042Z</time></trkpt><trkpt lat="42.0804183" lon="12.1400867"><ele>283.83333333333337</ele><time>2026-04-26T10:06:26.04Z</time></trkpt><trkpt lat="42.0803467" lon="12.140035"><ele>283.6666666666667</ele><time>2026-04-26T10:06:29.043Z</time></trkpt><trkpt lat="42.0802683" lon="12.1399833"><ele>283.5</ele><time>2026-04-26T10:06:32.041Z</time></trkpt><trkpt lat="42.0801983" lon="12.1399383"><ele>283.3333333333333</ele><time>2026-04-26T10:06:35.042Z</time></trkpt><trkpt lat="42.0801233" lon="12.139895"><ele>283.16666666666663</ele><time>2026-04-26T10:06:38.044Z</time></trkpt><trkpt lat="42.08006" lon="12.1398567"><ele>283.0</ele><time>2026-04-26T10:06:41.042Z</time></trkpt><trkpt lat="42.0799883" lon="12.1398117"><ele>283.5</ele><time>2026-04-26T10:06:44.041Z</time></trkpt><trkpt lat="42.0799167" lon="12.1397417"><ele>284.0</ele><time>2026-04-26T10:06:47.048Z</time></trkpt><trkpt lat="42.0798483" lon="12.1396617"><ele>284.5</ele><time>2026-04-26T10:06:50.039Z</time></trkpt><trkpt lat="42.0797867" lon="12.1396183"><ele>285.0</ele><time>2026-04-26T10:06:52.043Z</time></trkpt><trkpt lat="42.0797233" lon="12.1395717"><ele>285.5</ele><time>2026-04-26T10:06:54.042Z</time></trkpt><trkpt lat="42.0796567" lon="12.139525"><ele>286.0</ele><time>2026-04-26T10:06:56.042Z</time></trkpt><trkpt lat="42.0795983" lon="12.1394733"><ele>285.99999999999994</ele><time>2026-04-26T10:06:58.042Z</time></trkpt><trkpt lat="42.0795417" lon="12.139415"><ele>286.0</ele><time>2026-04-26T10:07:00.043Z</time></trkpt><trkpt lat="42.079485" lon="12.1393533"><ele>286.0</ele><time>2026-04-26T10:07:02.041Z</time></trkpt><trkpt lat="42.0794283" lon="12.139295"><ele>286.0</ele><time>2026-04-26T10:07:04.044Z</time></trkpt><trkpt lat="42.0793717" lon="12.1392467"><ele>286.0</ele><time>2026-04-26T10:07:06.041Z</time></trkpt><trkpt lat="42.0793133" lon="12.1391983"><ele>285.99999999999994</ele><time>2026-04-26T10:07:08.04Z</time></trkpt><trkpt lat="42.0792533" lon="12.139155"><ele>286.0</ele><time>2026-04-26T10:07:10.042Z</time></trkpt><trkpt lat="42.07918" lon="12.1390967"><ele>285.5</ele><time>2026-04-26T10:07:13.043Z</time></trkpt><trkpt lat="42.0790933" lon="12.1390417"><ele>285.0</ele><time>2026-04-26T10:07:16.041Z</time></trkpt><trkpt lat="42.0790267" lon="12.1389883"><ele>284.5</ele><time>2026-04-26T10:07:18.043Z</time></trkpt><trkpt lat="42.07896" lon="12.1389233"><ele>284.0</ele><time>2026-04-26T10:07:20.042Z</time></trkpt><trkpt lat="42.0788967" lon="12.1388633"><ele>283.5</ele><time>2026-04-26T10:07:22.043Z</time></trkpt><trkpt lat="42.0788183" lon="12.1388033"><ele>283.0</ele><time>2026-04-26T10:07:24.042Z</time></trkpt><trkpt lat="42.078725" lon="12.1387633"><ele>283.0</ele><time>2026-04-26T10:07:26.044Z</time></trkpt><trkpt lat="42.078635" lon="12.1387067"><ele>283.0</ele><time>2026-04-26T10:07:28.044Z</time></trkpt><trkpt lat="42.07854" lon="12.138625"><ele>283.0</ele><time>2026-04-26T10:07:30.045Z</time></trkpt><trkpt lat="42.0784417" lon="12.138535"><ele>283.0</ele><time>2026-04-26T10:07:32.043Z</time></trkpt><trkpt lat="42.0783867" lon="12.1384917"><ele>283.0</ele><time>2026-04-26T10:07:33.043Z</time></trkpt><trkpt lat="42.0783183" lon="12.1384617"><ele>282.66666666666663</ele><time>2026-04-26T10:07:34.044Z</time></trkpt><trkpt lat="42.078245" lon="12.1384383"><ele>282.3333333333333</ele><time>2026-04-26T10:07:35.044Z</time></trkpt><trkpt lat="42.07818" lon="12.13841"><ele>282.0</ele><time>2026-04-26T10:07:36.039Z</time></trkpt><trkpt lat="42.0781183" lon="12.1383733"><ele>281.6666666666667</ele><time>2026-04-26T10:07:37.04Z</time></trkpt><trkpt lat="42.0780467" lon="12.1383267"><ele>281.33333333333337</ele><time>2026-04-26T10:07:38.044Z</time></trkpt><trkpt lat="42.0779383" lon="12.13823"><ele>281.0</ele><time>2026-04-26T10:07:40.044Z</time></trkpt><trkpt lat="42.0778767" lon="12.1381617"><ele>281.0</ele><time>2026-04-26T10:07:41.039Z</time></trkpt><trkpt lat="42.077825" lon="12.1380983"><ele>281.0</ele><time>2026-04-26T10:07:42.041Z</time></trkpt><trkpt lat="42.077755" lon="12.138015"><ele>281.0</ele><time>2026-04-26T10:07:44.044Z</time></trkpt><trkpt lat="42.0777083" lon="12.1379567"><ele>281.0</ele><time>2026-04-26T10:07:46.043Z</time></trkpt><trkpt lat="42.0776517" lon="12.1378867"><ele>281.0</ele><time>2026-04-26T10:07:48.04Z</time></trkpt><trkpt lat="42.0775733" lon="12.1378183"><ele>281.0</ele><time>2026-04-26T10:07:50.039Z</time></trkpt><trkpt lat="42.0774833" lon="12.1377517"><ele>280.25</ele><time>2026-04-26T10:07:52.037Z</time></trkpt><trkpt lat="42.0773867" lon="12.1376817"><ele>279.5</ele><time>2026-04-26T10:07:54.045Z</time></trkpt><trkpt lat="42.0772883" lon="12.1376017"><ele>278.75</ele><time>2026-04-26T10:07:56.042Z</time></trkpt><trkpt lat="42.077195" lon="12.1375117"><ele>278.0</ele><time>2026-04-26T10:07:58.043Z</time></trkpt><trkpt lat="42.07711" lon="12.1374167"><ele>278.8</ele><time>2026-04-26T10:08:00.042Z</time></trkpt><trkpt lat="42.0770367" lon="12.1373133"><ele>279.6</ele><time>2026-04-26T10:08:02.039Z</time></trkpt><trkpt lat="42.0769683" lon="12.1372033"><ele>280.4</ele><time>2026-04-26T10:08:04.038Z</time></trkpt><trkpt lat="42.0768833" lon="12.1371067"><ele>281.2</ele><time>2026-04-26T10:08:06.043Z</time></trkpt><trkpt lat="42.0768117" lon="12.137045"><ele>282.0</ele><time>2026-04-26T10:08:08.042Z</time></trkpt><trkpt lat="42.0767367" lon="12.13696"><ele>282.0</ele><time>2026-04-26T10:08:10.044Z</time></trkpt><trkpt lat="42.07667" lon="12.136865"><ele>282.0</ele><time>2026-04-26T10:08:12.041Z</time></trkpt><trkpt lat="42.0766367" lon="12.1367683"><ele>282.0</ele><time>2026-04-26T10:08:14.041Z</time></trkpt><trkpt lat="42.0766083" lon="12.1366767"><ele>282.0</ele><time>2026-04-26T10:08:16.042Z</time></trkpt><trkpt lat="42.0765783" lon="12.136585"><ele>282.0</ele><time>2026-04-26T10:08:18.045Z</time></trkpt><trkpt lat="42.0765467" lon="12.1364917"><ele>282.0</ele><time>2026-04-26T10:08:20.04Z</time></trkpt><trkpt lat="42.0765167" lon="12.1363967"><ele>282.2857142857143</ele><time>2026-04-26T10:08:22.039Z</time></trkpt><trkpt lat="42.07648" lon="12.1363217"><ele>282.57142857142856</ele><time>2026-04-26T10:08:24.044Z</time></trkpt><trkpt lat="42.07643" lon="12.136225"><ele>282.85714285714283</ele><time>2026-04-26T10:08:27.041Z</time></trkpt><trkpt lat="42.0763933" lon="12.1361483"><ele>283.1428571428571</ele><time>2026-04-26T10:08:30.041Z</time></trkpt><trkpt lat="42.0763683" lon="12.13607"><ele>283.4285714285714</ele><time>2026-04-26T10:08:36.041Z</time></trkpt><trkpt lat="42.0763067" lon="12.1359867"><ele>283.7142857142857</ele><time>2026-04-26T10:08:45.043Z</time></trkpt><trkpt lat="42.0762417" lon="12.1359383"><ele>284.0</ele><time>2026-04-26T10:08:47.042Z</time></trkpt><trkpt lat="42.0761583" lon="12.1358917"><ele>284.0</ele><time>2026-04-26T10:08:49.041Z</time></trkpt><trkpt lat="42.0760733" lon="12.13584"><ele>284.0</ele><time>2026-04-26T10:08:51.046Z</time></trkpt><trkpt lat="42.0759933" lon="12.1357867"><ele>284.0</ele><time>2026-04-26T10:08:53.045Z</time></trkpt><trkpt lat="42.0759117" lon="12.1357317"><ele>284.0</ele><time>2026-04-26T10:08:55.042Z</time></trkpt><trkpt lat="42.0758217" lon="12.13568"><ele>284.0</ele><time>2026-04-26T10:08:57.049Z</time></trkpt><trkpt lat="42.0757433" lon="12.135625"><ele>283.0</ele><time>2026-04-26T10:08:59.044Z</time></trkpt><trkpt lat="42.07567" lon="12.13556"><ele>282.0</ele><time>2026-04-26T10:09:01.042Z</time></trkpt><trkpt lat="42.0755967" lon="12.13549"><ele>281.0</ele><time>2026-04-26T10:09:03.044Z</time></trkpt><trkpt lat="42.07553" lon="12.135415"><ele>280.0</ele><time>2026-04-26T10:09:05.043Z</time></trkpt><trkpt lat="42.0754633" lon="12.1353467"><ele>279.0</ele><time>2026-04-26T10:09:07.039Z</time></trkpt><trkpt lat="42.075395" lon="12.1352917"><ele>278.0</ele><time>2026-04-26T10:09:09.043Z</time></trkpt><trkpt lat="42.0753233" lon="12.13524"><ele>278.0</ele><time>2026-04-26T10:09:11.043Z</time></trkpt><trkpt lat="42.0752467" lon="12.135185"><ele>278.0</ele><time>2026-04-26T10:09:13.039Z</time></trkpt><trkpt lat="42.0751717" lon="12.1351283"><ele>278.0</ele><time>2026-04-26T10:09:15.051Z</time></trkpt><trkpt lat="42.0750933" lon="12.1350617"><ele>278.0</ele><time>2026-04-26T10:09:17.043Z</time></trkpt><trkpt lat="42.0750283" lon="12.134995"><ele>278.0</ele><time>2026-04-26T10:09:19.042Z</time></trkpt><trkpt lat="42.0749467" lon="12.1349267"><ele>278.0</ele><time>2026-04-26T10:09:21.045Z</time></trkpt><trkpt lat="42.07485" lon="12.134865"><ele>276.8</ele><time>2026-04-26T10:09:23.043Z</time></trkpt><trkpt lat="42.07476" lon="12.134795"><ele>275.6</ele><time>2026-04-26T10:09:25.05Z</time></trkpt><trkpt lat="42.0746717" lon="12.1347167"><ele>274.4</ele><time>2026-04-26T10:09:27.04Z</time></trkpt><trkpt lat="42.07458" lon="12.13464"><ele>273.2</ele><time>2026-04-26T10:09:29.041Z</time></trkpt><trkpt lat="42.0744817" lon="12.1345733"><ele>272.0</ele><time>2026-04-26T10:09:31.042Z</time></trkpt><trkpt lat="42.0743833" lon="12.13451"><ele>272.0</ele><time>2026-04-26T10:09:33.042Z</time></trkpt><trkpt lat="42.0742883" lon="12.1344517"><ele>272.0</ele><time>2026-04-26T10:09:35.047Z</time></trkpt><trkpt lat="42.07419" lon="12.1343833"><ele>272.0</ele><time>2026-04-26T10:09:37.042Z</time></trkpt><trkpt lat="42.0740917" lon="12.13432"><ele>272.0</ele><time>2026-04-26T10:09:39.04Z</time></trkpt><trkpt lat="42.0739933" lon="12.1342583"><ele>272.0</ele><time>2026-04-26T10:09:41.041Z</time></trkpt><trkpt lat="42.0738967" lon="12.13419"><ele>271.5</ele><time>2026-04-26T10:09:43.04Z</time></trkpt><trkpt lat="42.073795" lon="12.1341167"><ele>271.0</ele><time>2026-04-26T10:09:45.043Z</time></trkpt><trkpt lat="42.0737017" lon="12.134035"><ele>270.5</ele><time>2026-04-26T10:09:47.042Z</time></trkpt><trkpt lat="42.0736017" lon="12.1339617"><ele>270.0</ele><time>2026-04-26T10:09:49.046Z</time></trkpt><trkpt lat="42.0735067" lon="12.13388"><ele>270.0</ele><time>2026-04-26T10:09:51.044Z</time></trkpt><trkpt lat="42.0734117" lon="12.1337967"><ele>270.0</ele><time>2026-04-26T10:09:53.041Z</time></trkpt><trkpt lat="42.0733283" lon="12.13373"><ele>270.0</ele><time>2026-04-26T10:09:55.041Z</time></trkpt><trkpt lat="42.0732533" lon="12.1336617"><ele>270.0</ele><time>2026-04-26T10:09:57.041Z</time></trkpt><trkpt lat="42.0731717" lon="12.1335983"><ele>270.0</ele><time>2026-04-26T10:09:59.045Z</time></trkpt><trkpt lat="42.0730833" lon="12.1335417"><ele>270.0</ele><time>2026-04-26T10:10:01.049Z</time></trkpt><trkpt lat="42.072995" lon="12.1335017"><ele>270.0</ele><time>2026-04-26T10:10:03.046Z</time></trkpt><trkpt lat="42.0729167" lon="12.1334683"><ele>270.0</ele><time>2026-04-26T10:10:05.041Z</time></trkpt><trkpt lat="42.0728383" lon="12.1334367"><ele>270.0</ele><time>2026-04-26T10:10:07.045Z</time></trkpt><trkpt lat="42.0727633" lon="12.1334083"><ele>270.0</ele><time>2026-04-26T10:10:09.053Z</time></trkpt><trkpt lat="42.07269" lon="12.1333733"><ele>270.0</ele><time>2026-04-26T10:10:11.042Z</time></trkpt><trkpt lat="42.07261" lon="12.1333383"><ele>270.0</ele><time>2026-04-26T10:10:13.043Z</time></trkpt><trkpt lat="42.072525" lon="12.1333067"><ele>270.0</ele><time>2026-04-26T10:10:15.045Z</time></trkpt><trkpt lat="42.0724383" lon="12.1332767"><ele>270.0</ele><time>2026-04-26T10:10:17.039Z</time></trkpt><trkpt lat="42.072355" lon="12.133245"><ele>270.0</ele><time>2026-04-26T10:10:19.044Z</time></trkpt><trkpt lat="42.07227" lon="12.1332117"><ele>270.0</ele><time>2026-04-26T10:10:21.043Z</time></trkpt><trkpt lat="42.0721833" lon="12.13318"><ele>270.0</ele><time>2026-04-26T10:10:23.039Z</time></trkpt><trkpt lat="42.0720983" lon="12.13315"><ele>269.8333333333333</ele><time>2026-04-26T10:10:25.042Z</time></trkpt><trkpt lat="42.0720133" lon="12.133125"><ele>269.6666666666667</ele><time>2026-04-26T10:10:27.049Z</time></trkpt><trkpt lat="42.0719283" lon="12.1330967"><ele>269.5</ele><time>2026-04-26T10:10:29.042Z</time></trkpt><trkpt lat="42.07184" lon="12.1330683"><ele>269.33333333333337</ele><time>2026-04-26T10:10:31.042Z</time></trkpt><trkpt lat="42.0717533" lon="12.13304"><ele>269.1666666666667</ele><time>2026-04-26T10:10:33.042Z</time></trkpt><trkpt lat="42.0716667" lon="12.1330167"><ele>269.0</ele><time>2026-04-26T10:10:35.041Z</time></trkpt><trkpt lat="42.071575" lon="12.13298"><ele>268.5</ele><time>2026-04-26T10:10:37.04Z</time></trkpt><trkpt lat="42.0714733" lon="12.132945"><ele>268.0</ele><time>2026-04-26T10:10:39.04Z</time></trkpt><trkpt lat="42.071365" lon="12.1329017"><ele>267.5</ele><time>2026-04-26T10:10:41.047Z</time></trkpt><trkpt lat="42.0712533" lon="12.13285"><ele>267.0</ele><time>2026-04-26T10:10:43.043Z</time></trkpt><trkpt lat="42.071135" lon="12.132795"><ele>267.00000000000006</ele><time>2026-04-26T10:10:45.041Z</time></trkpt><trkpt lat="42.0710733" lon="12.1327617"><ele>267.0</ele><time>2026-04-26T10:10:46.042Z</time></trkpt><trkpt lat="42.0710133" lon="12.132725"><ele>267.0</ele><time>2026-04-26T10:10:47.043Z</time></trkpt><trkpt lat="42.0709533" lon="12.1326867"><ele>267.0</ele><time>2026-04-26T10:10:48.043Z</time></trkpt><trkpt lat="42.0708917" lon="12.1326467"><ele>267.0</ele><time>2026-04-26T10:10:49.043Z</time></trkpt><trkpt lat="42.0708283" lon="12.132605"><ele>267.00000000000006</ele><time>2026-04-26T10:10:50.042Z</time></trkpt><trkpt lat="42.0707633" lon="12.1325633"><ele>267.0</ele><time>2026-04-26T10:10:51.046Z</time></trkpt><trkpt lat="42.0706967" lon="12.1325233"><ele>266.5714285714286</ele><time>2026-04-26T10:10:52.041Z</time></trkpt><trkpt lat="42.07063" lon="12.1324867"><ele>266.14285714285717</ele><time>2026-04-26T10:10:53.042Z</time></trkpt><trkpt lat="42.0705633" lon="12.1324483"><ele>265.7142857142857</ele><time>2026-04-26T10:10:54.044Z</time></trkpt><trkpt lat="42.0705" lon="12.1324067"><ele>265.28571428571433</ele><time>2026-04-26T10:10:55.041Z</time></trkpt><trkpt lat="42.0704383" lon="12.1323667"><ele>264.8571428571429</ele><time>2026-04-26T10:10:56.046Z</time></trkpt><trkpt lat="42.0703783" lon="12.1323217"><ele>264.42857142857144</ele><time>2026-04-26T10:10:57.042Z</time></trkpt><trkpt lat="42.0703183" lon="12.1322733"><ele>264.0</ele><time>2026-04-26T10:10:58.042Z</time></trkpt><trkpt lat="42.0702567" lon="12.1322233"><ele>263.8333333333333</ele><time>2026-04-26T10:10:59.041Z</time></trkpt><trkpt lat="42.0701967" lon="12.132175"><ele>263.6666666666667</ele><time>2026-04-26T10:11:00.041Z</time></trkpt><trkpt lat="42.0701317" lon="12.1321233"><ele>263.5</ele><time>2026-04-26T10:11:01.049Z</time></trkpt><trkpt lat="42.0700683" lon="12.13207"><ele>263.33333333333337</ele><time>2026-04-26T10:11:02.041Z</time></trkpt><trkpt lat="42.0699983" lon="12.132015"><ele>263.1666666666667</ele><time>2026-04-26T10:11:03.043Z</time></trkpt><trkpt lat="42.0699283" lon="12.1319617"><ele>263.0</ele><time>2026-04-26T10:11:04.041Z</time></trkpt><trkpt lat="42.069855" lon="12.1319067"><ele>262.33333333333337</ele><time>2026-04-26T10:11:05.042Z</time></trkpt><trkpt lat="42.069785" lon="12.13185"><ele>261.6666666666667</ele><time>2026-04-26T10:11:06.042Z</time></trkpt><trkpt lat="42.0697167" lon="12.1317917"><ele>261.0</ele><time>2026-04-26T10:11:07.047Z</time></trkpt><trkpt lat="42.06965" lon="12.1317283"><ele>260.3333333333333</ele><time>2026-04-26T10:11:08.044Z</time></trkpt><trkpt lat="42.0695833" lon="12.1316683"><ele>259.66666666666663</ele><time>2026-04-26T10:11:09.045Z</time></trkpt><trkpt lat="42.069515" lon="12.1316133"><ele>259.0</ele><time>2026-04-26T10:11:10.044Z</time></trkpt><trkpt lat="42.0694467" lon="12.1315583"><ele>258.8333333333333</ele><time>2026-04-26T10:11:11.043Z</time></trkpt><trkpt lat="42.069375" lon="12.1315033"><ele>258.66666666666663</ele><time>2026-04-26T10:11:12.041Z</time></trkpt><trkpt lat="42.0693067" lon="12.13145"><ele>258.5</ele><time>2026-04-26T10:11:13.039Z</time></trkpt><trkpt lat="42.06924" lon="12.1313967"><ele>258.3333333333333</ele><time>2026-04-26T10:11:14.04Z</time></trkpt><trkpt lat="42.0691767" lon="12.1313417"><ele>258.1666666666667</ele><time>2026-04-26T10:11:15.041Z</time></trkpt><trkpt lat="42.069115" lon="12.1312917"><ele>258.0</ele><time>2026-04-26T10:11:16.048Z</time></trkpt><trkpt lat="42.0690533" lon="12.1312383"><ele>257.85714285714283</ele><time>2026-04-26T10:11:17.043Z</time></trkpt><trkpt lat="42.0689933" lon="12.131185"><ele>257.7142857142857</ele><time>2026-04-26T10:11:18.041Z</time></trkpt><trkpt lat="42.0689333" lon="12.1311333"><ele>257.57142857142856</ele><time>2026-04-26T10:11:19.041Z</time></trkpt><trkpt lat="42.06887" lon="12.1310817"><ele>257.42857142857144</ele><time>2026-04-26T10:11:20.043Z</time></trkpt><trkpt lat="42.06881" lon="12.1310283"><ele>257.2857142857143</ele><time>2026-04-26T10:11:21.043Z</time></trkpt><trkpt lat="42.0687533" lon="12.1309783"><ele>257.1428571428571</ele><time>2026-04-26T10:11:22.042Z</time></trkpt><trkpt lat="42.0686933" lon="12.13093"><ele>257.0</ele><time>2026-04-26T10:11:23.049Z</time></trkpt><trkpt lat="42.0686333" lon="12.1308817"><ele>257.0</ele><time>2026-04-26T10:11:24.042Z</time></trkpt><trkpt lat="42.0685717" lon="12.1308367"><ele>257.0</ele><time>2026-04-26T10:11:25.04Z</time></trkpt><trkpt lat="42.0685083" lon="12.1307983"><ele>257.0</ele><time>2026-04-26T10:11:26.04Z</time></trkpt><trkpt lat="42.0684467" lon="12.1307583"><ele>257.0</ele><time>2026-04-26T10:11:27.043Z</time></trkpt><trkpt lat="42.068385" lon="12.1307233"><ele>257.0</ele><time>2026-04-26T10:11:28.045Z</time></trkpt><trkpt lat="42.06832" lon="12.1306967"><ele>257.0</ele><time>2026-04-26T10:11:29.043Z</time></trkpt><trkpt lat="42.0682533" lon="12.1306783"><ele>257.0</ele><time>2026-04-26T10:11:30.043Z</time></trkpt><trkpt lat="42.0681883" lon="12.1306667"><ele>256.85714285714283</ele><time>2026-04-26T10:11:31.047Z</time></trkpt><trkpt lat="42.0681217" lon="12.1306583"><ele>256.7142857142857</ele><time>2026-04-26T10:11:32.042Z</time></trkpt><trkpt lat="42.068055" lon="12.1306583"><ele>256.57142857142856</ele><time>2026-04-26T10:11:33.045Z</time></trkpt><trkpt lat="42.0679883" lon="12.130665"><ele>256.42857142857144</ele><time>2026-04-26T10:11:34.045Z</time></trkpt><trkpt lat="42.0679217" lon="12.1306817"><ele>256.2857142857143</ele><time>2026-04-26T10:11:35.041Z</time></trkpt><trkpt lat="42.0678533" lon="12.13071"><ele>256.1428571428571</ele><time>2026-04-26T10:11:36.038Z</time></trkpt><trkpt lat="42.0677867" lon="12.1307383"><ele>256.0</ele><time>2026-04-26T10:11:37.041Z</time></trkpt><trkpt lat="42.0677217" lon="12.1307683"><ele>256.0</ele><time>2026-04-26T10:11:38.043Z</time></trkpt><trkpt lat="42.067655" lon="12.1308017"><ele>255.99999999999997</ele><time>2026-04-26T10:11:39.044Z</time></trkpt><trkpt lat="42.0675867" lon="12.1308267"><ele>256.0</ele><time>2026-04-26T10:11:40.04Z</time></trkpt><trkpt lat="42.0675183" lon="12.13085"><ele>256.0</ele><time>2026-04-26T10:11:41.046Z</time></trkpt><trkpt lat="42.0674467" lon="12.1308767"><ele>255.99999999999997</ele><time>2026-04-26T10:11:42.039Z</time></trkpt><trkpt lat="42.0673767" lon="12.1308983"><ele>256.0</ele><time>2026-04-26T10:11:43.051Z</time></trkpt><trkpt lat="42.0673067" lon="12.1309217"><ele>256.0</ele><time>2026-04-26T10:11:44.04Z</time></trkpt><trkpt lat="42.067235" lon="12.1309433"><ele>255.7142857142857</ele><time>2026-04-26T10:11:45.041Z</time></trkpt><trkpt lat="42.067165" lon="12.1309667"><ele>255.4285714285714</ele><time>2026-04-26T10:11:46.043Z</time></trkpt><trkpt lat="42.0670967" lon="12.130995"><ele>255.14285714285714</ele><time>2026-04-26T10:11:47.046Z</time></trkpt><trkpt lat="42.0670283" lon="12.131025"><ele>254.85714285714283</ele><time>2026-04-26T10:11:48.04Z</time></trkpt><trkpt lat="42.06696" lon="12.131055"><ele>254.57142857142856</ele><time>2026-04-26T10:11:49.052Z</time></trkpt><trkpt lat="42.0668917" lon="12.1310817"><ele>254.28571428571428</ele><time>2026-04-26T10:11:50.039Z</time></trkpt><trkpt lat="42.0668217" lon="12.13111"><ele>254.0</ele><time>2026-04-26T10:11:51.044Z</time></trkpt><trkpt lat="42.0667533" lon="12.1311383"><ele>254.0</ele><time>2026-04-26T10:11:52.044Z</time></trkpt><trkpt lat="42.0666867" lon="12.131165"><ele>254.0</ele><time>2026-04-26T10:11:53.041Z</time></trkpt><trkpt lat="42.0666183" lon="12.1312017"><ele>254.0</ele><time>2026-04-26T10:11:54.04Z</time></trkpt><trkpt lat="42.0665533" lon="12.13123"><ele>254.0</ele><time>2026-04-26T10:11:55.041Z</time></trkpt><trkpt lat="42.0664883" lon="12.131255"><ele>254.0</ele><time>2026-04-26T10:11:56.04Z</time></trkpt><trkpt lat="42.0664233" lon="12.1312817"><ele>254.0</ele><time>2026-04-26T10:11:57.041Z</time></trkpt><trkpt lat="42.06636" lon="12.1313133"><ele>254.0</ele><time>2026-04-26T10:11:58.04Z</time></trkpt><trkpt lat="42.066295" lon="12.1313483"><ele>254.0</ele><time>2026-04-26T10:11:59.046Z</time></trkpt><trkpt lat="42.0662317" lon="12.131385"><ele>254.0</ele><time>2026-04-26T10:12:00.042Z</time></trkpt><trkpt lat="42.06617" lon="12.13142"><ele>254.0</ele><time>2026-04-26T10:12:01.05Z</time></trkpt><trkpt lat="42.0661083" lon="12.131455"><ele>254.0</ele><time>2026-04-26T10:12:02.04Z</time></trkpt><trkpt lat="42.0660483" lon="12.1314883"><ele>254.0</ele><time>2026-04-26T10:12:03.041Z</time></trkpt><trkpt lat="42.06599" lon="12.1315217"><ele>254.0</ele><time>2026-04-26T10:12:04.04Z</time></trkpt><trkpt lat="42.06593" lon="12.1315517"><ele>254.0</ele><time>2026-04-26T10:12:05.04Z</time></trkpt><trkpt lat="42.0658717" lon="12.131585"><ele>254.0</ele><time>2026-04-26T10:12:06.042Z</time></trkpt><trkpt lat="42.06576" lon="12.13165"><ele>254.0</ele><time>2026-04-26T10:12:08.049Z</time></trkpt><trkpt lat="42.065655" lon="12.1317133"><ele>254.0</ele><time>2026-04-26T10:12:10.04Z</time></trkpt><trkpt lat="42.0655467" lon="12.131775"><ele>254.0</ele><time>2026-04-26T10:12:12.04Z</time></trkpt><trkpt lat="42.065435" lon="12.1318417"><ele>254.0</ele><time>2026-04-26T10:12:14.043Z</time></trkpt><trkpt lat="42.065375" lon="12.1318767"><ele>254.0</ele><time>2026-04-26T10:12:15.043Z</time></trkpt><trkpt lat="42.0653133" lon="12.1319083"><ele>254.0</ele><time>2026-04-26T10:12:16.039Z</time></trkpt><trkpt lat="42.0652533" lon="12.1319467"><ele>254.0</ele><time>2026-04-26T10:12:17.044Z</time></trkpt><trkpt lat="42.0651933" lon="12.13199"><ele>254.0</ele><time>2026-04-26T10:12:18.042Z</time></trkpt><trkpt lat="42.065135" lon="12.13203"><ele>254.0</ele><time>2026-04-26T10:12:19.046Z</time></trkpt><trkpt lat="42.0650783" lon="12.1320717"><ele>254.0</ele><time>2026-04-26T10:12:20.049Z</time></trkpt><trkpt lat="42.0650183" lon="12.132115"><ele>254.0</ele><time>2026-04-26T10:12:21.044Z</time></trkpt><trkpt lat="42.06496" lon="12.1321617"><ele>254.0</ele><time>2026-04-26T10:12:22.044Z</time></trkpt><trkpt lat="42.0649033" lon="12.1322083"><ele>254.0</ele><time>2026-04-26T10:12:23.042Z</time></trkpt><trkpt lat="42.0648467" lon="12.1322617"><ele>254.0</ele><time>2026-04-26T10:12:24.043Z</time></trkpt><trkpt lat="42.06479" lon="12.1323133"><ele>254.0</ele><time>2026-04-26T10:12:25.042Z</time></trkpt><trkpt lat="42.0647317" lon="12.1323667"><ele>254.0</ele><time>2026-04-26T10:12:26.049Z</time></trkpt><trkpt lat="42.064675" lon="12.132425"><ele>254.0</ele><time>2026-04-26T10:12:27.041Z</time></trkpt><trkpt lat="42.0646183" lon="12.13248"><ele>253.85714285714286</ele><time>2026-04-26T10:12:28.039Z</time></trkpt><trkpt lat="42.0645617" lon="12.132535"><ele>253.71428571428572</ele><time>2026-04-26T10:12:29.042Z</time></trkpt><trkpt lat="42.064505" lon="12.13259"><ele>253.57142857142858</ele><time>2026-04-26T10:12:30.042Z</time></trkpt><trkpt lat="42.0644483" lon="12.1326483"><ele>253.42857142857144</ele><time>2026-04-26T10:12:31.048Z</time></trkpt><trkpt lat="42.0643933" lon="12.1327083"><ele>253.28571428571428</ele><time>2026-04-26T10:12:32.043Z</time></trkpt><trkpt lat="42.0643367" lon="12.1327667"><ele>253.14285714285717</ele><time>2026-04-26T10:12:33.041Z</time></trkpt><trkpt lat="42.0642833" lon="12.1328267"><ele>253.00000000000003</ele><time>2026-04-26T10:12:34.04Z</time></trkpt><trkpt lat="42.0642267" lon="12.1328817"><ele>253.00000000000003</ele><time>2026-04-26T10:12:35.041Z</time></trkpt><trkpt lat="42.06417" lon="12.132935"><ele>253.0</ele><time>2026-04-26T10:12:36.046Z</time></trkpt><trkpt lat="42.0641133" lon="12.1329867"><ele>253.00000000000003</ele><time>2026-04-26T10:12:37.044Z</time></trkpt><trkpt lat="42.064055" lon="12.13304"><ele>253.00000000000003</ele><time>2026-04-26T10:12:38.039Z</time></trkpt><trkpt lat="42.064" lon="12.133095"><ele>253.0</ele><time>2026-04-26T10:12:39.042Z</time></trkpt><trkpt lat="42.0639483" lon="12.1331517"><ele>253.00000000000003</ele><time>2026-04-26T10:12:40.049Z</time></trkpt><trkpt lat="42.0638967" lon="12.13321"><ele>253.00000000000003</ele><time>2026-04-26T10:12:41.041Z</time></trkpt><trkpt lat="42.063845" lon="12.1332683"><ele>252.71428571428575</ele><time>2026-04-26T10:12:42.039Z</time></trkpt><trkpt lat="42.0637933" lon="12.1333217"><ele>252.42857142857144</ele><time>2026-04-26T10:12:43.04Z</time></trkpt><trkpt lat="42.06374" lon="12.1333767"><ele>252.14285714285714</ele><time>2026-04-26T10:12:44.042Z</time></trkpt><trkpt lat="42.0636883" lon="12.133435"><ele>251.85714285714286</ele><time>2026-04-26T10:12:45.042Z</time></trkpt><trkpt lat="42.063635" lon="12.1334933"><ele>251.57142857142856</ele><time>2026-04-26T10:12:46.041Z</time></trkpt><trkpt lat="42.063575" lon="12.133545"><ele>251.28571428571425</ele><time>2026-04-26T10:12:47.046Z</time></trkpt><trkpt lat="42.06351" lon="12.1335967"><ele>250.99999999999997</ele><time>2026-04-26T10:12:48.042Z</time></trkpt><trkpt lat="42.0634433" lon="12.1336483"><ele>251.00000000000003</ele><time>2026-04-26T10:12:49.045Z</time></trkpt><trkpt lat="42.0633733" lon="12.1336967"><ele>251.0</ele><time>2026-04-26T10:12:50.041Z</time></trkpt><trkpt lat="42.0633033" lon="12.1337467"><ele>251.0</ele><time>2026-04-26T10:12:51.044Z</time></trkpt><trkpt lat="42.0632317" lon="12.1338017"><ele>251.0</ele><time>2026-04-26T10:12:52.042Z</time></trkpt><trkpt lat="42.0631583" lon="12.1338567"><ele>251.00000000000003</ele><time>2026-04-26T10:12:53.041Z</time></trkpt><trkpt lat="42.063085" lon="12.1339133"><ele>251.0</ele><time>2026-04-26T10:12:54.042Z</time></trkpt><trkpt lat="42.0630133" lon="12.1339733"><ele>250.16666666666669</ele><time>2026-04-26T10:12:55.042Z</time></trkpt><trkpt lat="42.0629417" lon="12.1340333"><ele>249.33333333333334</ele><time>2026-04-26T10:12:56.05Z</time></trkpt><trkpt lat="42.0628717" lon="12.1340917"><ele>248.5</ele><time>2026-04-26T10:12:57.044Z</time></trkpt><trkpt lat="42.0628017" lon="12.1341517"><ele>247.66666666666669</ele><time>2026-04-26T10:12:58.042Z</time></trkpt><trkpt lat="42.0627333" lon="12.1342117"><ele>246.83333333333334</ele><time>2026-04-26T10:12:59.042Z</time></trkpt><trkpt lat="42.0626667" lon="12.1342733"><ele>246.0</ele><time>2026-04-26T10:13:00.042Z</time></trkpt><trkpt lat="42.0625983" lon="12.134335"><ele>246.0</ele><time>2026-04-26T10:13:01.05Z</time></trkpt><trkpt lat="42.0625317" lon="12.134395"><ele>246.0</ele><time>2026-04-26T10:13:02.044Z</time></trkpt><trkpt lat="42.0624683" lon="12.134455"><ele>246.0</ele><time>2026-04-26T10:13:03.042Z</time></trkpt><trkpt lat="42.062405" lon="12.134515"><ele>246.0</ele><time>2026-04-26T10:13:04.04Z</time></trkpt><trkpt lat="42.0623417" lon="12.13457"><ele>246.0</ele><time>2026-04-26T10:13:05.04Z</time></trkpt><trkpt lat="42.0622783" lon="12.134625"><ele>246.0</ele><time>2026-04-26T10:13:06.041Z</time></trkpt><trkpt lat="42.062215" lon="12.13468"><ele>246.0</ele><time>2026-04-26T10:13:07.042Z</time></trkpt><trkpt lat="42.06215" lon="12.1347317"><ele>246.0</ele><time>2026-04-26T10:13:08.042Z</time></trkpt><trkpt lat="42.0620833" lon="12.134785"><ele>246.0</ele><time>2026-04-26T10:13:09.042Z</time></trkpt><trkpt lat="42.062015" lon="12.1348383"><ele>246.0</ele><time>2026-04-26T10:13:10.047Z</time></trkpt><trkpt lat="42.0619467" lon="12.134885"><ele>246.0</ele><time>2026-04-26T10:13:11.042Z</time></trkpt><trkpt lat="42.0618767" lon="12.1349267"><ele>246.0</ele><time>2026-04-26T10:13:12.04Z</time></trkpt><trkpt lat="42.0618017" lon="12.134955"><ele>246.00000000000003</ele><time>2026-04-26T10:13:13.039Z</time></trkpt><trkpt lat="42.061725" lon="12.134965"><ele>246.0</ele><time>2026-04-26T10:13:14.041Z</time></trkpt><trkpt lat="42.06165" lon="12.1349633"><ele>246.00000000000003</ele><time>2026-04-26T10:13:15.044Z</time></trkpt><trkpt lat="42.0615767" lon="12.1349567"><ele>246.00000000000003</ele><time>2026-04-26T10:13:16.04Z</time></trkpt><trkpt lat="42.061505" lon="12.1349583"><ele>246.0</ele><time>2026-04-26T10:13:17.047Z</time></trkpt><trkpt lat="42.0614367" lon="12.1349617"><ele>246.00000000000003</ele><time>2026-04-26T10:13:18.04Z</time></trkpt><trkpt lat="42.06137" lon="12.1349617"><ele>246.00000000000003</ele><time>2026-04-26T10:13:19.042Z</time></trkpt><trkpt lat="42.061305" lon="12.1349533"><ele>245.71428571428575</ele><time>2026-04-26T10:13:20.043Z</time></trkpt><trkpt lat="42.0612417" lon="12.1349283"><ele>245.42857142857144</ele><time>2026-04-26T10:13:21.043Z</time></trkpt><trkpt lat="42.0611833" lon="12.1348867"><ele>245.14285714285714</ele><time>2026-04-26T10:13:22.047Z</time></trkpt><trkpt lat="42.0611267" lon="12.13484"><ele>244.85714285714286</ele><time>2026-04-26T10:13:23.041Z</time></trkpt><trkpt lat="42.0610667" lon="12.134795"><ele>244.57142857142856</ele><time>2026-04-26T10:13:24.042Z</time></trkpt><trkpt lat="42.0610067" lon="12.1347483"><ele>244.28571428571425</ele><time>2026-04-26T10:13:25.04Z</time></trkpt><trkpt lat="42.0609433" lon="12.1347083"><ele>243.99999999999997</ele><time>2026-04-26T10:13:26.042Z</time></trkpt><trkpt lat="42.0608783" lon="12.1346683"><ele>243.57142857142856</ele><time>2026-04-26T10:13:27.041Z</time></trkpt><trkpt lat="42.0608133" lon="12.1346267"><ele>243.14285714285714</ele><time>2026-04-26T10:13:28.047Z</time></trkpt><trkpt lat="42.0607483" lon="12.1345867"><ele>242.71428571428572</ele><time>2026-04-26T10:13:29.04Z</time></trkpt><trkpt lat="42.060685" lon="12.1345433"><ele>242.28571428571428</ele><time>2026-04-26T10:13:30.044Z</time></trkpt><trkpt lat="42.0606217" lon="12.1344983"><ele>241.8571428571429</ele><time>2026-04-26T10:13:31.04Z</time></trkpt><trkpt lat="42.0605583" lon="12.1344533"><ele>241.42857142857144</ele><time>2026-04-26T10:13:32.041Z</time></trkpt><trkpt lat="42.060495" lon="12.1344117"><ele>241.0</ele><time>2026-04-26T10:13:33.046Z</time></trkpt><trkpt lat="42.0604317" lon="12.13437"><ele>240.85714285714286</ele><time>2026-04-26T10:13:34.044Z</time></trkpt><trkpt lat="42.0603667" lon="12.1343267"><ele>240.71428571428572</ele><time>2026-04-26T10:13:35.057Z</time></trkpt><trkpt lat="42.0603017" lon="12.1342833"><ele>240.57142857142858</ele><time>2026-04-26T10:13:36.043Z</time></trkpt><trkpt lat="42.0602367" lon="12.1342417"><ele>240.42857142857144</ele><time>2026-04-26T10:13:37.042Z</time></trkpt><trkpt lat="42.06017" lon="12.1342"><ele>240.28571428571428</ele><time>2026-04-26T10:13:38.044Z</time></trkpt><trkpt lat="42.060105" lon="12.1341617"><ele>240.14285714285717</ele><time>2026-04-26T10:13:39.041Z</time></trkpt><trkpt lat="42.0600417" lon="12.1341233"><ele>240.0</ele><time>2026-04-26T10:13:40.051Z</time></trkpt><trkpt lat="42.0599783" lon="12.1340817"><ele>240.0</ele><time>2026-04-26T10:13:41.04Z</time></trkpt><trkpt lat="42.0599167" lon="12.134035"><ele>240.0</ele><time>2026-04-26T10:13:42.04Z</time></trkpt><trkpt lat="42.0598567" lon="12.13399"><ele>240.0</ele><time>2026-04-26T10:13:43.041Z</time></trkpt><trkpt lat="42.0597983" lon="12.1339417"><ele>240.0</ele><time>2026-04-26T10:13:44.043Z</time></trkpt><trkpt lat="42.05974" lon="12.1338933"><ele>240.0</ele><time>2026-04-26T10:13:45.051Z</time></trkpt><trkpt lat="42.059685" lon="12.1338433"><ele>240.0</ele><time>2026-04-26T10:13:46.039Z</time></trkpt><trkpt lat="42.05963" lon="12.1337917"><ele>240.0</ele><time>2026-04-26T10:13:47.041Z</time></trkpt><trkpt lat="42.0595817" lon="12.1337367"><ele>240.0</ele><time>2026-04-26T10:13:48.039Z</time></trkpt><trkpt lat="42.05953" lon="12.13368"><ele>240.0</ele><time>2026-04-26T10:13:49.041Z</time></trkpt><trkpt lat="42.05948" lon="12.1336233"><ele>240.0</ele><time>2026-04-26T10:13:50.049Z</time></trkpt><trkpt lat="42.059435" lon="12.1335633"><ele>240.0</ele><time>2026-04-26T10:13:51.039Z</time></trkpt><trkpt lat="42.0593917" lon="12.1335"><ele>240.0</ele><time>2026-04-26T10:13:52.044Z</time></trkpt><trkpt lat="42.0593167" lon="12.13337"><ele>240.0</ele><time>2026-04-26T10:13:54.044Z</time></trkpt><trkpt lat="42.0592417" lon="12.1332383"><ele>240.5</ele><time>2026-04-26T10:13:56.044Z</time></trkpt><trkpt lat="42.0591683" lon="12.1331067"><ele>241.0</ele><time>2026-04-26T10:13:58.044Z</time></trkpt><trkpt lat="42.0590917" lon="12.1329767"><ele>241.5</ele><time>2026-04-26T10:14:00.042Z</time></trkpt><trkpt lat="42.059025" lon="12.1328467"><ele>242.0</ele><time>2026-04-26T10:14:02.042Z</time></trkpt><trkpt lat="42.058955" lon="12.1327183"><ele>242.25</ele><time>2026-04-26T10:14:04.043Z</time></trkpt><trkpt lat="42.0588833" lon="12.1326"><ele>242.5</ele><time>2026-04-26T10:14:06.045Z</time></trkpt><trkpt lat="42.0588117" lon="12.1324833"><ele>242.75</ele><time>2026-04-26T10:14:08.042Z</time></trkpt><trkpt lat="42.058735" lon="12.1323717"><ele>243.0</ele><time>2026-04-26T10:14:10.041Z</time></trkpt><trkpt lat="42.05866" lon="12.1322533"><ele>242.5</ele><time>2026-04-26T10:14:12.045Z</time></trkpt><trkpt lat="42.0585867" lon="12.132115"><ele>242.0</ele><time>2026-04-26T10:14:14.049Z</time></trkpt><trkpt lat="42.0585567" lon="12.1320367"><ele>241.5</ele><time>2026-04-26T10:14:15.042Z</time></trkpt><trkpt lat="42.0585233" lon="12.131955"><ele>241.0</ele><time>2026-04-26T10:14:16.041Z</time></trkpt><trkpt lat="42.0584867" lon="12.1318717"><ele>240.5</ele><time>2026-04-26T10:14:17.041Z</time></trkpt><trkpt lat="42.0584517" lon="12.1317917"><ele>240.0</ele><time>2026-04-26T10:14:18.043Z</time></trkpt><trkpt lat="42.058405" lon="12.1317083"><ele>240.0</ele><time>2026-04-26T10:14:19.04Z</time></trkpt><trkpt lat="42.0583633" lon="12.131625"><ele>240.0</ele><time>2026-04-26T10:14:20.051Z</time></trkpt><trkpt lat="42.05832" lon="12.1315383"><ele>240.0</ele><time>2026-04-26T10:14:21.043Z</time></trkpt><trkpt lat="42.0582817" lon="12.1314567"><ele>240.0</ele><time>2026-04-26T10:14:22.043Z</time></trkpt><trkpt lat="42.0582367" lon="12.1313733"><ele>240.0</ele><time>2026-04-26T10:14:23.044Z</time></trkpt><trkpt lat="42.0581883" lon="12.131285"><ele>240.0</ele><time>2026-04-26T10:14:24.041Z</time></trkpt><trkpt lat="42.0581367" lon="12.1311983"><ele>239.5</ele><time>2026-04-26T10:14:25.048Z</time></trkpt><trkpt lat="42.0580867" lon="12.13111"><ele>239.0</ele><time>2026-04-26T10:14:26.042Z</time></trkpt><trkpt lat="42.0580467" lon="12.1310233"><ele>238.5</ele><time>2026-04-26T10:14:27.041Z</time></trkpt><trkpt lat="42.0580167" lon="12.13093"><ele>238.0</ele><time>2026-04-26T10:14:28.042Z</time></trkpt><trkpt lat="42.05799" lon="12.1308333"><ele>237.5</ele><time>2026-04-26T10:14:29.041Z</time></trkpt><trkpt lat="42.057975" lon="12.130725"><ele>237.0</ele><time>2026-04-26T10:14:30.041Z</time></trkpt><trkpt lat="42.0579583" lon="12.1306183"><ele>237.0</ele><time>2026-04-26T10:14:31.052Z</time></trkpt><trkpt lat="42.0579467" lon="12.1305217"><ele>237.0</ele><time>2026-04-26T10:14:32.042Z</time></trkpt><trkpt lat="42.05794" lon="12.13035"><ele>237.0</ele><time>2026-04-26T10:14:34.042Z</time></trkpt><trkpt lat="42.0579383" lon="12.130265"><ele>237.0</ele><time>2026-04-26T10:14:35.041Z</time></trkpt><trkpt lat="42.0579667" lon="12.13012"><ele>237.0</ele><time>2026-04-26T10:14:37.043Z</time></trkpt><trkpt lat="42.0579783" lon="12.1299683"><ele>237.5</ele><time>2026-04-26T10:14:39.043Z</time></trkpt><trkpt lat="42.0579817" lon="12.12981"><ele>238.0</ele><time>2026-04-26T10:14:41.042Z</time></trkpt><trkpt lat="42.0579733" lon="12.1296567"><ele>238.5</ele><time>2026-04-26T10:14:43.042Z</time></trkpt><trkpt lat="42.0579617" lon="12.1295017"><ele>239.0</ele><time>2026-04-26T10:14:45.043Z</time></trkpt><trkpt lat="42.0579517" lon="12.1293483"><ele>239.0</ele><time>2026-04-26T10:14:47.039Z</time></trkpt><trkpt lat="42.0579417" lon="12.1292033"><ele>238.99999999999997</ele><time>2026-04-26T10:14:49.041Z</time></trkpt><trkpt lat="42.0579333" lon="12.12907"><ele>238.99999999999997</ele><time>2026-04-26T10:14:51.041Z</time></trkpt><trkpt lat="42.0579267" lon="12.128935"><ele>239.0</ele><time>2026-04-26T10:14:53.04Z</time></trkpt><trkpt lat="42.0579133" lon="12.1288033"><ele>239.0</ele><time>2026-04-26T10:14:55.044Z</time></trkpt><trkpt lat="42.0578983" lon="12.128675"><ele>239.0</ele><time>2026-04-26T10:14:57.043Z</time></trkpt><trkpt lat="42.0578667" lon="12.1285483"><ele>238.99999999999997</ele><time>2026-04-26T10:14:59.041Z</time></trkpt><trkpt lat="42.05781" lon="12.1284367"><ele>238.99999999999997</ele><time>2026-04-26T10:15:01.048Z</time></trkpt><trkpt lat="42.0577483" lon="12.1283317"><ele>239.0</ele><time>2026-04-26T10:15:03.044Z</time></trkpt><trkpt lat="42.0576667" lon="12.128245"><ele>239.0</ele><time>2026-04-26T10:15:05.04Z</time></trkpt><trkpt lat="42.057575" lon="12.1281733"><ele>238.6</ele><time>2026-04-26T10:15:07.045Z</time></trkpt><trkpt lat="42.0574767" lon="12.12811"><ele>238.2</ele><time>2026-04-26T10:15:09.041Z</time></trkpt><trkpt lat="42.0573767" lon="12.12805"><ele>237.79999999999998</ele><time>2026-04-26T10:15:11.043Z</time></trkpt><trkpt lat="42.0572767" lon="12.1279933"><ele>237.39999999999998</ele><time>2026-04-26T10:15:13.045Z</time></trkpt><trkpt lat="42.0571767" lon="12.1279433"><ele>237.0</ele><time>2026-04-26T10:15:15.044Z</time></trkpt><trkpt lat="42.0570783" lon="12.12789"><ele>236.5</ele><time>2026-04-26T10:15:17.04Z</time></trkpt><trkpt lat="42.0569767" lon="12.1278267"><ele>236.0</ele><time>2026-04-26T10:15:19.041Z</time></trkpt><trkpt lat="42.05687" lon="12.1277617"><ele>235.5</ele><time>2026-04-26T10:15:21.045Z</time></trkpt><trkpt lat="42.0567583" lon="12.1276983"><ele>235.0</ele><time>2026-04-26T10:15:23.039Z</time></trkpt><trkpt lat="42.0566417" lon="12.1276417"><ele>234.25</ele><time>2026-04-26T10:15:25.042Z</time></trkpt><trkpt lat="42.056535" lon="12.1275883"><ele>233.5</ele><time>2026-04-26T10:15:27.052Z</time></trkpt><trkpt lat="42.05643" lon="12.1275283"><ele>232.75</ele><time>2026-04-26T10:15:29.045Z</time></trkpt><trkpt lat="42.056325" lon="12.1274733"><ele>232.0</ele><time>2026-04-26T10:15:31.04Z</time></trkpt><trkpt lat="42.0562133" lon="12.1274167"><ele>232.25</ele><time>2026-04-26T10:15:33.044Z</time></trkpt><trkpt lat="42.0561017" lon="12.1273567"><ele>232.5</ele><time>2026-04-26T10:15:35.041Z</time></trkpt><trkpt lat="42.0559917" lon="12.1273"><ele>232.75</ele><time>2026-04-26T10:15:37.043Z</time></trkpt><trkpt lat="42.0558867" lon="12.12724"><ele>233.0</ele><time>2026-04-26T10:15:39.045Z</time></trkpt><trkpt lat="42.0557817" lon="12.1271783"><ele>233.0</ele><time>2026-04-26T10:15:41.044Z</time></trkpt><trkpt lat="42.0556833" lon="12.1271233"><ele>233.0</ele><time>2026-04-26T10:15:43.043Z</time></trkpt><trkpt lat="42.0555783" lon="12.1270733"><ele>233.0</ele><time>2026-04-26T10:15:45.044Z</time></trkpt><trkpt lat="42.055485" lon="12.127015"><ele>233.0</ele><time>2026-04-26T10:15:47.044Z</time></trkpt><trkpt lat="42.055375" lon="12.1269467"><ele>233.0</ele><time>2026-04-26T10:15:49.043Z</time></trkpt><trkpt lat="42.0553167" lon="12.1269133"><ele>233.0</ele><time>2026-04-26T10:15:50.041Z</time></trkpt><trkpt lat="42.05521" lon="12.1268517"><ele>233.0</ele><time>2026-04-26T10:15:52.041Z</time></trkpt><trkpt lat="42.0551083" lon="12.126785"><ele>233.0</ele><time>2026-04-26T10:15:54.042Z</time></trkpt><trkpt lat="42.0550117" lon="12.1267333"><ele>233.0</ele><time>2026-04-26T10:15:56.044Z</time></trkpt><trkpt lat="42.0548883" lon="12.126675"><ele>232.57142857142858</ele><time>2026-04-26T10:15:58.051Z</time></trkpt><trkpt lat="42.05482" lon="12.1266483"><ele>232.1428571428571</ele><time>2026-04-26T10:15:59.041Z</time></trkpt><trkpt lat="42.0547517" lon="12.12662"><ele>231.7142857142857</ele><time>2026-04-26T10:16:00.041Z</time></trkpt><trkpt lat="42.0546917" lon="12.1265917"><ele>231.28571428571428</ele><time>2026-04-26T10:16:01.044Z</time></trkpt><trkpt lat="42.0546317" lon="12.1265533"><ele>230.85714285714283</ele><time>2026-04-26T10:16:02.04Z</time></trkpt><trkpt lat="42.0545717" lon="12.12652"><ele>230.4285714285714</ele><time>2026-04-26T10:16:03.046Z</time></trkpt><trkpt lat="42.054515" lon="12.1264817"><ele>229.99999999999997</ele><time>2026-04-26T10:16:04.042Z</time></trkpt><trkpt lat="42.0544533" lon="12.12645"><ele>229.99999999999997</ele><time>2026-04-26T10:16:05.042Z</time></trkpt><trkpt lat="42.0543933" lon="12.1264133"><ele>230.0</ele><time>2026-04-26T10:16:06.041Z</time></trkpt><trkpt lat="42.0543317" lon="12.1263783"><ele>229.99999999999997</ele><time>2026-04-26T10:16:07.042Z</time></trkpt><trkpt lat="42.0542667" lon="12.1263417"><ele>229.99999999999997</ele><time>2026-04-26T10:16:08.041Z</time></trkpt><trkpt lat="42.0542" lon="12.1263083"><ele>230.0</ele><time>2026-04-26T10:16:09.043Z</time></trkpt><trkpt lat="42.0541283" lon="12.1262817"><ele>229.99999999999997</ele><time>2026-04-26T10:16:10.052Z</time></trkpt><trkpt lat="42.0540533" lon="12.126255"><ele>229.99999999999997</ele><time>2026-04-26T10:16:11.04Z</time></trkpt><trkpt lat="42.0539817" lon="12.1262233"><ele>229.50000000000003</ele><time>2026-04-26T10:16:12.041Z</time></trkpt><trkpt lat="42.05391" lon="12.1261917"><ele>229.0</ele><time>2026-04-26T10:16:13.04Z</time></trkpt><trkpt lat="42.0538483" lon="12.12616"><ele>228.5</ele><time>2026-04-26T10:16:14.039Z</time></trkpt><trkpt lat="42.0537767" lon="12.1261417"><ele>228.0</ele><time>2026-04-26T10:16:15.052Z</time></trkpt><trkpt lat="42.0537033" lon="12.1261083"><ele>227.50000000000003</ele><time>2026-04-26T10:16:16.043Z</time></trkpt><trkpt lat="42.0536283" lon="12.1260717"><ele>227.0</ele><time>2026-04-26T10:16:17.042Z</time></trkpt><trkpt lat="42.05355" lon="12.12603"><ele>227.00000000000003</ele><time>2026-04-26T10:16:18.04Z</time></trkpt><trkpt lat="42.0534717" lon="12.125985"><ele>227.0</ele><time>2026-04-26T10:16:19.041Z</time></trkpt><trkpt lat="42.0533967" lon="12.1259383"><ele>227.0</ele><time>2026-04-26T10:16:20.044Z</time></trkpt><trkpt lat="42.0533183" lon="12.1259067"><ele>227.0</ele><time>2026-04-26T10:16:21.045Z</time></trkpt><trkpt lat="42.0532417" lon="12.12587"><ele>227.00000000000003</ele><time>2026-04-26T10:16:22.043Z</time></trkpt><trkpt lat="42.0531667" lon="12.1258333"><ele>227.0</ele><time>2026-04-26T10:16:23.043Z</time></trkpt><trkpt lat="42.0531017" lon="12.1258117"><ele>227.2</ele><time>2026-04-26T10:16:24.042Z</time></trkpt><trkpt lat="42.0530067" lon="12.1258167"><ele>227.39999999999998</ele><time>2026-04-26T10:16:26.049Z</time></trkpt><trkpt lat="42.05293" lon="12.1258833"><ele>227.60000000000002</ele><time>2026-04-26T10:16:28.044Z</time></trkpt><trkpt lat="42.0529267" lon="12.125985"><ele>227.8</ele><time>2026-04-26T10:16:30.04Z</time></trkpt><trkpt lat="42.05301" lon="12.126005"><ele>228.0</ele><time>2026-04-26T10:16:34.042Z</time></trkpt><trkpt lat="42.0530833" lon="12.125885"><ele>228.0</ele><time>2026-04-26T10:22:17.043Z</time></trkpt><trkpt lat="42.0531483" lon="12.1258483"><ele>228.0</ele><time>2026-04-26T10:22:20.044Z</time></trkpt><trkpt lat="42.0532133" lon="12.1258333"><ele>228.0</ele><time>2026-04-26T10:22:22.05Z</time></trkpt><trkpt lat="42.0532833" lon="12.1258717"><ele>228.0</ele><time>2026-04-26T10:22:24.044Z</time></trkpt><trkpt lat="42.0533617" lon="12.125915"><ele>228.0</ele><time>2026-04-26T10:22:26.045Z</time></trkpt><trkpt lat="42.0534433" lon="12.1259617"><ele>228.0</ele><time>2026-04-26T10:22:28.041Z</time></trkpt><trkpt lat="42.0535133" lon="12.1260117"><ele>227.83333333333334</ele><time>2026-04-26T10:22:30.04Z</time></trkpt><trkpt lat="42.0535817" lon="12.126055"><ele>227.66666666666669</ele><time>2026-04-26T10:22:32.041Z</time></trkpt><trkpt lat="42.05366" lon="12.1260917"><ele>227.5</ele><time>2026-04-26T10:22:34.046Z</time></trkpt><trkpt lat="42.053745" lon="12.1261217"><ele>227.33333333333334</ele><time>2026-04-26T10:22:36.046Z</time></trkpt><trkpt lat="42.0538167" lon="12.12616"><ele>227.16666666666669</ele><time>2026-04-26T10:22:38.051Z</time></trkpt><trkpt lat="42.0538933" lon="12.1262017"><ele>227.0</ele><time>2026-04-26T10:22:40.042Z</time></trkpt><trkpt lat="42.053965" lon="12.126245"><ele>227.00000000000003</ele><time>2026-04-26T10:22:42.04Z</time></trkpt><trkpt lat="42.0540417" lon="12.1262833"><ele>227.0</ele><time>2026-04-26T10:22:44.046Z</time></trkpt><trkpt lat="42.0541183" lon="12.1263183"><ele>227.0</ele><time>2026-04-26T10:22:46.043Z</time></trkpt><trkpt lat="42.0542033" lon="12.126355"><ele>227.0</ele><time>2026-04-26T10:22:48.047Z</time></trkpt><trkpt lat="42.05428" lon="12.1263917"><ele>227.00000000000003</ele><time>2026-04-26T10:22:50.042Z</time></trkpt><trkpt lat="42.0543483" lon="12.1264383"><ele>227.0</ele><time>2026-04-26T10:22:52.048Z</time></trkpt><trkpt lat="42.05442" lon="12.1264817"><ele>227.16666666666669</ele><time>2026-04-26T10:22:54.043Z</time></trkpt><trkpt lat="42.05449" lon="12.1265267"><ele>227.33333333333334</ele><time>2026-04-26T10:22:56.045Z</time></trkpt><trkpt lat="42.0545617" lon="12.1265717"><ele>227.5</ele><time>2026-04-26T10:22:58.043Z</time></trkpt><trkpt lat="42.0546317" lon="12.1266133"><ele>227.66666666666669</ele><time>2026-04-26T10:23:00.041Z</time></trkpt><trkpt lat="42.0547033" lon="12.126655"><ele>227.83333333333334</ele><time>2026-04-26T10:23:02.041Z</time></trkpt><trkpt lat="42.0547733" lon="12.1267"><ele>228.0</ele><time>2026-04-26T10:23:04.044Z</time></trkpt><trkpt lat="42.0548467" lon="12.126745"><ele>228.0</ele><time>2026-04-26T10:23:06.038Z</time></trkpt><trkpt lat="42.0549233" lon="12.1267883"><ele>227.99999999999997</ele><time>2026-04-26T10:23:08.044Z</time></trkpt><trkpt lat="42.0549933" lon="12.1268267"><ele>228.0</ele><time>2026-04-26T10:23:10.04Z</time></trkpt><trkpt lat="42.0550567" lon="12.1268667"><ele>228.0</ele><time>2026-04-26T10:23:12.041Z</time></trkpt><trkpt lat="42.05512" lon="12.126895"><ele>227.99999999999997</ele><time>2026-04-26T10:23:14.043Z</time></trkpt><trkpt lat="42.0551833" lon="12.1269283"><ele>228.0</ele><time>2026-04-26T10:23:16.041Z</time></trkpt><trkpt lat="42.0552433" lon="12.1269633"><ele>228.0</ele><time>2026-04-26T10:23:18.042Z</time></trkpt><trkpt lat="42.055305" lon="12.1269983"><ele>228.7142857142857</ele><time>2026-04-26T10:23:20.042Z</time></trkpt><trkpt lat="42.0553683" lon="12.127035"><ele>229.4285714285714</ele><time>2026-04-26T10:23:22.047Z</time></trkpt><trkpt lat="42.05543" lon="12.1270717"><ele>230.14285714285714</ele><time>2026-04-26T10:23:24.044Z</time></trkpt><trkpt lat="42.0554967" lon="12.12711"><ele>230.85714285714283</ele><time>2026-04-26T10:23:26.041Z</time></trkpt><trkpt lat="42.0555683" lon="12.127145"><ele>231.57142857142856</ele><time>2026-04-26T10:23:28.041Z</time></trkpt><trkpt lat="42.0556433" lon="12.1271817"><ele>232.28571428571428</ele><time>2026-04-26T10:23:30.042Z</time></trkpt><trkpt lat="42.05572" lon="12.1272217"><ele>233.0</ele><time>2026-04-26T10:23:32.045Z</time></trkpt><trkpt lat="42.0558" lon="12.1272633"><ele>233.00000000000003</ele><time>2026-04-26T10:23:34.039Z</time></trkpt><trkpt lat="42.0558833" lon="12.1273067"><ele>233.0</ele><time>2026-04-26T10:23:36.042Z</time></trkpt><trkpt lat="42.055965" lon="12.1273467"><ele>233.0</ele><time>2026-04-26T10:23:38.04Z</time></trkpt><trkpt lat="42.0560483" lon="12.12739"><ele>233.0</ele><time>2026-04-26T10:23:40.042Z</time></trkpt><trkpt lat="42.05613" lon="12.1274317"><ele>233.00000000000003</ele><time>2026-04-26T10:23:42.039Z</time></trkpt><trkpt lat="42.0562167" lon="12.1274833"><ele>233.0</ele><time>2026-04-26T10:23:44.042Z</time></trkpt><trkpt lat="42.0563033" lon="12.12753"><ele>232.8</ele><time>2026-04-26T10:23:46.041Z</time></trkpt><trkpt lat="42.0563983" lon="12.1275717"><ele>232.60000000000002</ele><time>2026-04-26T10:23:48.042Z</time></trkpt><trkpt lat="42.0564833" lon="12.1276217"><ele>232.39999999999998</ele><time>2026-04-26T10:23:50.047Z</time></trkpt><trkpt lat="42.0565717" lon="12.1276667"><ele>232.2</ele><time>2026-04-26T10:23:52.043Z</time></trkpt><trkpt lat="42.0566633" lon="12.127715"><ele>232.0</ele><time>2026-04-26T10:23:54.042Z</time></trkpt><trkpt lat="42.05675" lon="12.1277583"><ele>232.6</ele><time>2026-04-26T10:23:56.041Z</time></trkpt><trkpt lat="42.0568367" lon="12.1277983"><ele>233.2</ele><time>2026-04-26T10:23:58.043Z</time></trkpt><trkpt lat="42.0569233" lon="12.1278483"><ele>233.8</ele><time>2026-04-26T10:24:00.045Z</time></trkpt><trkpt lat="42.0570033" lon="12.1278967"><ele>234.4</ele><time>2026-04-26T10:24:02.039Z</time></trkpt><trkpt lat="42.0570917" lon="12.1279417"><ele>235.0</ele><time>2026-04-26T10:24:04.047Z</time></trkpt><trkpt lat="42.0571783" lon="12.12799"><ele>235.0</ele><time>2026-04-26T10:24:06.042Z</time></trkpt><trkpt lat="42.0572583" lon="12.1280433"><ele>235.0</ele><time>2026-04-26T10:24:08.038Z</time></trkpt><trkpt lat="42.057345" lon="12.128095"><ele>235.0</ele><time>2026-04-26T10:24:10.043Z</time></trkpt><trkpt lat="42.05743" lon="12.12816"><ele>235.0</ele><time>2026-04-26T10:24:12.041Z</time></trkpt><trkpt lat="42.05752" lon="12.1282433"><ele>235.0</ele><time>2026-04-26T10:24:14.043Z</time></trkpt><trkpt lat="42.0576083" lon="12.128335"><ele>235.8</ele><time>2026-04-26T10:24:16.04Z</time></trkpt><trkpt lat="42.0576933" lon="12.1284367"><ele>236.6</ele><time>2026-04-26T10:24:18.042Z</time></trkpt><trkpt lat="42.0577667" lon="12.12856"><ele>237.39999999999998</ele><time>2026-04-26T10:24:20.041Z</time></trkpt><trkpt lat="42.05782" lon="12.1287133"><ele>238.2</ele><time>2026-04-26T10:24:22.041Z</time></trkpt><trkpt lat="42.0578417" lon="12.128795"><ele>239.0</ele><time>2026-04-26T10:24:23.043Z</time></trkpt><trkpt lat="42.0578667" lon="12.12896"><ele>239.00000000000003</ele><time>2026-04-26T10:24:25.038Z</time></trkpt><trkpt lat="42.0578767" lon="12.1291283"><ele>239.0</ele><time>2026-04-26T10:24:27.043Z</time></trkpt><trkpt lat="42.0578817" lon="12.1292167"><ele>239.0</ele><time>2026-04-26T10:24:28.041Z</time></trkpt><trkpt lat="42.057885" lon="12.12931"><ele>239.0</ele><time>2026-04-26T10:24:29.047Z</time></trkpt><trkpt lat="42.0578883" lon="12.129405"><ele>239.00000000000003</ele><time>2026-04-26T10:24:30.042Z</time></trkpt><trkpt lat="42.0578917" lon="12.1295"><ele>239.0</ele><time>2026-04-26T10:24:31.042Z</time></trkpt><trkpt lat="42.057895" lon="12.129595"><ele>239.00000000000003</ele><time>2026-04-26T10:24:32.044Z</time></trkpt><trkpt lat="42.057895" lon="12.1296933"><ele>239.0</ele><time>2026-04-26T10:24:33.046Z</time></trkpt><trkpt lat="42.0578933" lon="12.12979"><ele>239.00000000000003</ele><time>2026-04-26T10:24:34.04Z</time></trkpt><trkpt lat="42.057895" lon="12.12989"><ele>239.00000000000003</ele><time>2026-04-26T10:24:35.041Z</time></trkpt><trkpt lat="42.0578917" lon="12.1299883"><ele>239.0</ele><time>2026-04-26T10:24:36.042Z</time></trkpt><trkpt lat="42.0578867" lon="12.1300833"><ele>239.00000000000003</ele><time>2026-04-26T10:24:37.047Z</time></trkpt><trkpt lat="42.0578833" lon="12.1301783"><ele>239.00000000000003</ele><time>2026-04-26T10:24:38.04Z</time></trkpt><trkpt lat="42.0578833" lon="12.1302683"><ele>238.71428571428575</ele><time>2026-04-26T10:24:39.047Z</time></trkpt><trkpt lat="42.057885" lon="12.1303583"><ele>238.42857142857144</ele><time>2026-04-26T10:24:40.044Z</time></trkpt><trkpt lat="42.0578817" lon="12.13045"><ele>238.14285714285714</ele><time>2026-04-26T10:24:41.042Z</time></trkpt><trkpt lat="42.05788" lon="12.130535"><ele>237.85714285714286</ele><time>2026-04-26T10:24:42.042Z</time></trkpt><trkpt lat="42.0578833" lon="12.130625"><ele>237.57142857142856</ele><time>2026-04-26T10:24:43.045Z</time></trkpt><trkpt lat="42.05789" lon="12.1307133"><ele>237.28571428571425</ele><time>2026-04-26T10:24:44.045Z</time></trkpt><trkpt lat="42.0579117" lon="12.1307983"><ele>236.99999999999997</ele><time>2026-04-26T10:24:45.053Z</time></trkpt><trkpt lat="42.057925" lon="12.1308817"><ele>237.0</ele><time>2026-04-26T10:24:46.04Z</time></trkpt><trkpt lat="42.0579683" lon="12.1310267"><ele>237.0</ele><time>2026-04-26T10:24:48.042Z</time></trkpt><trkpt lat="42.0580167" lon="12.1311667"><ele>237.0</ele><time>2026-04-26T10:24:50.045Z</time></trkpt><trkpt lat="42.0580767" lon="12.1313"><ele>237.0</ele><time>2026-04-26T10:24:52.044Z</time></trkpt><trkpt lat="42.0581367" lon="12.1314267"><ele>237.0</ele><time>2026-04-26T10:24:54.045Z</time></trkpt><trkpt lat="42.058175" lon="12.1315283"><ele>237.0</ele><time>2026-04-26T10:24:56.04Z</time></trkpt><trkpt lat="42.058225" lon="12.131625"><ele>237.0</ele><time>2026-04-26T10:24:58.041Z</time></trkpt><trkpt lat="42.058275" lon="12.13173"><ele>237.0</ele><time>2026-04-26T10:25:00.039Z</time></trkpt><trkpt lat="42.0583233" lon="12.1318317"><ele>237.0</ele><time>2026-04-26T10:25:02.041Z</time></trkpt><trkpt lat="42.05837" lon="12.131935"><ele>237.0</ele><time>2026-04-26T10:25:04.041Z</time></trkpt><trkpt lat="42.0584117" lon="12.13203"><ele>237.5</ele><time>2026-04-26T10:25:06.042Z</time></trkpt><trkpt lat="42.05846" lon="12.1321167"><ele>238.0</ele><time>2026-04-26T10:25:08.045Z</time></trkpt><trkpt lat="42.0585117" lon="12.1321983"><ele>238.5</ele><time>2026-04-26T10:25:10.04Z</time></trkpt><trkpt lat="42.0585617" lon="12.1322867"><ele>239.0</ele><time>2026-04-26T10:25:12.042Z</time></trkpt><trkpt lat="42.0586117" lon="12.1323683"><ele>239.5</ele><time>2026-04-26T10:25:14.044Z</time></trkpt><trkpt lat="42.0586683" lon="12.1324533"><ele>240.0</ele><time>2026-04-26T10:25:16.043Z</time></trkpt><trkpt lat="42.0587267" lon="12.1325483"><ele>240.6</ele><time>2026-04-26T10:25:18.041Z</time></trkpt><trkpt lat="42.0587917" lon="12.132645"><ele>241.2</ele><time>2026-04-26T10:25:20.042Z</time></trkpt><trkpt lat="42.058855" lon="12.132755"><ele>241.8</ele><time>2026-04-26T10:25:22.043Z</time></trkpt><trkpt lat="42.0589183" lon="12.1328733"><ele>242.4</ele><time>2026-04-26T10:25:24.045Z</time></trkpt><trkpt lat="42.0589867" lon="12.132995"><ele>243.0</ele><time>2026-04-26T10:25:26.044Z</time></trkpt><trkpt lat="42.05906" lon="12.1331133"><ele>242.4</ele><time>2026-04-26T10:25:28.04Z</time></trkpt><trkpt lat="42.059125" lon="12.1332317"><ele>241.8</ele><time>2026-04-26T10:25:30.04Z</time></trkpt><trkpt lat="42.0591833" lon="12.1333433"><ele>241.2</ele><time>2026-04-26T10:25:32.042Z</time></trkpt><trkpt lat="42.059255" lon="12.1334517"><ele>240.6</ele><time>2026-04-26T10:25:34.042Z</time></trkpt><trkpt lat="42.0593283" lon="12.1335567"><ele>240.0</ele><time>2026-04-26T10:25:36.04Z</time></trkpt><trkpt lat="42.059405" lon="12.13366"><ele>240.0</ele><time>2026-04-26T10:25:38.043Z</time></trkpt><trkpt lat="42.0594883" lon="12.1337583"><ele>240.0</ele><time>2026-04-26T10:25:40.042Z</time></trkpt><trkpt lat="42.0595717" lon="12.133845"><ele>240.0</ele><time>2026-04-26T10:25:42.04Z</time></trkpt><trkpt lat="42.0596583" lon="12.1339233"><ele>240.0</ele><time>2026-04-26T10:25:44.043Z</time></trkpt><trkpt lat="42.059745" lon="12.1339933"><ele>240.0</ele><time>2026-04-26T10:25:46.041Z</time></trkpt><trkpt lat="42.0598333" lon="12.1340633"><ele>240.0</ele><time>2026-04-26T10:25:48.042Z</time></trkpt><trkpt lat="42.0599267" lon="12.1341233"><ele>240.0</ele><time>2026-04-26T10:25:50.041Z</time></trkpt><trkpt lat="42.06002" lon="12.1341783"><ele>240.0</ele><time>2026-04-26T10:25:52.042Z</time></trkpt><trkpt lat="42.0601117" lon="12.1342217"><ele>240.0</ele><time>2026-04-26T10:25:54.041Z</time></trkpt><trkpt lat="42.0602017" lon="12.1342717"><ele>240.0</ele><time>2026-04-26T10:25:56.042Z</time></trkpt><trkpt lat="42.06029" lon="12.1343283"><ele>240.0</ele><time>2026-04-26T10:25:58.041Z</time></trkpt><trkpt lat="42.0603717" lon="12.1343867"><ele>240.0</ele><time>2026-04-26T10:26:00.039Z</time></trkpt><trkpt lat="42.06046" lon="12.1344433"><ele>240.0</ele><time>2026-04-26T10:26:02.044Z</time></trkpt><trkpt lat="42.0605517" lon="12.134495"><ele>240.0</ele><time>2026-04-26T10:26:04.044Z</time></trkpt><trkpt lat="42.0606383" lon="12.134555"><ele>240.0</ele><time>2026-04-26T10:26:06.04Z</time></trkpt><trkpt lat="42.0607283" lon="12.134615"><ele>240.2</ele><time>2026-04-26T10:26:08.045Z</time></trkpt><trkpt lat="42.06082" lon="12.1346717"><ele>240.4</ele><time>2026-04-26T10:26:10.041Z</time></trkpt><trkpt lat="42.0609083" lon="12.1347317"><ele>240.60000000000002</ele><time>2026-04-26T10:26:12.04Z</time></trkpt><trkpt lat="42.0609933" lon="12.1347933"><ele>240.8</ele><time>2026-04-26T10:26:14.041Z</time></trkpt><trkpt lat="42.0610833" lon="12.1348467"><ele>241.0</ele><time>2026-04-26T10:26:16.04Z</time></trkpt><trkpt lat="42.0611717" lon="12.1349017"><ele>241.60000000000002</ele><time>2026-04-26T10:26:18.043Z</time></trkpt><trkpt lat="42.06126" lon="12.1349567"><ele>242.20000000000002</ele><time>2026-04-26T10:26:20.04Z</time></trkpt><trkpt lat="42.0613417" lon="12.1349733"><ele>242.79999999999998</ele><time>2026-04-26T10:26:22.043Z</time></trkpt><trkpt lat="42.0614317" lon="12.134965"><ele>243.39999999999998</ele><time>2026-04-26T10:26:24.04Z</time></trkpt><trkpt lat="42.0615267" lon="12.1349683"><ele>244.0</ele><time>2026-04-26T10:26:26.043Z</time></trkpt><trkpt lat="42.06162" lon="12.13498"><ele>243.99999999999997</ele><time>2026-04-26T10:26:28.041Z</time></trkpt><trkpt lat="42.0617117" lon="12.1349817"><ele>244.0</ele><time>2026-04-26T10:26:30.041Z</time></trkpt><trkpt lat="42.0617967" lon="12.1349783"><ele>244.0</ele><time>2026-04-26T10:26:32.039Z</time></trkpt><trkpt lat="42.0618783" lon="12.1349483"><ele>244.0</ele><time>2026-04-26T10:26:34.04Z</time></trkpt><trkpt lat="42.0619533" lon="12.1348967"><ele>243.99999999999997</ele><time>2026-04-26T10:26:36.042Z</time></trkpt><trkpt lat="42.0620233" lon="12.1348417"><ele>244.0</ele><time>2026-04-26T10:26:38.041Z</time></trkpt><trkpt lat="42.0620967" lon="12.1347883"><ele>243.99999999999997</ele><time>2026-04-26T10:26:40.04Z</time></trkpt><trkpt lat="42.0621617" lon="12.134735"><ele>244.0</ele><time>2026-04-26T10:26:42.043Z</time></trkpt><trkpt lat="42.0622317" lon="12.1346817"><ele>244.0</ele><time>2026-04-26T10:26:44.046Z</time></trkpt><trkpt lat="42.0623" lon="12.1346233"><ele>244.0</ele><time>2026-04-26T10:26:46.042Z</time></trkpt><trkpt lat="42.06237" lon="12.13456"><ele>243.99999999999997</ele><time>2026-04-26T10:26:48.043Z</time></trkpt><trkpt lat="42.06244" lon="12.1344967"><ele>244.0</ele><time>2026-04-26T10:26:50.042Z</time></trkpt><trkpt lat="42.0625067" lon="12.1344333"><ele>244.33333333333331</ele><time>2026-04-26T10:26:52.04Z</time></trkpt><trkpt lat="42.06257" lon="12.13437"><ele>244.66666666666666</ele><time>2026-04-26T10:26:54.041Z</time></trkpt><trkpt lat="42.0626367" lon="12.134315"><ele>245.0</ele><time>2026-04-26T10:26:56.041Z</time></trkpt><trkpt lat="42.0627033" lon="12.1342617"><ele>245.33333333333331</ele><time>2026-04-26T10:26:58.041Z</time></trkpt><trkpt lat="42.06277" lon="12.1342"><ele>245.66666666666666</ele><time>2026-04-26T10:27:00.043Z</time></trkpt><trkpt lat="42.0628367" lon="12.1341433"><ele>246.0</ele><time>2026-04-26T10:27:02.039Z</time></trkpt><trkpt lat="42.0629017" lon="12.13408"><ele>245.71428571428575</ele><time>2026-04-26T10:27:04.042Z</time></trkpt><trkpt lat="42.062965" lon="12.1340267"><ele>245.42857142857144</ele><time>2026-04-26T10:27:06.041Z</time></trkpt><trkpt lat="42.0630267" lon="12.1339733"><ele>245.14285714285714</ele><time>2026-04-26T10:27:08.039Z</time></trkpt><trkpt lat="42.06309" lon="12.1339267"><ele>244.85714285714286</ele><time>2026-04-26T10:27:10.041Z</time></trkpt><trkpt lat="42.06315" lon="12.1338817"><ele>244.57142857142856</ele><time>2026-04-26T10:27:12.042Z</time></trkpt><trkpt lat="42.0632133" lon="12.1338367"><ele>244.28571428571425</ele><time>2026-04-26T10:27:14.04Z</time></trkpt><trkpt lat="42.0632717" lon="12.1337933"><ele>243.99999999999997</ele><time>2026-04-26T10:27:16.042Z</time></trkpt><trkpt lat="42.0633317" lon="12.1337433"><ele>244.99999999999997</ele><time>2026-04-26T10:27:18.041Z</time></trkpt><trkpt lat="42.0633933" lon="12.1336983"><ele>246.0</ele><time>2026-04-26T10:27:20.043Z</time></trkpt><trkpt lat="42.0634517" lon="12.13365"><ele>246.99999999999997</ele><time>2026-04-26T10:27:22.042Z</time></trkpt><trkpt lat="42.06351" lon="12.1336017"><ele>247.99999999999997</ele><time>2026-04-26T10:27:24.044Z</time></trkpt><trkpt lat="42.0635633" lon="12.13355"><ele>249.0</ele><time>2026-04-26T10:27:26.042Z</time></trkpt><trkpt lat="42.0636183" lon="12.1334967"><ele>249.99999999999997</ele><time>2026-04-26T10:27:28.042Z</time></trkpt><trkpt lat="42.0636667" lon="12.13344"><ele>250.99999999999997</ele><time>2026-04-26T10:27:30.042Z</time></trkpt><trkpt lat="42.0637367" lon="12.13336"><ele>251.00000000000003</ele><time>2026-04-26T10:27:33.043Z</time></trkpt><trkpt lat="42.0638133" lon="12.13329"><ele>251.0</ele><time>2026-04-26T10:27:36.039Z</time></trkpt><trkpt lat="42.0638617" lon="12.1332317"><ele>251.0</ele><time>2026-04-26T10:27:38.041Z</time></trkpt><trkpt lat="42.063905" lon="12.1331667"><ele>251.0</ele><time>2026-04-26T10:27:40.043Z</time></trkpt><trkpt lat="42.0639567" lon="12.1331033"><ele>251.00000000000003</ele><time>2026-04-26T10:27:42.041Z</time></trkpt><trkpt lat="42.0640233" lon="12.1330417"><ele>251.0</ele><time>2026-04-26T10:27:44.04Z</time></trkpt><trkpt lat="42.0640917" lon="12.1329767"><ele>251.33333333333334</ele><time>2026-04-26T10:27:46.041Z</time></trkpt><trkpt lat="42.064165" lon="12.13292"><ele>251.66666666666669</ele><time>2026-04-26T10:27:48.04Z</time></trkpt><trkpt lat="42.0642317" lon="12.1328483"><ele>252.0</ele><time>2026-04-26T10:27:50.044Z</time></trkpt><trkpt lat="42.0642967" lon="12.13278"><ele>252.33333333333331</ele><time>2026-04-26T10:27:52.042Z</time></trkpt><trkpt lat="42.064365" lon="12.1327117"><ele>252.66666666666666</ele><time>2026-04-26T10:27:54.048Z</time></trkpt><trkpt lat="42.06444" lon="12.132635"><ele>253.0</ele><time>2026-04-26T10:27:56.04Z</time></trkpt><trkpt lat="42.064515" lon="12.1325667"><ele>253.0</ele><time>2026-04-26T10:27:58.042Z</time></trkpt><trkpt lat="42.0645933" lon="12.1325033"><ele>253.0</ele><time>2026-04-26T10:28:00.04Z</time></trkpt><trkpt lat="42.0646683" lon="12.13244"><ele>253.0</ele><time>2026-04-26T10:28:02.042Z</time></trkpt><trkpt lat="42.0647467" lon="12.1323783"><ele>253.0</ele><time>2026-04-26T10:28:04.042Z</time></trkpt><trkpt lat="42.0648217" lon="12.1323117"><ele>253.0</ele><time>2026-04-26T10:28:06.042Z</time></trkpt><trkpt lat="42.0648967" lon="12.1322417"><ele>253.16666666666666</ele><time>2026-04-26T10:28:08.042Z</time></trkpt><trkpt lat="42.06497" lon="12.13217"><ele>253.33333333333331</ele><time>2026-04-26T10:28:10.042Z</time></trkpt><trkpt lat="42.0650433" lon="12.132105"><ele>253.5</ele><time>2026-04-26T10:28:12.042Z</time></trkpt><trkpt lat="42.065115" lon="12.1320433"><ele>253.66666666666669</ele><time>2026-04-26T10:28:14.045Z</time></trkpt><trkpt lat="42.0651883" lon="12.1319917"><ele>253.83333333333334</ele><time>2026-04-26T10:28:16.044Z</time></trkpt><trkpt lat="42.0652667" lon="12.1319467"><ele>254.0</ele><time>2026-04-26T10:28:18.042Z</time></trkpt><trkpt lat="42.0653383" lon="12.131895"><ele>254.00000000000003</ele><time>2026-04-26T10:28:20.042Z</time></trkpt><trkpt lat="42.06541" lon="12.1318433"><ele>254.0</ele><time>2026-04-26T10:28:22.046Z</time></trkpt><trkpt lat="42.0654817" lon="12.1318033"><ele>254.0</ele><time>2026-04-26T10:28:24.042Z</time></trkpt><trkpt lat="42.06555" lon="12.1317683"><ele>254.0</ele><time>2026-04-26T10:28:26.042Z</time></trkpt><trkpt lat="42.06562" lon="12.1317317"><ele>254.00000000000003</ele><time>2026-04-26T10:28:28.051Z</time></trkpt><trkpt lat="42.0656917" lon="12.1316967"><ele>254.0</ele><time>2026-04-26T10:28:30.041Z</time></trkpt><trkpt lat="42.0657633" lon="12.1316483"><ele>254.00000000000003</ele><time>2026-04-26T10:28:32.042Z</time></trkpt><trkpt lat="42.065835" lon="12.1316017"><ele>254.0</ele><time>2026-04-26T10:28:34.042Z</time></trkpt><trkpt lat="42.065905" lon="12.1315567"><ele>254.0</ele><time>2026-04-26T10:28:36.041Z</time></trkpt><trkpt lat="42.0659767" lon="12.1315133"><ele>254.0</ele><time>2026-04-26T10:28:38.043Z</time></trkpt><trkpt lat="42.0660483" lon="12.13147"><ele>254.00000000000003</ele><time>2026-04-26T10:28:40.045Z</time></trkpt><trkpt lat="42.0661267" lon="12.1314383"><ele>254.0</ele><time>2026-04-26T10:28:42.041Z</time></trkpt><trkpt lat="42.0662" lon="12.1314033"><ele>254.00000000000003</ele><time>2026-04-26T10:28:44.038Z</time></trkpt><trkpt lat="42.0662733" lon="12.1313633"><ele>254.0</ele><time>2026-04-26T10:28:46.04Z</time></trkpt><trkpt lat="42.0663483" lon="12.1313233"><ele>254.0</ele><time>2026-04-26T10:28:48.041Z</time></trkpt><trkpt lat="42.066425" lon="12.1312733"><ele>254.0</ele><time>2026-04-26T10:28:50.048Z</time></trkpt><trkpt lat="42.0665017" lon="12.131235"><ele>254.00000000000003</ele><time>2026-04-26T10:28:52.044Z</time></trkpt><trkpt lat="42.066575" lon="12.1311983"><ele>254.0</ele><time>2026-04-26T10:28:54.042Z</time></trkpt><trkpt lat="42.0666533" lon="12.1311717"><ele>254.00000000000003</ele><time>2026-04-26T10:28:56.041Z</time></trkpt><trkpt lat="42.0667283" lon="12.1311317"><ele>254.0</ele><time>2026-04-26T10:28:58.043Z</time></trkpt><trkpt lat="42.0668033" lon="12.1311017"><ele>254.0</ele><time>2026-04-26T10:29:00.04Z</time></trkpt><trkpt lat="42.0668783" lon="12.1310783"><ele>254.0</ele><time>2026-04-26T10:29:02.042Z</time></trkpt><trkpt lat="42.0669467" lon="12.1310533"><ele>254.00000000000003</ele><time>2026-04-26T10:29:04.04Z</time></trkpt><trkpt lat="42.0670217" lon="12.1310283"><ele>254.0</ele><time>2026-04-26T10:29:06.041Z</time></trkpt><trkpt lat="42.0670933" lon="12.13101"><ele>254.00000000000003</ele><time>2026-04-26T10:29:08.044Z</time></trkpt><trkpt lat="42.0671683" lon="12.1309867"><ele>254.0</ele><time>2026-04-26T10:29:10.046Z</time></trkpt><trkpt lat="42.0672433" lon="12.1309667"><ele>254.0</ele><time>2026-04-26T10:29:12.041Z</time></trkpt><trkpt lat="42.06732" lon="12.130945"><ele>254.0</ele><time>2026-04-26T10:29:14.042Z</time></trkpt><trkpt lat="42.067395" lon="12.1309167"><ele>254.00000000000003</ele><time>2026-04-26T10:29:16.039Z</time></trkpt><trkpt lat="42.0674733" lon="12.1308883"><ele>254.0</ele><time>2026-04-26T10:29:18.043Z</time></trkpt><trkpt lat="42.0675517" lon="12.13086"><ele>254.00000000000003</ele><time>2026-04-26T10:29:20.044Z</time></trkpt><trkpt lat="42.067625" lon="12.1308317"><ele>254.0</ele><time>2026-04-26T10:29:22.042Z</time></trkpt><trkpt lat="42.067705" lon="12.1307983"><ele>254.0</ele><time>2026-04-26T10:29:24.041Z</time></trkpt><trkpt lat="42.0677867" lon="12.1307683"><ele>254.0</ele><time>2026-04-26T10:29:26.046Z</time></trkpt><trkpt lat="42.0678667" lon="12.1307333"><ele>254.00000000000003</ele><time>2026-04-26T10:29:28.044Z</time></trkpt><trkpt lat="42.0679483" lon="12.1307067"><ele>254.0</ele><time>2026-04-26T10:29:30.041Z</time></trkpt><trkpt lat="42.0680283" lon="12.130685"><ele>254.00000000000003</ele><time>2026-04-26T10:29:32.04Z</time></trkpt><trkpt lat="42.06811" lon="12.1306867"><ele>254.0</ele><time>2026-04-26T10:29:34.044Z</time></trkpt><trkpt lat="42.0681867" lon="12.1306983"><ele>254.0</ele><time>2026-04-26T10:29:36.039Z</time></trkpt><trkpt lat="42.0682667" lon="12.1307267"><ele>254.0</ele><time>2026-04-26T10:29:38.042Z</time></trkpt><trkpt lat="42.068355" lon="12.130765"><ele>254.00000000000003</ele><time>2026-04-26T10:29:40.041Z</time></trkpt><trkpt lat="42.06844" lon="12.1308033"><ele>254.0</ele><time>2026-04-26T10:29:42.04Z</time></trkpt><trkpt lat="42.0685317" lon="12.1308567"><ele>254.6</ele><time>2026-04-26T10:29:44.039Z</time></trkpt><trkpt lat="42.0686183" lon="12.1309117"><ele>255.2</ele><time>2026-04-26T10:29:46.039Z</time></trkpt><trkpt lat="42.0687033" lon="12.1309733"><ele>255.79999999999998</ele><time>2026-04-26T10:29:48.041Z</time></trkpt><trkpt lat="42.0687817" lon="12.1310417"><ele>256.4</ele><time>2026-04-26T10:29:50.04Z</time></trkpt><trkpt lat="42.0688617" lon="12.1311083"><ele>257.0</ele><time>2026-04-26T10:29:52.045Z</time></trkpt><trkpt lat="42.0689383" lon="12.1311767"><ele>257.0</ele><time>2026-04-26T10:29:54.041Z</time></trkpt><trkpt lat="42.0690133" lon="12.1312467"><ele>257.0</ele><time>2026-04-26T10:29:56.04Z</time></trkpt><trkpt lat="42.06909" lon="12.1313133"><ele>257.0</ele><time>2026-04-26T10:29:58.042Z</time></trkpt><trkpt lat="42.06917" lon="12.1313833"><ele>257.0</ele><time>2026-04-26T10:30:00.042Z</time></trkpt><trkpt lat="42.06925" lon="12.1314533"><ele>257.0</ele><time>2026-04-26T10:30:02.043Z</time></trkpt><trkpt lat="42.0693283" lon="12.1315217"><ele>257.33333333333337</ele><time>2026-04-26T10:30:04.044Z</time></trkpt><trkpt lat="42.0694117" lon="12.13158"><ele>257.6666666666667</ele><time>2026-04-26T10:30:06.042Z</time></trkpt><trkpt lat="42.06949" lon="12.131645"><ele>258.0</ele><time>2026-04-26T10:30:08.041Z</time></trkpt><trkpt lat="42.06956" lon="12.1317133"><ele>258.3333333333333</ele><time>2026-04-26T10:30:10.044Z</time></trkpt><trkpt lat="42.0696267" lon="12.1317733"><ele>258.66666666666663</ele><time>2026-04-26T10:30:12.039Z</time></trkpt><trkpt lat="42.06969" lon="12.1318283"><ele>259.0</ele><time>2026-04-26T10:30:14.04Z</time></trkpt><trkpt lat="42.0697483" lon="12.1318783"><ele>259.0</ele><time>2026-04-26T10:30:16.041Z</time></trkpt><trkpt lat="42.06981" lon="12.1319167"><ele>259.0</ele><time>2026-04-26T10:30:18.043Z</time></trkpt><trkpt lat="42.0698667" lon="12.131965"><ele>259.0</ele><time>2026-04-26T10:30:20.041Z</time></trkpt><trkpt lat="42.069945" lon="12.1320267"><ele>259.0</ele><time>2026-04-26T10:30:23.042Z</time></trkpt><trkpt lat="42.0700233" lon="12.1320833"><ele>259.0</ele><time>2026-04-26T10:30:26.041Z</time></trkpt><trkpt lat="42.07009" lon="12.132145"><ele>259.0</ele><time>2026-04-26T10:30:29.041Z</time></trkpt><trkpt lat="42.0701617" lon="12.1322067"><ele>259.66666666666663</ele><time>2026-04-26T10:30:32.043Z</time></trkpt><trkpt lat="42.0702333" lon="12.1322633"><ele>260.3333333333333</ele><time>2026-04-26T10:30:35.042Z</time></trkpt><trkpt lat="42.0703117" lon="12.1323217"><ele>261.0</ele><time>2026-04-26T10:30:38.046Z</time></trkpt><trkpt lat="42.0703867" lon="12.1323717"><ele>261.6666666666667</ele><time>2026-04-26T10:30:41.049Z</time></trkpt><trkpt lat="42.070465" lon="12.13243"><ele>262.33333333333337</ele><time>2026-04-26T10:30:44.049Z</time></trkpt><trkpt lat="42.0705233" lon="12.132465"><ele>263.0</ele><time>2026-04-26T10:30:46.042Z</time></trkpt><trkpt lat="42.070585" lon="12.1325"><ele>263.1428571428571</ele><time>2026-04-26T10:30:48.043Z</time></trkpt><trkpt lat="42.070645" lon="12.132535"><ele>263.2857142857143</ele><time>2026-04-26T10:30:50.043Z</time></trkpt><trkpt lat="42.07071" lon="12.1325633"><ele>263.42857142857144</ele><time>2026-04-26T10:30:52.046Z</time></trkpt><trkpt lat="42.0707717" lon="12.1326033"><ele>263.57142857142856</ele><time>2026-04-26T10:30:54.043Z</time></trkpt><trkpt lat="42.07083" lon="12.1326483"><ele>263.7142857142857</ele><time>2026-04-26T10:30:56.04Z</time></trkpt><trkpt lat="42.07089" lon="12.1326917"><ele>263.85714285714283</ele><time>2026-04-26T10:30:58.04Z</time></trkpt><trkpt lat="42.0709567" lon="12.1327283"><ele>264.0</ele><time>2026-04-26T10:31:00.041Z</time></trkpt><trkpt lat="42.0710167" lon="12.1327617"><ele>264.5</ele><time>2026-04-26T10:31:02.05Z</time></trkpt><trkpt lat="42.0710933" lon="12.132795"><ele>265.0</ele><time>2026-04-26T10:31:05.043Z</time></trkpt><trkpt lat="42.071175" lon="12.132835"><ele>265.5</ele><time>2026-04-26T10:31:08.043Z</time></trkpt><trkpt lat="42.0712583" lon="12.132875"><ele>266.0</ele><time>2026-04-26T10:31:11.04Z</time></trkpt><trkpt lat="42.07134" lon="12.1329133"><ele>266.5</ele><time>2026-04-26T10:31:14.041Z</time></trkpt><trkpt lat="42.0714083" lon="12.1329383"><ele>267.0</ele><time>2026-04-26T10:31:17.041Z</time></trkpt><trkpt lat="42.0714733" lon="12.1329733"><ele>267.0</ele><time>2026-04-26T10:31:20.045Z</time></trkpt><trkpt lat="42.0715483" lon="12.1329983"><ele>267.0</ele><time>2026-04-26T10:31:23.04Z</time></trkpt><trkpt lat="42.0716233" lon="12.1330217"><ele>267.0</ele><time>2026-04-26T10:31:26.041Z</time></trkpt><trkpt lat="42.0716983" lon="12.133045"><ele>267.0</ele><time>2026-04-26T10:31:29.041Z</time></trkpt><trkpt lat="42.0717733" lon="12.1330633"><ele>267.0</ele><time>2026-04-26T10:31:32.044Z</time></trkpt><trkpt lat="42.071845" lon="12.1330967"><ele>267.0</ele><time>2026-04-26T10:31:35.039Z</time></trkpt><trkpt lat="42.0719167" lon="12.1331117"><ele>267.3333333333333</ele><time>2026-04-26T10:31:38.044Z</time></trkpt><trkpt lat="42.0719967" lon="12.13314"><ele>267.6666666666667</ele><time>2026-04-26T10:31:41.041Z</time></trkpt><trkpt lat="42.0720733" lon="12.133155"><ele>268.0</ele><time>2026-04-26T10:31:44.044Z</time></trkpt><trkpt lat="42.0721433" lon="12.1331933"><ele>268.33333333333337</ele><time>2026-04-26T10:31:47.041Z</time></trkpt><trkpt lat="42.0722117" lon="12.13322"><ele>268.6666666666667</ele><time>2026-04-26T10:31:50.04Z</time></trkpt><trkpt lat="42.0722867" lon="12.1332433"><ele>269.0</ele><time>2026-04-26T10:31:53.041Z</time></trkpt><trkpt lat="42.072355" lon="12.133265"><ele>269.14285714285717</ele><time>2026-04-26T10:31:56.041Z</time></trkpt><trkpt lat="42.07242" lon="12.1332867"><ele>269.28571428571433</ele><time>2026-04-26T10:31:59.045Z</time></trkpt><trkpt lat="42.0724933" lon="12.1333233"><ele>269.42857142857144</ele><time>2026-04-26T10:32:02.043Z</time></trkpt><trkpt lat="42.0725767" lon="12.1333633"><ele>269.57142857142856</ele><time>2026-04-26T10:32:05.043Z</time></trkpt><trkpt lat="42.0726433" lon="12.1333917"><ele>269.71428571428567</ele><time>2026-04-26T10:32:07.042Z</time></trkpt><trkpt lat="42.07271" lon="12.1334117"><ele>269.85714285714283</ele><time>2026-04-26T10:32:09.046Z</time></trkpt><trkpt lat="42.0727783" lon="12.1334283"><ele>270.0</ele><time>2026-04-26T10:32:11.041Z</time></trkpt><trkpt lat="42.0728667" lon="12.1334567"><ele>270.0</ele><time>2026-04-26T10:32:14.042Z</time></trkpt><trkpt lat="42.0729333" lon="12.1334917"><ele>270.0</ele><time>2026-04-26T10:32:16.046Z</time></trkpt><trkpt lat="42.073005" lon="12.1335267"><ele>270.0</ele><time>2026-04-26T10:32:18.042Z</time></trkpt><trkpt lat="42.07307" lon="12.1335567"><ele>270.0</ele><time>2026-04-26T10:32:20.037Z</time></trkpt><trkpt lat="42.073135" lon="12.133605"><ele>270.0</ele><time>2026-04-26T10:32:22.04Z</time></trkpt><trkpt lat="42.0732017" lon="12.1336617"><ele>270.0</ele><time>2026-04-26T10:32:24.041Z</time></trkpt><trkpt lat="42.073275" lon="12.1337183"><ele>269.8333333333333</ele><time>2026-04-26T10:32:26.039Z</time></trkpt><trkpt lat="42.0733433" lon="12.1337683"><ele>269.6666666666667</ele><time>2026-04-26T10:32:28.039Z</time></trkpt><trkpt lat="42.0734083" lon="12.1338183"><ele>269.5</ele><time>2026-04-26T10:32:30.045Z</time></trkpt><trkpt lat="42.07347" lon="12.1338717"><ele>269.33333333333337</ele><time>2026-04-26T10:32:32.045Z</time></trkpt><trkpt lat="42.07353" lon="12.133925"><ele>269.1666666666667</ele><time>2026-04-26T10:32:34.041Z</time></trkpt><trkpt lat="42.0735983" lon="12.1339767"><ele>269.0</ele><time>2026-04-26T10:32:36.045Z</time></trkpt><trkpt lat="42.073665" lon="12.1340267"><ele>269.14285714285717</ele><time>2026-04-26T10:32:38.043Z</time></trkpt><trkpt lat="42.0737333" lon="12.13408"><ele>269.28571428571433</ele><time>2026-04-26T10:32:40.042Z</time></trkpt><trkpt lat="42.0737967" lon="12.1341317"><ele>269.42857142857144</ele><time>2026-04-26T10:32:42.041Z</time></trkpt><trkpt lat="42.07386" lon="12.1341833"><ele>269.57142857142856</ele><time>2026-04-26T10:32:44.043Z</time></trkpt><trkpt lat="42.0739233" lon="12.1342333"><ele>269.71428571428567</ele><time>2026-04-26T10:32:46.047Z</time></trkpt><trkpt lat="42.0739867" lon="12.13428"><ele>269.85714285714283</ele><time>2026-04-26T10:32:48.04Z</time></trkpt><trkpt lat="42.0740517" lon="12.1343283"><ele>270.0</ele><time>2026-04-26T10:32:50.04Z</time></trkpt><trkpt lat="42.07412" lon="12.134385"><ele>270.3333333333333</ele><time>2026-04-26T10:32:52.04Z</time></trkpt><trkpt lat="42.0741867" lon="12.1344383"><ele>270.6666666666667</ele><time>2026-04-26T10:32:54.04Z</time></trkpt><trkpt lat="42.0742583" lon="12.1344933"><ele>271.0</ele><time>2026-04-26T10:32:56.041Z</time></trkpt><trkpt lat="42.0743317" lon="12.1345517"><ele>271.33333333333337</ele><time>2026-04-26T10:32:58.042Z</time></trkpt><trkpt lat="42.074415" lon="12.1346167"><ele>271.6666666666667</ele><time>2026-04-26T10:33:00.041Z</time></trkpt><trkpt lat="42.0744917" lon="12.1346833"><ele>272.0</ele><time>2026-04-26T10:33:02.042Z</time></trkpt><trkpt lat="42.0745717" lon="12.1347433"><ele>272.0</ele><time>2026-04-26T10:33:04.046Z</time></trkpt><trkpt lat="42.0746483" lon="12.13481"><ele>272.0</ele><time>2026-04-26T10:33:06.044Z</time></trkpt><trkpt lat="42.0747233" lon="12.1348683"><ele>272.0</ele><time>2026-04-26T10:33:08.04Z</time></trkpt><trkpt lat="42.074805" lon="12.1349033"><ele>272.0</ele><time>2026-04-26T10:33:10.043Z</time></trkpt><trkpt lat="42.0748633" lon="12.13494"><ele>272.0</ele><time>2026-04-26T10:33:12.053Z</time></trkpt><trkpt lat="42.07493" lon="12.1349833"><ele>272.0</ele><time>2026-04-26T10:33:14.045Z</time></trkpt><trkpt lat="42.07499" lon="12.1350217"><ele>273.0</ele><time>2026-04-26T10:33:16.045Z</time></trkpt><trkpt lat="42.0750467" lon="12.135075"><ele>274.0</ele><time>2026-04-26T10:33:18.041Z</time></trkpt><trkpt lat="42.075105" lon="12.1351267"><ele>275.0</ele><time>2026-04-26T10:33:20.041Z</time></trkpt><trkpt lat="42.0751717" lon="12.135175"><ele>276.0</ele><time>2026-04-26T10:33:22.042Z</time></trkpt><trkpt lat="42.0752467" lon="12.135225"><ele>277.0</ele><time>2026-04-26T10:33:24.042Z</time></trkpt><trkpt lat="42.0753167" lon="12.1352683"><ele>278.0</ele><time>2026-04-26T10:33:26.043Z</time></trkpt><trkpt lat="42.07539" lon="12.13532"><ele>278.0</ele><time>2026-04-26T10:33:28.04Z</time></trkpt><trkpt lat="42.0754567" lon="12.13538"><ele>278.0</ele><time>2026-04-26T10:33:30.041Z</time></trkpt><trkpt lat="42.075515" lon="12.1354517"><ele>278.0</ele><time>2026-04-26T10:33:32.038Z</time></trkpt><trkpt lat="42.0755817" lon="12.13552"><ele>278.0</ele><time>2026-04-26T10:33:34.041Z</time></trkpt><trkpt lat="42.0756517" lon="12.1355833"><ele>278.0</ele><time>2026-04-26T10:33:36.046Z</time></trkpt><trkpt lat="42.0757167" lon="12.1356333"><ele>278.0</ele><time>2026-04-26T10:33:38.042Z</time></trkpt><trkpt lat="42.07579" lon="12.1356783"><ele>279.0</ele><time>2026-04-26T10:33:40.043Z</time></trkpt><trkpt lat="42.0758617" lon="12.135715"><ele>280.0</ele><time>2026-04-26T10:33:42.042Z</time></trkpt><trkpt lat="42.0759283" lon="12.1357517"><ele>281.0</ele><time>2026-04-26T10:33:44.042Z</time></trkpt><trkpt lat="42.0759967" lon="12.1358"><ele>282.0</ele><time>2026-04-26T10:33:46.041Z</time></trkpt><trkpt lat="42.0760633" lon="12.135845"><ele>283.0</ele><time>2026-04-26T10:33:48.042Z</time></trkpt><trkpt lat="42.0761283" lon="12.13589"><ele>284.0</ele><time>2026-04-26T10:33:50.043Z</time></trkpt><trkpt lat="42.0761983" lon="12.1359367"><ele>284.0</ele><time>2026-04-26T10:33:52.041Z</time></trkpt><trkpt lat="42.0762633" lon="12.1359967"><ele>284.0</ele><time>2026-04-26T10:33:54.041Z</time></trkpt><trkpt lat="42.0763067" lon="12.136065"><ele>284.0</ele><time>2026-04-26T10:33:56.045Z</time></trkpt><trkpt lat="42.0763417" lon="12.1361417"><ele>284.0</ele><time>2026-04-26T10:33:58.042Z</time></trkpt><trkpt lat="42.0763683" lon="12.136225"><ele>284.0</ele><time>2026-04-26T10:34:00.04Z</time></trkpt><trkpt lat="42.0763833" lon="12.1363117"><ele>284.0</ele><time>2026-04-26T10:34:02.04Z</time></trkpt><trkpt lat="42.076415" lon="12.136395"><ele>284.0</ele><time>2026-04-26T10:34:04.046Z</time></trkpt><trkpt lat="42.0764533" lon="12.1364817"><ele>283.7142857142857</ele><time>2026-04-26T10:34:06.041Z</time></trkpt><trkpt lat="42.0764917" lon="12.13656"><ele>283.4285714285714</ele><time>2026-04-26T10:34:08.043Z</time></trkpt><trkpt lat="42.0765233" lon="12.1366467"><ele>283.1428571428571</ele><time>2026-04-26T10:34:10.043Z</time></trkpt><trkpt lat="42.0765483" lon="12.1367317"><ele>282.85714285714283</ele><time>2026-04-26T10:34:12.04Z</time></trkpt><trkpt lat="42.0765817" lon="12.136815"><ele>282.57142857142856</ele><time>2026-04-26T10:34:14.04Z</time></trkpt><trkpt lat="42.076615" lon="12.136895"><ele>282.2857142857143</ele><time>2026-04-26T10:34:16.043Z</time></trkpt><trkpt lat="42.0766733" lon="12.1369917"><ele>282.0</ele><time>2026-04-26T10:34:19.043Z</time></trkpt><trkpt lat="42.076735" lon="12.1370467"><ele>282.0</ele><time>2026-04-26T10:34:21.044Z</time></trkpt><trkpt lat="42.07679" lon="12.1371033"><ele>282.0</ele><time>2026-04-26T10:34:23.043Z</time></trkpt><trkpt lat="42.0768533" lon="12.1371517"><ele>282.0</ele><time>2026-04-26T10:34:25.042Z</time></trkpt><trkpt lat="42.076915" lon="12.1372067"><ele>282.0</ele><time>2026-04-26T10:34:27.042Z</time></trkpt><trkpt lat="42.07698" lon="12.1372867"><ele>282.0</ele><time>2026-04-26T10:34:29.043Z</time></trkpt><trkpt lat="42.0770433" lon="12.1373667"><ele>282.0</ele><time>2026-04-26T10:34:31.043Z</time></trkpt><trkpt lat="42.0771067" lon="12.137435"><ele>281.8333333333333</ele><time>2026-04-26T10:34:33.042Z</time></trkpt><trkpt lat="42.0771717" lon="12.1375033"><ele>281.6666666666667</ele><time>2026-04-26T10:34:35.043Z</time></trkpt><trkpt lat="42.077235" lon="12.1375683"><ele>281.5</ele><time>2026-04-26T10:34:37.043Z</time></trkpt><trkpt lat="42.0773017" lon="12.1376183"><ele>281.33333333333337</ele><time>2026-04-26T10:34:39.041Z</time></trkpt><trkpt lat="42.0773633" lon="12.1376667"><ele>281.1666666666667</ele><time>2026-04-26T10:34:41.043Z</time></trkpt><trkpt lat="42.077425" lon="12.137725"><ele>281.0</ele><time>2026-04-26T10:34:43.042Z</time></trkpt><trkpt lat="42.0774867" lon="12.13778"><ele>281.0</ele><time>2026-04-26T10:34:45.047Z</time></trkpt><trkpt lat="42.0775517" lon="12.13784"><ele>281.0</ele><time>2026-04-26T10:34:47.043Z</time></trkpt><trkpt lat="42.0776133" lon="12.1378983"><ele>281.0</ele><time>2026-04-26T10:34:49.046Z</time></trkpt><trkpt lat="42.077675" lon="12.1379517"><ele>281.0</ele><time>2026-04-26T10:34:51.042Z</time></trkpt><trkpt lat="42.0777317" lon="12.138005"><ele>281.0</ele><time>2026-04-26T10:34:53.042Z</time></trkpt><trkpt lat="42.0777967" lon="12.13806"><ele>281.0</ele><time>2026-04-26T10:34:55.042Z</time></trkpt><trkpt lat="42.0778717" lon="12.1381017"><ele>281.00000000000006</ele><time>2026-04-26T10:34:57.043Z</time></trkpt><trkpt lat="42.0779383" lon="12.1381533"><ele>281.0</ele><time>2026-04-26T10:34:59.04Z</time></trkpt><trkpt lat="42.0780067" lon="12.1382067"><ele>281.0</ele><time>2026-04-26T10:35:01.043Z</time></trkpt><trkpt lat="42.0780683" lon="12.13826"><ele>281.0</ele><time>2026-04-26T10:35:03.042Z</time></trkpt><trkpt lat="42.07813" lon="12.1383067"><ele>281.0</ele><time>2026-04-26T10:35:05.04Z</time></trkpt><trkpt lat="42.0781883" lon="12.13835"><ele>281.00000000000006</ele><time>2026-04-26T10:35:07.04Z</time></trkpt><trkpt lat="42.0782383" lon="12.138405"><ele>281.0</ele><time>2026-04-26T10:35:09.046Z</time></trkpt><trkpt lat="42.0782983" lon="12.13845"><ele>281.33333333333337</ele><time>2026-04-26T10:35:11.048Z</time></trkpt><trkpt lat="42.0783583" lon="12.13849"><ele>281.6666666666667</ele><time>2026-04-26T10:35:13.04Z</time></trkpt><trkpt lat="42.0784417" lon="12.138545"><ele>282.0</ele><time>2026-04-26T10:35:16.041Z</time></trkpt><trkpt lat="42.078515" lon="12.1386167"><ele>282.3333333333333</ele><time>2026-04-26T10:35:19.042Z</time></trkpt><trkpt lat="42.0785917" lon="12.1386767"><ele>282.66666666666663</ele><time>2026-04-26T10:35:22.044Z</time></trkpt><trkpt lat="42.0786583" lon="12.13874"><ele>283.0</ele><time>2026-04-26T10:35:25.042Z</time></trkpt><trkpt lat="42.0787333" lon="12.1387933"><ele>283.0</ele><time>2026-04-26T10:35:28.041Z</time></trkpt><trkpt lat="42.078815" lon="12.1388483"><ele>283.0</ele><time>2026-04-26T10:35:31.042Z</time></trkpt><trkpt lat="42.0788717" lon="12.1388917"><ele>283.0</ele><time>2026-04-26T10:35:33.044Z</time></trkpt><trkpt lat="42.0789283" lon="12.1389367"><ele>283.0</ele><time>2026-04-26T10:35:35.046Z</time></trkpt><trkpt lat="42.0790033" lon="12.13901"><ele>283.0</ele><time>2026-04-26T10:35:38.046Z</time></trkpt><trkpt lat="42.07908" lon="12.1390767"><ele>283.0</ele><time>2026-04-26T10:35:41.045Z</time></trkpt><trkpt lat="42.0791367" lon="12.139115"><ele>283.6</ele><time>2026-04-26T10:35:43.041Z</time></trkpt><trkpt lat="42.0792233" lon="12.1391767"><ele>284.20000000000005</ele><time>2026-04-26T10:35:46.042Z</time></trkpt><trkpt lat="42.079295" lon="12.13924"><ele>284.8</ele><time>2026-04-26T10:35:48.041Z</time></trkpt><trkpt lat="42.0793767" lon="12.139315"><ele>285.40000000000003</ele><time>2026-04-26T10:35:50.042Z</time></trkpt><trkpt lat="42.07946" lon="12.1393983"><ele>286.0</ele><time>2026-04-26T10:35:52.053Z</time></trkpt><trkpt lat="42.0795517" lon="12.1394817"><ele>286.0</ele><time>2026-04-26T10:35:54.044Z</time></trkpt><trkpt lat="42.07965" lon="12.139555"><ele>286.0</ele><time>2026-04-26T10:35:56.04Z</time></trkpt><trkpt lat="42.079745" lon="12.1396133"><ele>286.0</ele><time>2026-04-26T10:35:58.041Z</time></trkpt><trkpt lat="42.0798367" lon="12.139675"><ele>286.0</ele><time>2026-04-26T10:36:00.04Z</time></trkpt><trkpt lat="42.0799083" lon="12.1397567"><ele>286.0</ele><time>2026-04-26T10:36:02.043Z</time></trkpt><trkpt lat="42.0799783" lon="12.1398367"><ele>285.40000000000003</ele><time>2026-04-26T10:36:04.045Z</time></trkpt><trkpt lat="42.0800533" lon="12.139885"><ele>284.8</ele><time>2026-04-26T10:36:06.042Z</time></trkpt><trkpt lat="42.08014" lon="12.13992"><ele>284.20000000000005</ele><time>2026-04-26T10:36:08.04Z</time></trkpt><trkpt lat="42.080235" lon="12.1399783"><ele>283.6</ele><time>2026-04-26T10:36:10.04Z</time></trkpt><trkpt lat="42.0803517" lon="12.1400467"><ele>283.0</ele><time>2026-04-26T10:36:12.043Z</time></trkpt><trkpt lat="42.0804083" lon="12.140085"><ele>283.0</ele><time>2026-04-26T10:36:13.041Z</time></trkpt><trkpt lat="42.080465" lon="12.140135"><ele>283.0</ele><time>2026-04-26T10:36:14.042Z</time></trkpt><trkpt lat="42.08052" lon="12.1401833"><ele>283.0</ele><time>2026-04-26T10:36:15.042Z</time></trkpt><trkpt lat="42.080635" lon="12.140245"><ele>283.0</ele><time>2026-04-26T10:36:17.042Z</time></trkpt><trkpt lat="42.0807517" lon="12.1402783"><ele>283.0</ele><time>2026-04-26T10:36:19.043Z</time></trkpt><trkpt lat="42.080815" lon="12.1402917"><ele>283.0</ele><time>2026-04-26T10:36:20.042Z</time></trkpt><trkpt lat="42.08088" lon="12.1403"><ele>283.25</ele><time>2026-04-26T10:36:21.044Z</time></trkpt><trkpt lat="42.0809983" lon="12.1403117"><ele>283.5</ele><time>2026-04-26T10:36:23.043Z</time></trkpt><trkpt lat="42.0811217" lon="12.1403233"><ele>283.75</ele><time>2026-04-26T10:36:25.042Z</time></trkpt><trkpt lat="42.0812383" lon="12.14034"><ele>284.0</ele><time>2026-04-26T10:36:27.043Z</time></trkpt><trkpt lat="42.08136" lon="12.1403567"><ele>284.0</ele><time>2026-04-26T10:36:29.042Z</time></trkpt><trkpt lat="42.081485" lon="12.1403767"><ele>284.0</ele><time>2026-04-26T10:36:31.042Z</time></trkpt><trkpt lat="42.0815483" lon="12.14039"><ele>284.0</ele><time>2026-04-26T10:36:32.041Z</time></trkpt><trkpt lat="42.0816117" lon="12.1404067"><ele>284.0</ele><time>2026-04-26T10:36:33.048Z</time></trkpt><trkpt lat="42.0816733" lon="12.1404267"><ele>284.0</ele><time>2026-04-26T10:36:34.041Z</time></trkpt><trkpt lat="42.0817367" lon="12.1404433"><ele>284.0</ele><time>2026-04-26T10:36:35.041Z</time></trkpt><trkpt lat="42.0818483" lon="12.14047"><ele>283.4</ele><time>2026-04-26T10:36:37.048Z</time></trkpt><trkpt lat="42.081965" lon="12.1404883"><ele>282.79999999999995</ele><time>2026-04-26T10:36:39.042Z</time></trkpt><trkpt lat="42.0820833" lon="12.1405333"><ele>282.20000000000005</ele><time>2026-04-26T10:36:41.04Z</time></trkpt><trkpt lat="42.0821417" lon="12.140575"><ele>281.6</ele><time>2026-04-26T10:36:42.043Z</time></trkpt><trkpt lat="42.0822367" lon="12.1406817"><ele>281.0</ele><time>2026-04-26T10:36:44.043Z</time></trkpt><trkpt lat="42.0823117" lon="12.1408033"><ele>280.25</ele><time>2026-04-26T10:36:46.042Z</time></trkpt><trkpt lat="42.08238" lon="12.1409217"><ele>279.5</ele><time>2026-04-26T10:36:48.047Z</time></trkpt><trkpt lat="42.0824383" lon="12.1410517"><ele>278.75</ele><time>2026-04-26T10:36:50.042Z</time></trkpt><trkpt lat="42.082495" lon="12.141195"><ele>278.0</ele><time>2026-04-26T10:36:52.046Z</time></trkpt><trkpt lat="42.08254" lon="12.1413517"><ele>278.0</ele><time>2026-04-26T10:36:54.042Z</time></trkpt><trkpt lat="42.082555" lon="12.141435"><ele>278.0</ele><time>2026-04-26T10:36:55.044Z</time></trkpt><trkpt lat="42.0825667" lon="12.1415217"><ele>278.0</ele><time>2026-04-26T10:36:56.043Z</time></trkpt><trkpt lat="42.0825767" lon="12.1416133"><ele>278.0</ele><time>2026-04-26T10:36:57.042Z</time></trkpt><trkpt lat="42.08259" lon="12.1417017"><ele>278.0</ele><time>2026-04-26T10:36:58.04Z</time></trkpt><trkpt lat="42.0826" lon="12.1417883"><ele>278.0</ele><time>2026-04-26T10:36:59.042Z</time></trkpt><trkpt lat="42.082615" lon="12.1418733"><ele>278.0</ele><time>2026-04-26T10:37:00.044Z</time></trkpt><trkpt lat="42.08264" lon="12.1419517"><ele>277.8</ele><time>2026-04-26T10:37:01.045Z</time></trkpt><trkpt lat="42.0827083" lon="12.1420817"><ele>277.6</ele><time>2026-04-26T10:37:03.043Z</time></trkpt><trkpt lat="42.08278" lon="12.1421967"><ele>277.4</ele><time>2026-04-26T10:37:05.041Z</time></trkpt><trkpt lat="42.082835" lon="12.1423"><ele>277.2</ele><time>2026-04-26T10:37:07.043Z</time></trkpt><trkpt lat="42.0828933" lon="12.1423967"><ele>277.0</ele><time>2026-04-26T10:37:09.045Z</time></trkpt><trkpt lat="42.08295" lon="12.1424833"><ele>276.4</ele><time>2026-04-26T10:37:11.043Z</time></trkpt><trkpt lat="42.0829917" lon="12.1425667"><ele>275.79999999999995</ele><time>2026-04-26T10:37:13.044Z</time></trkpt><trkpt lat="42.0830683" lon="12.1426267"><ele>275.2</ele><time>2026-04-26T10:37:15.043Z</time></trkpt><trkpt lat="42.0831633" lon="12.14271"><ele>274.59999999999997</ele><time>2026-04-26T10:37:17.043Z</time></trkpt><trkpt lat="42.083255" lon="12.1428017"><ele>274.0</ele><time>2026-04-26T10:37:19.041Z</time></trkpt><trkpt lat="42.083335" lon="12.1428917"><ele>275.0</ele><time>2026-04-26T10:37:21.041Z</time></trkpt><trkpt lat="42.083425" lon="12.14297"><ele>276.0</ele><time>2026-04-26T10:37:23.041Z</time></trkpt><trkpt lat="42.0835217" lon="12.1430467"><ele>277.0</ele><time>2026-04-26T10:37:25.042Z</time></trkpt><trkpt lat="42.0836367" lon="12.14314"><ele>278.0</ele><time>2026-04-26T10:37:27.043Z</time></trkpt><trkpt lat="42.0837017" lon="12.143185"><ele>279.0</ele><time>2026-04-26T10:37:28.041Z</time></trkpt><trkpt lat="42.0837633" lon="12.1432233"><ele>279.0</ele><time>2026-04-26T10:37:29.041Z</time></trkpt><trkpt lat="42.0838683" lon="12.1432817"><ele>279.0</ele><time>2026-04-26T10:37:31.045Z</time></trkpt><trkpt lat="42.08396" lon="12.1433517"><ele>279.0</ele><time>2026-04-26T10:37:33.044Z</time></trkpt><trkpt lat="42.0840483" lon="12.1434617"><ele>279.0</ele><time>2026-04-26T10:37:35.042Z</time></trkpt><trkpt lat="42.0841" lon="12.14352"><ele>279.0</ele><time>2026-04-26T10:37:36.041Z</time></trkpt><trkpt lat="42.0841567" lon="12.1435783"><ele>277.85714285714283</ele><time>2026-04-26T10:37:37.042Z</time></trkpt><trkpt lat="42.0842083" lon="12.1436333"><ele>276.7142857142857</ele><time>2026-04-26T10:37:38.041Z</time></trkpt><trkpt lat="42.0842633" lon="12.1436917"><ele>275.57142857142856</ele><time>2026-04-26T10:37:39.046Z</time></trkpt><trkpt lat="42.08431" lon="12.14376"><ele>274.42857142857144</ele><time>2026-04-26T10:37:40.042Z</time></trkpt><trkpt lat="42.08436" lon="12.143825"><ele>273.2857142857143</ele><time>2026-04-26T10:37:41.041Z</time></trkpt><trkpt lat="42.0844033" lon="12.1438917"><ele>272.1428571428571</ele><time>2026-04-26T10:37:42.045Z</time></trkpt><trkpt lat="42.08445" lon="12.143965"><ele>271.0</ele><time>2026-04-26T10:37:43.043Z</time></trkpt><trkpt lat="42.0844933" lon="12.1440317"><ele>271.0</ele><time>2026-04-26T10:37:44.041Z</time></trkpt><trkpt lat="42.0845367" lon="12.1440967"><ele>271.0</ele><time>2026-04-26T10:37:45.042Z</time></trkpt><trkpt lat="42.084585" lon="12.144155"><ele>271.0</ele><time>2026-04-26T10:37:46.042Z</time></trkpt><trkpt lat="42.084635" lon="12.1442133"><ele>271.0</ele><time>2026-04-26T10:37:47.04Z</time></trkpt><trkpt lat="42.084685" lon="12.1442783"><ele>271.0</ele><time>2026-04-26T10:37:48.046Z</time></trkpt><trkpt lat="42.084765" lon="12.144415"><ele>271.0</ele><time>2026-04-26T10:37:50.044Z</time></trkpt><trkpt lat="42.0848133" lon="12.1444883"><ele>271.0</ele><time>2026-04-26T10:37:51.044Z</time></trkpt><trkpt lat="42.0848967" lon="12.1446167"><ele>271.0</ele><time>2026-04-26T10:37:53.043Z</time></trkpt><trkpt lat="42.0849533" lon="12.1447417"><ele>271.0</ele><time>2026-04-26T10:37:55.045Z</time></trkpt><trkpt lat="42.0850133" lon="12.1448567"><ele>271.0</ele><time>2026-04-26T10:37:57.043Z</time></trkpt><trkpt lat="42.0850833" lon="12.1449617"><ele>271.0</ele><time>2026-04-26T10:37:59.044Z</time></trkpt><trkpt lat="42.0851383" lon="12.1450667"><ele>270.40000000000003</ele><time>2026-04-26T10:38:01.047Z</time></trkpt><trkpt lat="42.0851883" lon="12.145175"><ele>269.8</ele><time>2026-04-26T10:38:03.041Z</time></trkpt><trkpt lat="42.0852217" lon="12.1453"><ele>269.20000000000005</ele><time>2026-04-26T10:38:05.043Z</time></trkpt><trkpt lat="42.0852467" lon="12.145445"><ele>268.6</ele><time>2026-04-26T10:38:07.041Z</time></trkpt><trkpt lat="42.0852483" lon="12.1455917"><ele>268.0</ele><time>2026-04-26T10:38:09.048Z</time></trkpt><trkpt lat="42.08524" lon="12.1457367"><ele>268.0</ele><time>2026-04-26T10:38:11.043Z</time></trkpt><trkpt lat="42.085235" lon="12.1458833"><ele>268.0</ele><time>2026-04-26T10:38:13.041Z</time></trkpt><trkpt lat="42.0852317" lon="12.14603"><ele>268.0</ele><time>2026-04-26T10:38:15.04Z</time></trkpt><trkpt lat="42.0852333" lon="12.1461667"><ele>268.0</ele><time>2026-04-26T10:38:17.041Z</time></trkpt><trkpt lat="42.085215" lon="12.14629"><ele>268.0</ele><time>2026-04-26T10:38:19.04Z</time></trkpt><trkpt lat="42.0851917" lon="12.146395"><ele>268.0</ele><time>2026-04-26T10:38:21.042Z</time></trkpt><trkpt lat="42.0851667" lon="12.1465"><ele>268.0</ele><time>2026-04-26T10:38:23.057Z</time></trkpt><trkpt lat="42.08513" lon="12.1465983"><ele>268.0</ele><time>2026-04-26T10:38:25.044Z</time></trkpt><trkpt lat="42.08509" lon="12.1466967"><ele>268.0</ele><time>2026-04-26T10:38:27.045Z</time></trkpt><trkpt lat="42.0850483" lon="12.1467783"><ele>268.0</ele><time>2026-04-26T10:38:29.046Z</time></trkpt><trkpt lat="42.0850217" lon="12.1468817"><ele>268.0</ele><time>2026-04-26T10:38:31.043Z</time></trkpt><trkpt lat="42.0849833" lon="12.1469667"><ele>268.42857142857144</ele><time>2026-04-26T10:38:33.043Z</time></trkpt><trkpt lat="42.08496" lon="12.1470633"><ele>268.85714285714283</ele><time>2026-04-26T10:38:35.044Z</time></trkpt><trkpt lat="42.0849483" lon="12.14716"><ele>269.2857142857143</ele><time>2026-04-26T10:38:37.044Z</time></trkpt><trkpt lat="42.0849417" lon="12.14726"><ele>269.7142857142857</ele><time>2026-04-26T10:38:39.041Z</time></trkpt><trkpt lat="42.08493" lon="12.14735"><ele>270.14285714285717</ele><time>2026-04-26T10:38:41.041Z</time></trkpt><trkpt lat="42.084905" lon="12.147435"><ele>270.57142857142856</ele><time>2026-04-26T10:38:43.044Z</time></trkpt><trkpt lat="42.0848883" lon="12.1475233"><ele>271.0</ele><time>2026-04-26T10:38:45.05Z</time></trkpt><trkpt lat="42.08488" lon="12.14761"><ele>271.0</ele><time>2026-04-26T10:38:47.045Z</time></trkpt><trkpt lat="42.084875" lon="12.1477033"><ele>271.0</ele><time>2026-04-26T10:38:49.041Z</time></trkpt><trkpt lat="42.0848667" lon="12.1477967"><ele>271.0</ele><time>2026-04-26T10:38:51.055Z</time></trkpt><trkpt lat="42.0848517" lon="12.1478933"><ele>271.0</ele><time>2026-04-26T10:38:53.041Z</time></trkpt><trkpt lat="42.0848417" lon="12.1479833"><ele>271.0</ele><time>2026-04-26T10:38:55.04Z</time></trkpt><trkpt lat="42.08483" lon="12.1480717"><ele>271.0</ele><time>2026-04-26T10:38:57.043Z</time></trkpt><trkpt lat="42.0848217" lon="12.1481567"><ele>271.0</ele><time>2026-04-26T10:38:59.04Z</time></trkpt><trkpt lat="42.0848067" lon="12.1482467"><ele>271.57142857142856</ele><time>2026-04-26T10:39:01.044Z</time></trkpt><trkpt lat="42.0847917" lon="12.148335"><ele>272.14285714285717</ele><time>2026-04-26T10:39:03.042Z</time></trkpt><trkpt lat="42.084775" lon="12.1484217"><ele>272.7142857142857</ele><time>2026-04-26T10:39:05.045Z</time></trkpt><trkpt lat="42.08475" lon="12.1485"><ele>273.2857142857143</ele><time>2026-04-26T10:39:07.046Z</time></trkpt><trkpt lat="42.0847283" lon="12.1485867"><ele>273.85714285714283</ele><time>2026-04-26T10:39:09.042Z</time></trkpt><trkpt lat="42.0847067" lon="12.1486733"><ele>274.42857142857144</ele><time>2026-04-26T10:39:11.039Z</time></trkpt><trkpt lat="42.0846867" lon="12.1487567"><ele>275.0</ele><time>2026-04-26T10:39:13.041Z</time></trkpt><trkpt lat="42.0846467" lon="12.1488717"><ele>275.0</ele><time>2026-04-26T10:39:16.04Z</time></trkpt><trkpt lat="42.0846183" lon="12.1489583"><ele>275.0</ele><time>2026-04-26T10:39:18.043Z</time></trkpt><trkpt lat="42.0846017" lon="12.1490483"><ele>275.0</ele><time>2026-04-26T10:39:20.041Z</time></trkpt><trkpt lat="42.0845767" lon="12.1491317"><ele>275.0</ele><time>2026-04-26T10:39:22.042Z</time></trkpt><trkpt lat="42.0845533" lon="12.1492117"><ele>275.0</ele><time>2026-04-26T10:39:24.046Z</time></trkpt><trkpt lat="42.084525" lon="12.149315"><ele>275.0</ele><time>2026-04-26T10:39:27.043Z</time></trkpt><trkpt lat="42.0845017" lon="12.149415"><ele>275.0</ele><time>2026-04-26T10:39:30.044Z</time></trkpt><trkpt lat="42.0844817" lon="12.1495133"><ele>275.5</ele><time>2026-04-26T10:39:33.042Z</time></trkpt><trkpt lat="42.0844633" lon="12.1496083"><ele>276.0</ele><time>2026-04-26T10:39:36.045Z</time></trkpt><trkpt lat="42.0844317" lon="12.1497083"><ele>276.5</ele><time>2026-04-26T10:39:39.043Z</time></trkpt><trkpt lat="42.084405" lon="12.1497883"><ele>277.0</ele><time>2026-04-26T10:39:42.04Z</time></trkpt><trkpt lat="42.0843667" lon="12.1498717"><ele>277.5</ele><time>2026-04-26T10:39:46.042Z</time></trkpt><trkpt lat="42.0843367" lon="12.1500033"><ele>278.0</ele><time>2026-04-26T10:41:30.041Z</time></trkpt><trkpt lat="42.0843217" lon="12.1500983"><ele>278.33333333333337</ele><time>2026-04-26T10:41:33.04Z</time></trkpt><trkpt lat="42.0843067" lon="12.150205"><ele>278.6666666666667</ele><time>2026-04-26T10:41:36.041Z</time></trkpt><trkpt lat="42.0842817" lon="12.1503017"><ele>279.0</ele><time>2026-04-26T10:41:39.046Z</time></trkpt><trkpt lat="42.08426" lon="12.1503967"><ele>279.3333333333333</ele><time>2026-04-26T10:41:42.043Z</time></trkpt><trkpt lat="42.0842433" lon="12.150495"><ele>279.66666666666663</ele><time>2026-04-26T10:41:45.05Z</time></trkpt><trkpt lat="42.0842167" lon="12.1505917"><ele>280.0</ele><time>2026-04-26T10:41:48.042Z</time></trkpt><trkpt lat="42.0841817" lon="12.1507"><ele>279.66666666666663</ele><time>2026-04-26T10:41:51.046Z</time></trkpt><trkpt lat="42.0841517" lon="12.15081"><ele>279.3333333333333</ele><time>2026-04-26T10:41:54.045Z</time></trkpt><trkpt lat="42.0841483" lon="12.1509167"><ele>279.0</ele><time>2026-04-26T10:41:57.042Z</time></trkpt><trkpt lat="42.0841633" lon="12.1510433"><ele>278.6666666666667</ele><time>2026-04-26T10:42:00.042Z</time></trkpt><trkpt lat="42.0841317" lon="12.1511417"><ele>278.33333333333337</ele><time>2026-04-26T10:42:02.039Z</time></trkpt><trkpt lat="42.0841" lon="12.15126"><ele>278.0</ele><time>2026-04-26T10:42:04.044Z</time></trkpt><trkpt lat="42.0840667" lon="12.15138"><ele>278.0</ele><time>2026-04-26T10:42:06.042Z</time></trkpt><trkpt lat="42.08404" lon="12.1515133"><ele>278.0</ele><time>2026-04-26T10:42:08.044Z</time></trkpt><trkpt lat="42.0840083" lon="12.1516467"><ele>278.0</ele><time>2026-04-26T10:42:10.041Z</time></trkpt><trkpt lat="42.0839767" lon="12.1517867"><ele>278.0</ele><time>2026-04-26T10:42:12.041Z</time></trkpt><trkpt lat="42.0839383" lon="12.1519267"><ele>278.0</ele><time>2026-04-26T10:42:14.041Z</time></trkpt><trkpt lat="42.0839033" lon="12.15208"><ele>278.0</ele><time>2026-04-26T10:42:16.042Z</time></trkpt><trkpt lat="42.083865" lon="12.1522467"><ele>278.0</ele><time>2026-04-26T10:42:18.044Z</time></trkpt><trkpt lat="42.083845" lon="12.1523367"><ele>278.0</ele><time>2026-04-26T10:42:19.041Z</time></trkpt><trkpt lat="42.0838233" lon="12.1524283"><ele>278.0</ele><time>2026-04-26T10:42:20.044Z</time></trkpt><trkpt lat="42.0838" lon="12.152525"><ele>278.0</ele><time>2026-04-26T10:42:21.046Z</time></trkpt><trkpt lat="42.0837733" lon="12.1526233"><ele>278.0</ele><time>2026-04-26T10:42:22.041Z</time></trkpt><trkpt lat="42.08375" lon="12.1527317"><ele>277.6</ele><time>2026-04-26T10:42:23.041Z</time></trkpt><trkpt lat="42.083725" lon="12.1528467"><ele>277.20000000000005</ele><time>2026-04-26T10:42:24.039Z</time></trkpt><trkpt lat="42.0836967" lon="12.15297"><ele>276.8</ele><time>2026-04-26T10:42:25.041Z</time></trkpt><trkpt lat="42.0836667" lon="12.1530983"><ele>276.40000000000003</ele><time>2026-04-26T10:42:26.041Z</time></trkpt><trkpt lat="42.0836333" lon="12.15323"><ele>276.0</ele><time>2026-04-26T10:42:27.04Z</time></trkpt><trkpt lat="42.0835983" lon="12.1533633"><ele>274.8</ele><time>2026-04-26T10:42:28.045Z</time></trkpt><trkpt lat="42.0835617" lon="12.1535017"><ele>273.6</ele><time>2026-04-26T10:42:29.041Z</time></trkpt><trkpt lat="42.083525" lon="12.1536433"><ele>272.4</ele><time>2026-04-26T10:42:30.039Z</time></trkpt><trkpt lat="42.0834883" lon="12.1537867"><ele>271.2</ele><time>2026-04-26T10:42:31.042Z</time></trkpt><trkpt lat="42.083455" lon="12.153925"><ele>270.0</ele><time>2026-04-26T10:42:32.043Z</time></trkpt><trkpt lat="42.0834233" lon="12.1540567"><ele>269.2</ele><time>2026-04-26T10:42:33.043Z</time></trkpt><trkpt lat="42.0833917" lon="12.1541867"><ele>268.4</ele><time>2026-04-26T10:42:34.04Z</time></trkpt><trkpt lat="42.08336" lon="12.1543117"><ele>267.6</ele><time>2026-04-26T10:42:35.041Z</time></trkpt><trkpt lat="42.08333" lon="12.1544333"><ele>266.8</ele><time>2026-04-26T10:42:36.041Z</time></trkpt><trkpt lat="42.0833" lon="12.1545483"><ele>266.0</ele><time>2026-04-26T10:42:37.043Z</time></trkpt><trkpt lat="42.0832717" lon="12.15466"><ele>266.33333333333337</ele><time>2026-04-26T10:42:38.042Z</time></trkpt><trkpt lat="42.08324" lon="12.1547717"><ele>266.6666666666667</ele><time>2026-04-26T10:42:39.04Z</time></trkpt><trkpt lat="42.0832117" lon="12.1548833"><ele>267.0</ele><time>2026-04-26T10:42:40.042Z</time></trkpt><trkpt lat="42.083185" lon="12.1549967"><ele>267.3333333333333</ele><time>2026-04-26T10:42:41.044Z</time></trkpt><trkpt lat="42.0831567" lon="12.1551067"><ele>267.66666666666663</ele><time>2026-04-26T10:42:42.044Z</time></trkpt><trkpt lat="42.08313" lon="12.155215"><ele>268.0</ele><time>2026-04-26T10:42:43.041Z</time></trkpt><trkpt lat="42.0831033" lon="12.1553217"><ele>267.16666666666663</ele><time>2026-04-26T10:42:44.042Z</time></trkpt><trkpt lat="42.0830767" lon="12.155425"><ele>266.3333333333333</ele><time>2026-04-26T10:42:45.043Z</time></trkpt><trkpt lat="42.0830517" lon="12.1555283"><ele>265.5</ele><time>2026-04-26T10:42:46.039Z</time></trkpt><trkpt lat="42.0830267" lon="12.1556283"><ele>264.6666666666667</ele><time>2026-04-26T10:42:47.046Z</time></trkpt><trkpt lat="42.0830033" lon="12.1557283"><ele>263.83333333333337</ele><time>2026-04-26T10:42:48.042Z</time></trkpt><trkpt lat="42.0829783" lon="12.155825"><ele>263.0</ele><time>2026-04-26T10:42:49.042Z</time></trkpt><trkpt lat="42.0829583" lon="12.1559167"><ele>263.0</ele><time>2026-04-26T10:42:50.042Z</time></trkpt><trkpt lat="42.0829383" lon="12.1560033"><ele>263.0</ele><time>2026-04-26T10:42:51.042Z</time></trkpt><trkpt lat="42.0829217" lon="12.1560883"><ele>263.0</ele><time>2026-04-26T10:42:52.042Z</time></trkpt><trkpt lat="42.082905" lon="12.156175"><ele>263.0</ele><time>2026-04-26T10:42:53.042Z</time></trkpt><trkpt lat="42.0828867" lon="12.15626"><ele>263.0</ele><time>2026-04-26T10:42:54.041Z</time></trkpt><trkpt lat="42.082865" lon="12.1563483"><ele>263.0</ele><time>2026-04-26T10:42:55.042Z</time></trkpt><trkpt lat="42.082845" lon="12.1564417"><ele>263.0</ele><time>2026-04-26T10:42:56.043Z</time></trkpt><trkpt lat="42.082825" lon="12.156535"><ele>263.2</ele><time>2026-04-26T10:42:57.041Z</time></trkpt><trkpt lat="42.08278" lon="12.1567033"><ele>263.4</ele><time>2026-04-26T10:42:59.039Z</time></trkpt><trkpt lat="42.08275" lon="12.156805"><ele>263.59999999999997</ele><time>2026-04-26T10:43:00.04Z</time></trkpt><trkpt lat="42.0827217" lon="12.1569167"><ele>263.8</ele><time>2026-04-26T10:43:01.042Z</time></trkpt><trkpt lat="42.0826933" lon="12.15703"><ele>264.0</ele><time>2026-04-26T10:43:02.041Z</time></trkpt><trkpt lat="42.0826617" lon="12.157145"><ele>264.0</ele><time>2026-04-26T10:43:03.043Z</time></trkpt><trkpt lat="42.0826333" lon="12.1572583"><ele>264.0</ele><time>2026-04-26T10:43:04.048Z</time></trkpt><trkpt lat="42.0826083" lon="12.1573717"><ele>264.0</ele><time>2026-04-26T10:43:05.04Z</time></trkpt><trkpt lat="42.082585" lon="12.1574817"><ele>264.0</ele><time>2026-04-26T10:43:06.041Z</time></trkpt><trkpt lat="42.0825583" lon="12.15759"><ele>264.0</ele><time>2026-04-26T10:43:07.044Z</time></trkpt><trkpt lat="42.0825317" lon="12.1576983"><ele>264.0</ele><time>2026-04-26T10:43:08.039Z</time></trkpt><trkpt lat="42.0825067" lon="12.1578017"><ele>263.8333333333333</ele><time>2026-04-26T10:43:09.041Z</time></trkpt><trkpt lat="42.0824817" lon="12.15789"><ele>263.6666666666667</ele><time>2026-04-26T10:43:10.042Z</time></trkpt><trkpt lat="42.08246" lon="12.15797"><ele>263.5</ele><time>2026-04-26T10:43:11.044Z</time></trkpt><trkpt lat="42.0824317" lon="12.1580567"><ele>263.33333333333337</ele><time>2026-04-26T10:43:12.042Z</time></trkpt><trkpt lat="42.0823783" lon="12.1582033"><ele>263.1666666666667</ele><time>2026-04-26T10:43:14.04Z</time></trkpt><trkpt lat="42.0823533" lon="12.1582833"><ele>263.0</ele><time>2026-04-26T10:43:15.043Z</time></trkpt><trkpt lat="42.0823283" lon="12.1583667"><ele>262.8</ele><time>2026-04-26T10:43:16.043Z</time></trkpt><trkpt lat="42.0823067" lon="12.1584533"><ele>262.6</ele><time>2026-04-26T10:43:17.043Z</time></trkpt><trkpt lat="42.0822883" lon="12.1585383"><ele>262.4</ele><time>2026-04-26T10:43:18.044Z</time></trkpt><trkpt lat="42.0822567" lon="12.1586967"><ele>262.2</ele><time>2026-04-26T10:43:20.039Z</time></trkpt><trkpt lat="42.0822283" lon="12.1588417"><ele>262.0</ele><time>2026-04-26T10:43:22.041Z</time></trkpt><trkpt lat="42.0822033" lon="12.15897"><ele>262.6</ele><time>2026-04-26T10:43:24.042Z</time></trkpt><trkpt lat="42.0821883" lon="12.1590933"><ele>263.2</ele><time>2026-04-26T10:43:26.04Z</time></trkpt><trkpt lat="42.082165" lon="12.1592233"><ele>263.8</ele><time>2026-04-26T10:43:28.041Z</time></trkpt><trkpt lat="42.0821267" lon="12.15936"><ele>264.4</ele><time>2026-04-26T10:43:30.04Z</time></trkpt><trkpt lat="42.0820967" lon="12.1595017"><ele>265.0</ele><time>2026-04-26T10:43:32.042Z</time></trkpt><trkpt lat="42.0820583" lon="12.1596317"><ele>265.0</ele><time>2026-04-26T10:43:34.043Z</time></trkpt><trkpt lat="42.0820283" lon="12.1597517"><ele>265.0</ele><time>2026-04-26T10:43:36.039Z</time></trkpt><trkpt lat="42.0819983" lon="12.1598683"><ele>265.0</ele><time>2026-04-26T10:43:38.043Z</time></trkpt><trkpt lat="42.0819783" lon="12.159975"><ele>265.0</ele><time>2026-04-26T10:43:40.042Z</time></trkpt><trkpt lat="42.08195" lon="12.1600833"><ele>265.0</ele><time>2026-04-26T10:43:42.043Z</time></trkpt><trkpt lat="42.0819283" lon="12.1602"><ele>265.0</ele><time>2026-04-26T10:43:44.042Z</time></trkpt><trkpt lat="42.0819" lon="12.1603083"><ele>266.0</ele><time>2026-04-26T10:43:46.04Z</time></trkpt><trkpt lat="42.0818733" lon="12.16041"><ele>267.0</ele><time>2026-04-26T10:43:48.039Z</time></trkpt><trkpt lat="42.081845" lon="12.1605083"><ele>268.0</ele><time>2026-04-26T10:43:50.042Z</time></trkpt><trkpt lat="42.08182" lon="12.1606167"><ele>269.0</ele><time>2026-04-26T10:43:52.042Z</time></trkpt><trkpt lat="42.0817967" lon="12.1607133"><ele>270.0</ele><time>2026-04-26T10:43:54.04Z</time></trkpt><trkpt lat="42.0817683" lon="12.1607967"><ele>271.0</ele><time>2026-04-26T10:43:56.044Z</time></trkpt><trkpt lat="42.08174" lon="12.1609083"><ele>271.16666666666663</ele><time>2026-04-26T10:43:59.04Z</time></trkpt><trkpt lat="42.0817117" lon="12.16101"><ele>271.3333333333333</ele><time>2026-04-26T10:44:02.042Z</time></trkpt><trkpt lat="42.0816833" lon="12.161125"><ele>271.5</ele><time>2026-04-26T10:44:05.043Z</time></trkpt><trkpt lat="42.08165" lon="12.1612383"><ele>271.6666666666667</ele><time>2026-04-26T10:44:08.04Z</time></trkpt><trkpt lat="42.08162" lon="12.1613583"><ele>271.83333333333337</ele><time>2026-04-26T10:44:11.039Z</time></trkpt><trkpt lat="42.0815983" lon="12.16147"><ele>272.0</ele><time>2026-04-26T10:44:14.041Z</time></trkpt><trkpt lat="42.081575" lon="12.1615767"><ele>272.1428571428571</ele><time>2026-04-26T10:44:17.04Z</time></trkpt><trkpt lat="42.08154" lon="12.1616683"><ele>272.2857142857143</ele><time>2026-04-26T10:44:20.043Z</time></trkpt><trkpt lat="42.081525" lon="12.1617517"><ele>272.42857142857144</ele><time>2026-04-26T10:44:23.041Z</time></trkpt><trkpt lat="42.081515" lon="12.1618517"><ele>272.57142857142856</ele><time>2026-04-26T10:44:27.043Z</time></trkpt><trkpt lat="42.0814967" lon="12.16194"><ele>272.7142857142857</ele><time>2026-04-26T10:44:31.042Z</time></trkpt><trkpt lat="42.081475" lon="12.1620333"><ele>272.85714285714283</ele><time>2026-04-26T10:44:35.043Z</time></trkpt><trkpt lat="42.0814583" lon="12.1621417"><ele>273.0</ele><time>2026-04-26T10:44:38.044Z</time></trkpt><trkpt lat="42.0814417" lon="12.162245"><ele>273.0</ele><time>2026-04-26T10:44:40.041Z</time></trkpt><trkpt lat="42.081425" lon="12.1623617"><ele>273.0</ele><time>2026-04-26T10:44:42.04Z</time></trkpt><trkpt lat="42.0814033" lon="12.1624833"><ele>273.0</ele><time>2026-04-26T10:44:44.039Z</time></trkpt><trkpt lat="42.0813683" lon="12.162625"><ele>273.0</ele><time>2026-04-26T10:44:46.048Z</time></trkpt><trkpt lat="42.0813483" lon="12.1627083"><ele>273.0</ele><time>2026-04-26T10:44:47.042Z</time></trkpt><trkpt lat="42.0813267" lon="12.162795"><ele>273.0</ele><time>2026-04-26T10:44:48.042Z</time></trkpt><trkpt lat="42.0813017" lon="12.16289"><ele>272.5</ele><time>2026-04-26T10:44:49.042Z</time></trkpt><trkpt lat="42.08128" lon="12.16299"><ele>272.0</ele><time>2026-04-26T10:44:50.042Z</time></trkpt><trkpt lat="42.0812567" lon="12.163095"><ele>271.5</ele><time>2026-04-26T10:44:51.041Z</time></trkpt><trkpt lat="42.0812317" lon="12.1632"><ele>271.0</ele><time>2026-04-26T10:44:52.044Z</time></trkpt><trkpt lat="42.08121" lon="12.163305"><ele>270.5</ele><time>2026-04-26T10:44:53.041Z</time></trkpt><trkpt lat="42.0811867" lon="12.163405"><ele>270.0</ele><time>2026-04-26T10:44:54.041Z</time></trkpt><trkpt lat="42.0811633" lon="12.16351"><ele>269.8333333333333</ele><time>2026-04-26T10:44:55.04Z</time></trkpt><trkpt lat="42.0811467" lon="12.1636267"><ele>269.6666666666667</ele><time>2026-04-26T10:44:56.039Z</time></trkpt><trkpt lat="42.081125" lon="12.1637483"><ele>269.5</ele><time>2026-04-26T10:44:57.045Z</time></trkpt><trkpt lat="42.081105" lon="12.1638617"><ele>269.33333333333337</ele><time>2026-04-26T10:44:58.042Z</time></trkpt><trkpt lat="42.081085" lon="12.1639783"><ele>269.1666666666667</ele><time>2026-04-26T10:44:59.041Z</time></trkpt><trkpt lat="42.0810583" lon="12.1640917"><ele>269.0</ele><time>2026-04-26T10:45:00.042Z</time></trkpt><trkpt lat="42.081035" lon="12.1642083"><ele>269.0</ele><time>2026-04-26T10:45:01.041Z</time></trkpt><trkpt lat="42.081015" lon="12.164305"><ele>269.0</ele><time>2026-04-26T10:45:02.042Z</time></trkpt><trkpt lat="42.08099" lon="12.1644"><ele>269.0</ele><time>2026-04-26T10:45:03.043Z</time></trkpt><trkpt lat="42.0809667" lon="12.1645017"><ele>269.0</ele><time>2026-04-26T10:45:04.04Z</time></trkpt><trkpt lat="42.0809433" lon="12.164605"><ele>269.0</ele><time>2026-04-26T10:45:05.042Z</time></trkpt><trkpt lat="42.0809233" lon="12.164705"><ele>269.0</ele><time>2026-04-26T10:45:06.041Z</time></trkpt><trkpt lat="42.080905" lon="12.1647967"><ele>269.0</ele><time>2026-04-26T10:45:07.045Z</time></trkpt><trkpt lat="42.08088" lon="12.1648883"><ele>269.0</ele><time>2026-04-26T10:45:08.045Z</time></trkpt><trkpt lat="42.08085" lon="12.16499"><ele>269.0</ele><time>2026-04-26T10:45:09.047Z</time></trkpt><trkpt lat="42.080825" lon="12.1650867"><ele>269.0</ele><time>2026-04-26T10:45:10.044Z</time></trkpt><trkpt lat="42.080805" lon="12.1651783"><ele>269.0</ele><time>2026-04-26T10:45:11.043Z</time></trkpt><trkpt lat="42.080795" lon="12.1652733"><ele>269.0</ele><time>2026-04-26T10:45:12.04Z</time></trkpt><trkpt lat="42.0807683" lon="12.1654417"><ele>269.1666666666667</ele><time>2026-04-26T10:45:14.041Z</time></trkpt><trkpt lat="42.0807533" lon="12.1655317"><ele>269.33333333333337</ele><time>2026-04-26T10:45:15.043Z</time></trkpt><trkpt lat="42.0807383" lon="12.165625"><ele>269.5</ele><time>2026-04-26T10:45:16.042Z</time></trkpt><trkpt lat="42.0807217" lon="12.16571"><ele>269.6666666666667</ele><time>2026-04-26T10:45:17.041Z</time></trkpt><trkpt lat="42.080685" lon="12.1658583"><ele>269.8333333333333</ele><time>2026-04-26T10:45:19.041Z</time></trkpt><trkpt lat="42.0806667" lon="12.1659433"><ele>270.0</ele><time>2026-04-26T10:45:20.04Z</time></trkpt><trkpt lat="42.0806483" lon="12.1660283"><ele>270.0</ele><time>2026-04-26T10:45:21.046Z</time></trkpt><trkpt lat="42.0806317" lon="12.1661117"><ele>270.0</ele><time>2026-04-26T10:45:22.042Z</time></trkpt><trkpt lat="42.080615" lon="12.1661967"><ele>270.0</ele><time>2026-04-26T10:45:23.039Z</time></trkpt><trkpt lat="42.080595" lon="12.1662817"><ele>270.0</ele><time>2026-04-26T10:45:24.039Z</time></trkpt><trkpt lat="42.0805617" lon="12.1664383"><ele>270.0</ele><time>2026-04-26T10:45:26.044Z</time></trkpt><trkpt lat="42.0805217" lon="12.1665917"><ele>270.0</ele><time>2026-04-26T10:45:28.043Z</time></trkpt><trkpt lat="42.0804933" lon="12.16674"><ele>269.6</ele><time>2026-04-26T10:45:30.04Z</time></trkpt><trkpt lat="42.0804633" lon="12.1668933"><ele>269.2</ele><time>2026-04-26T10:45:32.04Z</time></trkpt><trkpt lat="42.0804333" lon="12.1670333"><ele>268.8</ele><time>2026-04-26T10:45:34.042Z</time></trkpt><trkpt lat="42.0804017" lon="12.167175"><ele>268.4</ele><time>2026-04-26T10:45:36.043Z</time></trkpt><trkpt lat="42.0803783" lon="12.1673117"><ele>268.0</ele><time>2026-04-26T10:45:38.041Z</time></trkpt><trkpt lat="42.0803617" lon="12.1674167"><ele>267.8</ele><time>2026-04-26T10:45:40.039Z</time></trkpt><trkpt lat="42.0803367" lon="12.16752"><ele>267.6</ele><time>2026-04-26T10:45:42.04Z</time></trkpt><trkpt lat="42.0803033" lon="12.1676533"><ele>267.4</ele><time>2026-04-26T10:45:44.051Z</time></trkpt><trkpt lat="42.0802767" lon="12.1678"><ele>267.2</ele><time>2026-04-26T10:45:46.042Z</time></trkpt><trkpt lat="42.0802483" lon="12.1679583"><ele>267.0</ele><time>2026-04-26T10:45:48.043Z</time></trkpt><trkpt lat="42.0802183" lon="12.16811"><ele>267.0</ele><time>2026-04-26T10:45:50.048Z</time></trkpt><trkpt lat="42.0801917" lon="12.1682567"><ele>267.0</ele><time>2026-04-26T10:45:52.044Z</time></trkpt><trkpt lat="42.0801617" lon="12.1684"><ele>267.0</ele><time>2026-04-26T10:45:54.043Z</time></trkpt><trkpt lat="42.0801333" lon="12.16855"><ele>267.0</ele><time>2026-04-26T10:45:56.049Z</time></trkpt><trkpt lat="42.0801" lon="12.1686917"><ele>267.0</ele><time>2026-04-26T10:45:58.042Z</time></trkpt><trkpt lat="42.0800683" lon="12.16883"><ele>267.0</ele><time>2026-04-26T10:46:00.043Z</time></trkpt><trkpt lat="42.08004" lon="12.16896"><ele>267.0</ele><time>2026-04-26T10:46:02.042Z</time></trkpt><trkpt lat="42.0800117" lon="12.1690867"><ele>267.0</ele><time>2026-04-26T10:46:04.041Z</time></trkpt><trkpt lat="42.0799917" lon="12.1692117"><ele>267.0</ele><time>2026-04-26T10:46:06.041Z</time></trkpt><trkpt lat="42.0799867" lon="12.1693383"><ele>267.0</ele><time>2026-04-26T10:46:08.046Z</time></trkpt><trkpt lat="42.07999" lon="12.1694633"><ele>267.5</ele><time>2026-04-26T10:46:10.044Z</time></trkpt><trkpt lat="42.0799933" lon="12.1695867"><ele>268.0</ele><time>2026-04-26T10:46:12.042Z</time></trkpt><trkpt lat="42.0799983" lon="12.1697083"><ele>268.5</ele><time>2026-04-26T10:46:14.046Z</time></trkpt><trkpt lat="42.0799967" lon="12.16982"><ele>269.0</ele><time>2026-04-26T10:46:16.041Z</time></trkpt><trkpt lat="42.0800033" lon="12.1699217"><ele>269.5</ele><time>2026-04-26T10:46:18.04Z</time></trkpt><trkpt lat="42.0800067" lon="12.1700167"><ele>270.0</ele><time>2026-04-26T10:46:20.046Z</time></trkpt><trkpt lat="42.0800217" lon="12.1701217"><ele>270.5</ele><time>2026-04-26T10:46:23.043Z</time></trkpt><trkpt lat="42.0801033" lon="12.1701383"><ele>271.0</ele><time>2026-04-26T10:46:26.041Z</time></trkpt><trkpt lat="42.080175" lon="12.17013"><ele>271.5</ele><time>2026-04-26T10:46:28.043Z</time></trkpt><trkpt lat="42.0802533" lon="12.1701117"><ele>272.0</ele><time>2026-04-26T10:46:30.04Z</time></trkpt><trkpt lat="42.0803317" lon="12.1700983"><ele>272.5</ele><time>2026-04-26T10:46:32.041Z</time></trkpt><trkpt lat="42.0804233" lon="12.1700917"><ele>273.0</ele><time>2026-04-26T10:46:34.046Z</time></trkpt><trkpt lat="42.08052" lon="12.1700883"><ele>273.0</ele><time>2026-04-26T10:46:36.041Z</time></trkpt><trkpt lat="42.080615" lon="12.1700667"><ele>273.0</ele><time>2026-04-26T10:46:38.048Z</time></trkpt><trkpt lat="42.0807183" lon="12.1700483"><ele>273.0</ele><time>2026-04-26T10:46:40.044Z</time></trkpt><trkpt lat="42.0808183" lon="12.1700267"><ele>273.0</ele><time>2026-04-26T10:46:42.04Z</time></trkpt><trkpt lat="42.0809183" lon="12.1700017"><ele>273.0</ele><time>2026-04-26T10:46:44.045Z</time></trkpt><trkpt lat="42.0810133" lon="12.169985"><ele>273.1666666666667</ele><time>2026-04-26T10:46:46.042Z</time></trkpt><trkpt lat="42.0811067" lon="12.1699717"><ele>273.3333333333333</ele><time>2026-04-26T10:46:48.042Z</time></trkpt><trkpt lat="42.0812017" lon="12.1699583"><ele>273.5</ele><time>2026-04-26T10:46:50.043Z</time></trkpt><trkpt lat="42.0812933" lon="12.1699383"><ele>273.66666666666663</ele><time>2026-04-26T10:46:52.044Z</time></trkpt><trkpt lat="42.0813733" lon="12.169915"><ele>273.8333333333333</ele><time>2026-04-26T10:46:54.043Z</time></trkpt><trkpt lat="42.0814483" lon="12.169895"><ele>274.0</ele><time>2026-04-26T10:46:56.044Z</time></trkpt><trkpt lat="42.081515" lon="12.1698783"><ele>273.5</ele><time>2026-04-26T10:46:58.042Z</time></trkpt><trkpt lat="42.0815817" lon="12.1698583"><ele>273.0</ele><time>2026-04-26T10:47:00.043Z</time></trkpt><trkpt lat="42.0816517" lon="12.16983"><ele>272.5</ele><time>2026-04-26T10:47:02.044Z</time></trkpt><trkpt lat="42.0817417" lon="12.169815"><ele>272.0</ele><time>2026-04-26T10:47:05.042Z</time></trkpt><trkpt lat="42.0818217" lon="12.1698083"><ele>271.5</ele><time>2026-04-26T10:47:08.045Z</time></trkpt><trkpt lat="42.0818883" lon="12.169785"><ele>271.0</ele><time>2026-04-26T10:47:10.046Z</time></trkpt><trkpt lat="42.0819567" lon="12.1697633"><ele>272.0</ele><time>2026-04-26T10:47:12.041Z</time></trkpt><trkpt lat="42.0820233" lon="12.1697483"><ele>273.0</ele><time>2026-04-26T10:47:14.042Z</time></trkpt><trkpt lat="42.0821133" lon="12.169735"><ele>274.0</ele><time>2026-04-26T10:47:17.043Z</time></trkpt><trkpt lat="42.0822" lon="12.16971"><ele>275.0</ele><time>2026-04-26T10:47:20.044Z</time></trkpt><trkpt lat="42.08229" lon="12.1696883"><ele>276.0</ele><time>2026-04-26T10:47:23.043Z</time></trkpt><trkpt lat="42.0823733" lon="12.1696783"><ele>277.0</ele><time>2026-04-26T10:47:26.043Z</time></trkpt><trkpt lat="42.08245" lon="12.1696667"><ele>277.66666666666663</ele><time>2026-04-26T10:47:29.043Z</time></trkpt><trkpt lat="42.0825317" lon="12.1696583"><ele>278.3333333333333</ele><time>2026-04-26T10:47:32.045Z</time></trkpt><trkpt lat="42.0826133" lon="12.1696433"><ele>279.0</ele><time>2026-04-26T10:47:35.044Z</time></trkpt><trkpt lat="42.0826933" lon="12.1696183"><ele>279.6666666666667</ele><time>2026-04-26T10:47:38.046Z</time></trkpt><trkpt lat="42.0827683" lon="12.1696167"><ele>280.33333333333337</ele><time>2026-04-26T10:47:41.04Z</time></trkpt><trkpt lat="42.0828467" lon="12.169615"><ele>281.0</ele><time>2026-04-26T10:47:44.043Z</time></trkpt><trkpt lat="42.0829267" lon="12.169595"><ele>281.0</ele><time>2026-04-26T10:47:47.046Z</time></trkpt><trkpt lat="42.0830083" lon="12.1695733"><ele>281.0</ele><time>2026-04-26T10:47:50.043Z</time></trkpt><trkpt lat="42.08309" lon="12.1695533"><ele>281.0</ele><time>2026-04-26T10:47:53.043Z</time></trkpt><trkpt lat="42.0831667" lon="12.169545"><ele>281.0</ele><time>2026-04-26T10:47:56.049Z</time></trkpt><trkpt lat="42.0832467" lon="12.16953"><ele>281.0</ele><time>2026-04-26T10:47:59.045Z</time></trkpt><trkpt lat="42.0833233" lon="12.1695133"><ele>281.0</ele><time>2026-04-26T10:48:02.043Z</time></trkpt><trkpt lat="42.0834" lon="12.1694933"><ele>281.7142857142857</ele><time>2026-04-26T10:48:05.042Z</time></trkpt><trkpt lat="42.0834817" lon="12.1694733"><ele>282.42857142857144</ele><time>2026-04-26T10:48:08.039Z</time></trkpt><trkpt lat="42.0835533" lon="12.169455"><ele>283.1428571428571</ele><time>2026-04-26T10:48:11.047Z</time></trkpt><trkpt lat="42.0836283" lon="12.16945"><ele>283.8571428571429</ele><time>2026-04-26T10:48:15.043Z</time></trkpt><trkpt lat="42.0836917" lon="12.16943"><ele>284.57142857142856</ele><time>2026-04-26T10:48:18.041Z</time></trkpt><trkpt lat="42.0837617" lon="12.1694083"><ele>285.2857142857143</ele><time>2026-04-26T10:48:21.042Z</time></trkpt><trkpt lat="42.08383" lon="12.1693883"><ele>286.0</ele><time>2026-04-26T10:48:24.045Z</time></trkpt><trkpt lat="42.0838967" lon="12.169375"><ele>285.99999999999994</ele><time>2026-04-26T10:48:27.04Z</time></trkpt><trkpt lat="42.0839683" lon="12.1693917"><ele>286.0</ele><time>2026-04-26T10:48:32.038Z</time></trkpt><trkpt lat="42.0839833" lon="12.169485"><ele>286.0</ele><time>2026-04-26T10:48:35.046Z</time></trkpt><trkpt lat="42.08399" lon="12.16957"><ele>286.0</ele><time>2026-04-26T10:48:38.041Z</time></trkpt><trkpt lat="42.0840067" lon="12.1696667"><ele>286.0</ele><time>2026-04-26T10:48:42.047Z</time></trkpt><trkpt lat="42.08401" lon="12.16976"><ele>285.99999999999994</ele><time>2026-04-26T10:48:46.046Z</time></trkpt><trkpt lat="42.084005" lon="12.169855"><ele>286.0</ele><time>2026-04-26T10:48:49.043Z</time></trkpt><trkpt lat="42.0840133" lon="12.1699633"><ele>286.2857142857143</ele><time>2026-04-26T10:48:52.043Z</time></trkpt><trkpt lat="42.08403" lon="12.1700833"><ele>286.57142857142856</ele><time>2026-04-26T10:48:55.044Z</time></trkpt><trkpt lat="42.08403" lon="12.1701683"><ele>286.8571428571429</ele><time>2026-04-26T10:48:57.043Z</time></trkpt><trkpt lat="42.0840283" lon="12.170255"><ele>287.1428571428571</ele><time>2026-04-26T10:48:59.044Z</time></trkpt><trkpt lat="42.0840283" lon="12.1703483"><ele>287.42857142857144</ele><time>2026-04-26T10:49:01.041Z</time></trkpt><trkpt lat="42.0840317" lon="12.17044"><ele>287.7142857142857</ele><time>2026-04-26T10:49:03.044Z</time></trkpt><trkpt lat="42.0840367" lon="12.1705367"><ele>288.0</ele><time>2026-04-26T10:49:05.04Z</time></trkpt><trkpt lat="42.0840433" lon="12.1706317"><ele>288.42857142857144</ele><time>2026-04-26T10:49:07.041Z</time></trkpt><trkpt lat="42.0840467" lon="12.1707283"><ele>288.8571428571429</ele><time>2026-04-26T10:49:09.045Z</time></trkpt><trkpt lat="42.084045" lon="12.1708283"><ele>289.2857142857143</ele><time>2026-04-26T10:49:11.051Z</time></trkpt><trkpt lat="42.0840517" lon="12.1709267"><ele>289.7142857142857</ele><time>2026-04-26T10:49:13.043Z</time></trkpt><trkpt lat="42.0840583" lon="12.1710233"><ele>290.1428571428571</ele><time>2026-04-26T10:49:15.042Z</time></trkpt><trkpt lat="42.0840583" lon="12.1711233"><ele>290.57142857142856</ele><time>2026-04-26T10:49:17.041Z</time></trkpt><trkpt lat="42.08406" lon="12.1712167"><ele>291.0</ele><time>2026-04-26T10:49:19.041Z</time></trkpt><trkpt lat="42.0840533" lon="12.1713067"><ele>291.0</ele><time>2026-04-26T10:49:21.043Z</time></trkpt><trkpt lat="42.0840533" lon="12.1713917"><ele>291.0</ele><time>2026-04-26T10:49:23.042Z</time></trkpt><trkpt lat="42.0840567" lon="12.17148"><ele>291.0</ele><time>2026-04-26T10:49:25.043Z</time></trkpt><trkpt lat="42.0840633" lon="12.1715733"><ele>291.0</ele><time>2026-04-26T10:49:27.045Z</time></trkpt><trkpt lat="42.0840683" lon="12.17167"><ele>291.0</ele><time>2026-04-26T10:49:29.044Z</time></trkpt><trkpt lat="42.084075" lon="12.1717733"><ele>291.0</ele><time>2026-04-26T10:49:31.046Z</time></trkpt><trkpt lat="42.0840783" lon="12.17189"><ele>291.0</ele><time>2026-04-26T10:49:33.039Z</time></trkpt><trkpt lat="42.0840817" lon="12.1720083"><ele>290.8</ele><time>2026-04-26T10:49:35.043Z</time></trkpt><trkpt lat="42.084085" lon="12.172125"><ele>290.6</ele><time>2026-04-26T10:49:37.043Z</time></trkpt><trkpt lat="42.0840833" lon="12.1722633"><ele>290.4</ele><time>2026-04-26T10:49:39.046Z</time></trkpt><trkpt lat="42.0840917" lon="12.1723967"><ele>290.2</ele><time>2026-04-26T10:49:41.043Z</time></trkpt><trkpt lat="42.0841" lon="12.172545"><ele>290.0</ele><time>2026-04-26T10:49:43.047Z</time></trkpt><trkpt lat="42.0840967" lon="12.1727167"><ele>290.0</ele><time>2026-04-26T10:49:45.048Z</time></trkpt><trkpt lat="42.0840983" lon="12.1728283"><ele>290.0</ele><time>2026-04-26T10:49:46.044Z</time></trkpt><trkpt lat="42.0841033" lon="12.1729583"><ele>290.0</ele><time>2026-04-26T10:49:47.041Z</time></trkpt><trkpt lat="42.084105" lon="12.1730833"><ele>290.0</ele><time>2026-04-26T10:49:48.042Z</time></trkpt><trkpt lat="42.084115" lon="12.1732183"><ele>290.0</ele><time>2026-04-26T10:49:49.041Z</time></trkpt><trkpt lat="42.08412" lon="12.1733533"><ele>290.0</ele><time>2026-04-26T10:49:50.045Z</time></trkpt><trkpt lat="42.0841233" lon="12.17349"><ele>290.0</ele><time>2026-04-26T10:49:51.044Z</time></trkpt><trkpt lat="42.084125" lon="12.1736217"><ele>290.0</ele><time>2026-04-26T10:49:52.039Z</time></trkpt><trkpt lat="42.0841333" lon="12.173755"><ele>290.0</ele><time>2026-04-26T10:49:53.041Z</time></trkpt><trkpt lat="42.0841333" lon="12.1738867"><ele>290.0</ele><time>2026-04-26T10:49:54.04Z</time></trkpt><trkpt lat="42.084135" lon="12.1740167"><ele>289.4</ele><time>2026-04-26T10:49:55.039Z</time></trkpt><trkpt lat="42.0841367" lon="12.1741467"><ele>288.8</ele><time>2026-04-26T10:49:56.042Z</time></trkpt><trkpt lat="42.084145" lon="12.17428"><ele>288.2</ele><time>2026-04-26T10:49:57.04Z</time></trkpt><trkpt lat="42.0841517" lon="12.1744133"><ele>287.6</ele><time>2026-04-26T10:49:58.043Z</time></trkpt><trkpt lat="42.0841633" lon="12.1745467"><ele>287.0</ele><time>2026-04-26T10:49:59.041Z</time></trkpt><trkpt lat="42.0841683" lon="12.1746783"><ele>287.0</ele><time>2026-04-26T10:50:00.04Z</time></trkpt><trkpt lat="42.0841733" lon="12.174805"><ele>287.0</ele><time>2026-04-26T10:50:01.04Z</time></trkpt><trkpt lat="42.0841783" lon="12.174925"><ele>287.0</ele><time>2026-04-26T10:50:02.041Z</time></trkpt><trkpt lat="42.0841867" lon="12.1750333"><ele>287.0</ele><time>2026-04-26T10:50:03.041Z</time></trkpt><trkpt lat="42.0841917" lon="12.1751317"><ele>287.0</ele><time>2026-04-26T10:50:04.042Z</time></trkpt><trkpt lat="42.0841933" lon="12.1752267"><ele>287.0</ele><time>2026-04-26T10:50:05.041Z</time></trkpt><trkpt lat="42.0841933" lon="12.1753217"><ele>286.57142857142856</ele><time>2026-04-26T10:50:06.045Z</time></trkpt><trkpt lat="42.0842" lon="12.1754133"><ele>286.1428571428571</ele><time>2026-04-26T10:50:07.042Z</time></trkpt><trkpt lat="42.0842083" lon="12.175505"><ele>285.7142857142857</ele><time>2026-04-26T10:50:08.041Z</time></trkpt><trkpt lat="42.0842117" lon="12.1755983"><ele>285.2857142857143</ele><time>2026-04-26T10:50:09.041Z</time></trkpt><trkpt lat="42.0842117" lon="12.1756983"><ele>284.85714285714283</ele><time>2026-04-26T10:50:10.04Z</time></trkpt><trkpt lat="42.0842033" lon="12.1758033"><ele>284.42857142857144</ele><time>2026-04-26T10:50:11.041Z</time></trkpt><trkpt lat="42.0841983" lon="12.17591"><ele>284.0</ele><time>2026-04-26T10:50:12.04Z</time></trkpt><trkpt lat="42.084205" lon="12.17602"><ele>283.6666666666667</ele><time>2026-04-26T10:50:13.048Z</time></trkpt><trkpt lat="42.0842083" lon="12.176135"><ele>283.33333333333337</ele><time>2026-04-26T10:50:14.041Z</time></trkpt><trkpt lat="42.0842083" lon="12.1762433"><ele>283.0</ele><time>2026-04-26T10:50:15.041Z</time></trkpt><trkpt lat="42.0842083" lon="12.1763467"><ele>282.6666666666667</ele><time>2026-04-26T10:50:16.04Z</time></trkpt><trkpt lat="42.08421" lon="12.1764517"><ele>282.3333333333333</ele><time>2026-04-26T10:50:17.039Z</time></trkpt><trkpt lat="42.0842133" lon="12.17656"><ele>282.0</ele><time>2026-04-26T10:50:18.041Z</time></trkpt><trkpt lat="42.08421" lon="12.1766633"><ele>281.8571428571429</ele><time>2026-04-26T10:50:19.039Z</time></trkpt><trkpt lat="42.0842133" lon="12.176765"><ele>281.7142857142857</ele><time>2026-04-26T10:50:20.044Z</time></trkpt><trkpt lat="42.0842167" lon="12.1768667"><ele>281.57142857142856</ele><time>2026-04-26T10:50:21.041Z</time></trkpt><trkpt lat="42.08422" lon="12.1769633"><ele>281.42857142857144</ele><time>2026-04-26T10:50:22.041Z</time></trkpt><trkpt lat="42.0842183" lon="12.177055"><ele>281.2857142857143</ele><time>2026-04-26T10:50:23.039Z</time></trkpt><trkpt lat="42.0842217" lon="12.1771467"><ele>281.14285714285717</ele><time>2026-04-26T10:50:24.04Z</time></trkpt><trkpt lat="42.0842233" lon="12.1772333"><ele>281.0</ele><time>2026-04-26T10:50:25.042Z</time></trkpt><trkpt lat="42.0842267" lon="12.1774017"><ele>280.5</ele><time>2026-04-26T10:50:27.042Z</time></trkpt><trkpt lat="42.08423" lon="12.1775533"><ele>280.0</ele><time>2026-04-26T10:50:29.039Z</time></trkpt><trkpt lat="42.0842433" lon="12.17766"><ele>279.5</ele><time>2026-04-26T10:50:31.042Z</time></trkpt><trkpt lat="42.08429" lon="12.1777483"><ele>279.0</ele><time>2026-04-26T10:50:33.052Z</time></trkpt><trkpt lat="42.084355" lon="12.177845"><ele>278.5</ele><time>2026-04-26T10:50:35.044Z</time></trkpt><trkpt lat="42.0844033" lon="12.1779033"><ele>278.0</ele><time>2026-04-26T10:50:36.042Z</time></trkpt><trkpt lat="42.084455" lon="12.1779667"><ele>278.0</ele><time>2026-04-26T10:50:37.043Z</time></trkpt><trkpt lat="42.084515" lon="12.17803"><ele>278.0</ele><time>2026-04-26T10:50:38.041Z</time></trkpt><trkpt lat="42.0845717" lon="12.1780967"><ele>278.0</ele><time>2026-04-26T10:50:39.041Z</time></trkpt><trkpt lat="42.0846233" lon="12.1781717"><ele>278.0</ele><time>2026-04-26T10:50:40.047Z</time></trkpt><trkpt lat="42.0846833" lon="12.17825"><ele>278.0</ele><time>2026-04-26T10:50:41.039Z</time></trkpt><trkpt lat="42.084745" lon="12.17833"><ele>278.0</ele><time>2026-04-26T10:50:42.041Z</time></trkpt><trkpt lat="42.08481" lon="12.1784167"><ele>277.6666666666667</ele><time>2026-04-26T10:50:43.045Z</time></trkpt><trkpt lat="42.0848667" lon="12.1785067"><ele>277.33333333333337</ele><time>2026-04-26T10:50:44.04Z</time></trkpt><trkpt lat="42.0849267" lon="12.178585"><ele>277.0</ele><time>2026-04-26T10:50:45.043Z</time></trkpt><trkpt lat="42.0849983" lon="12.178645"><ele>276.6666666666667</ele><time>2026-04-26T10:50:46.039Z</time></trkpt><trkpt lat="42.0850817" lon="12.1786783"><ele>276.3333333333333</ele><time>2026-04-26T10:50:47.04Z</time></trkpt><trkpt lat="42.0851633" lon="12.1786933"><ele>276.0</ele><time>2026-04-26T10:50:48.042Z</time></trkpt><trkpt lat="42.0852317" lon="12.1787167"><ele>275.2857142857143</ele><time>2026-04-26T10:50:49.04Z</time></trkpt><trkpt lat="42.0852833" lon="12.1787667"><ele>274.5714285714286</ele><time>2026-04-26T10:50:50.039Z</time></trkpt><trkpt lat="42.085325" lon="12.178835"><ele>273.8571428571429</ele><time>2026-04-26T10:50:51.047Z</time></trkpt><trkpt lat="42.085345" lon="12.17892"><ele>273.14285714285717</ele><time>2026-04-26T10:50:52.039Z</time></trkpt><trkpt lat="42.085345" lon="12.1790117"><ele>272.42857142857144</ele><time>2026-04-26T10:50:53.038Z</time></trkpt><trkpt lat="42.0853167" lon="12.179095"><ele>271.7142857142857</ele><time>2026-04-26T10:50:54.04Z</time></trkpt><trkpt lat="42.0852767" lon="12.1791717"><ele>271.0</ele><time>2026-04-26T10:50:55.038Z</time></trkpt><trkpt lat="42.085205" lon="12.1792483"><ele>270.66666666666663</ele><time>2026-04-26T10:50:56.041Z</time></trkpt><trkpt lat="42.0851383" lon="12.1793367"><ele>270.3333333333333</ele><time>2026-04-26T10:50:57.046Z</time></trkpt><trkpt lat="42.08507" lon="12.1794233"><ele>270.0</ele><time>2026-04-26T10:50:58.044Z</time></trkpt><trkpt lat="42.0850067" lon="12.179505"><ele>269.6666666666667</ele><time>2026-04-26T10:50:59.04Z</time></trkpt><trkpt lat="42.0849383" lon="12.1795783"><ele>269.33333333333337</ele><time>2026-04-26T10:51:00.042Z</time></trkpt><trkpt lat="42.0848617" lon="12.1796283"><ele>269.0</ele><time>2026-04-26T10:51:01.04Z</time></trkpt><trkpt lat="42.0847833" lon="12.1796517"><ele>269.0</ele><time>2026-04-26T10:51:02.044Z</time></trkpt><trkpt lat="42.0847133" lon="12.1796533"><ele>269.0</ele><time>2026-04-26T10:51:03.043Z</time></trkpt><trkpt lat="42.084645" lon="12.179655"><ele>269.0</ele><time>2026-04-26T10:51:04.039Z</time></trkpt><trkpt lat="42.084545" lon="12.1796567"><ele>269.0</ele><time>2026-04-26T10:51:06.043Z</time></trkpt><trkpt lat="42.0844733" lon="12.1796617"><ele>269.0</ele><time>2026-04-26T10:51:08.038Z</time></trkpt><trkpt lat="42.0844033" lon="12.1796717"><ele>269.0</ele><time>2026-04-26T10:51:11.041Z</time></trkpt></trkseg></trk></gpx>